<?xml version="1.0" encoding="UTF-8" standalone="no" ?>
<gpx xmlns="http://www.topografix.com/GPX/1/1" xmlns:xsi="http://www.w3.org/2001/XMLSchema-instance" xsi:schemaLocation="http://www.topografix.com/GPX/1/1 http://www.topografix.com/GPX/1/1/gpx.xsd" version="1.1" creator="VisuGPX - https://www.visugpx.com">
  <metadata>
    <name>ACTIVE LOG 002</name>
  </metadata>
  <trk>
    <name><![CDATA[ACTIVE LOG 002]]></name>
    <trkseg>
      <trkpt lat="48.09457" lon="-0.35686">
        <ele>123</ele>
        <time>2018-05-20T07:12:33Z</time>
      </trkpt>
      <trkpt lat="48.09456" lon="-0.35685">
        <ele>123</ele>
        <time>2018-05-20T07:27:57Z</time>
      </trkpt>
      <trkpt lat="48.09456" lon="-0.35686">
        <ele>123</ele>
        <time>2018-05-20T07:28:30Z</time>
      </trkpt>
      <trkpt lat="48.09456" lon="-0.35686">
        <ele>123</ele>
        <time>2018-05-20T07:30:47Z</time>
      </trkpt>
      <trkpt lat="48.09455" lon="-0.35684">
        <ele>123</ele>
        <time>2018-05-20T07:30:49Z</time>
      </trkpt>
      <trkpt lat="48.09439" lon="-0.35667">
        <ele>122</ele>
        <time>2018-05-20T07:30:59Z</time>
      </trkpt>
      <trkpt lat="48.09415" lon="-0.35647">
        <ele>119</ele>
        <time>2018-05-20T07:31:08Z</time>
      </trkpt>
      <trkpt lat="48.09409" lon="-0.3564">
        <ele>118</ele>
        <time>2018-05-20T07:31:16Z</time>
      </trkpt>
      <trkpt lat="48.0941" lon="-0.35613">
        <ele>118</ele>
        <time>2018-05-20T07:31:25Z</time>
      </trkpt>
      <trkpt lat="48.09422" lon="-0.35569">
        <ele>123</ele>
        <time>2018-05-20T07:31:38Z</time>
      </trkpt>
      <trkpt lat="48.09439" lon="-0.3551">
        <ele>123</ele>
        <time>2018-05-20T07:31:55Z</time>
      </trkpt>
      <trkpt lat="48.09454" lon="-0.35451">
        <ele>124</ele>
        <time>2018-05-20T07:32:13Z</time>
      </trkpt>
      <trkpt lat="48.09482" lon="-0.3542">
        <ele>126</ele>
        <time>2018-05-20T07:32:29Z</time>
      </trkpt>
      <trkpt lat="48.09521" lon="-0.35419">
        <ele>130</ele>
        <time>2018-05-20T07:32:49Z</time>
      </trkpt>
      <trkpt lat="48.09559" lon="-0.35449">
        <ele>133</ele>
        <time>2018-05-20T07:33:10Z</time>
      </trkpt>
      <trkpt lat="48.09601" lon="-0.3549">
        <ele>138</ele>
        <time>2018-05-20T07:33:35Z</time>
      </trkpt>
      <trkpt lat="48.09639" lon="-0.35516">
        <ele>139</ele>
        <time>2018-05-20T07:33:56Z</time>
      </trkpt>
      <trkpt lat="48.0967" lon="-0.35504">
        <ele>143</ele>
        <time>2018-05-20T07:34:13Z</time>
      </trkpt>
      <trkpt lat="48.09684" lon="-0.35462">
        <ele>144</ele>
        <time>2018-05-20T07:34:29Z</time>
      </trkpt>
      <trkpt lat="48.0968" lon="-0.35399">
        <ele>145</ele>
        <time>2018-05-20T07:34:50Z</time>
      </trkpt>
      <trkpt lat="48.09672" lon="-0.35328">
        <ele>148</ele>
        <time>2018-05-20T07:35:13Z</time>
      </trkpt>
      <trkpt lat="48.09663" lon="-0.35259">
        <ele>147</ele>
        <time>2018-05-20T07:35:37Z</time>
      </trkpt>
      <trkpt lat="48.09655" lon="-0.35195">
        <ele>145</ele>
        <time>2018-05-20T07:35:59Z</time>
      </trkpt>
      <trkpt lat="48.0966" lon="-0.35145">
        <ele>147</ele>
        <time>2018-05-20T07:36:16Z</time>
      </trkpt>
      <trkpt lat="48.09677" lon="-0.35123">
        <ele>157</ele>
        <time>2018-05-20T07:36:27Z</time>
      </trkpt>
      <trkpt lat="48.09701" lon="-0.35118">
        <ele>158</ele>
        <time>2018-05-20T07:36:40Z</time>
      </trkpt>
      <trkpt lat="48.09732" lon="-0.35137">
        <ele>158</ele>
        <time>2018-05-20T07:36:57Z</time>
      </trkpt>
      <trkpt lat="48.0975" lon="-0.35129">
        <ele>159</ele>
        <time>2018-05-20T07:37:07Z</time>
      </trkpt>
      <trkpt lat="48.09754" lon="-0.35108">
        <ele>161</ele>
        <time>2018-05-20T07:37:15Z</time>
      </trkpt>
      <trkpt lat="48.09754" lon="-0.35101">
        <ele>162</ele>
        <time>2018-05-20T07:37:24Z</time>
      </trkpt>
      <trkpt lat="48.09754" lon="-0.351">
        <ele>162</ele>
        <time>2018-05-20T07:38:01Z</time>
      </trkpt>
      <trkpt lat="48.09753" lon="-0.35103">
        <ele>162</ele>
        <time>2018-05-20T07:38:13Z</time>
      </trkpt>
      <trkpt lat="48.09753" lon="-0.35104">
        <ele>162</ele>
        <time>2018-05-20T07:38:41Z</time>
      </trkpt>
      <trkpt lat="48.09754" lon="-0.35103">
        <ele>162</ele>
        <time>2018-05-20T07:40:33Z</time>
      </trkpt>
      <trkpt lat="48.09757" lon="-0.3509">
        <ele>163</ele>
        <time>2018-05-20T07:40:39Z</time>
      </trkpt>
      <trkpt lat="48.0975" lon="-0.35078">
        <ele>164</ele>
        <time>2018-05-20T07:40:47Z</time>
      </trkpt>
      <trkpt lat="48.09749" lon="-0.35079">
        <ele>164</ele>
        <time>2018-05-20T07:41:01Z</time>
      </trkpt>
      <trkpt lat="48.0975" lon="-0.35079">
        <ele>164</ele>
        <time>2018-05-20T07:44:05Z</time>
      </trkpt>
      <trkpt lat="48.09751" lon="-0.35078">
        <ele>164</ele>
        <time>2018-05-20T07:44:16Z</time>
      </trkpt>
      <trkpt lat="48.09749" lon="-0.35082">
        <ele>164</ele>
        <time>2018-05-20T07:45:58Z</time>
      </trkpt>
      <trkpt lat="48.0975" lon="-0.3508">
        <ele>164</ele>
        <time>2018-05-20T07:46:08Z</time>
      </trkpt>
      <trkpt lat="48.0975" lon="-0.35078">
        <ele>164</ele>
        <time>2018-05-20T07:46:20Z</time>
      </trkpt>
      <trkpt lat="48.09753" lon="-0.35083">
        <ele>164</ele>
        <time>2018-05-20T07:46:32Z</time>
      </trkpt>
      <trkpt lat="48.09752" lon="-0.35096">
        <ele>162</ele>
        <time>2018-05-20T07:46:47Z</time>
      </trkpt>
      <trkpt lat="48.09753" lon="-0.35099">
        <ele>162</ele>
        <time>2018-05-20T07:47:05Z</time>
      </trkpt>
      <trkpt lat="48.09753" lon="-0.35102">
        <ele>162</ele>
        <time>2018-05-20T07:47:20Z</time>
      </trkpt>
      <trkpt lat="48.09753" lon="-0.35104">
        <ele>162</ele>
        <time>2018-05-20T07:47:49Z</time>
      </trkpt>
      <trkpt lat="48.09752" lon="-0.35104">
        <ele>162</ele>
        <time>2018-05-20T07:48:27Z</time>
      </trkpt>
      <trkpt lat="48.09752" lon="-0.35119">
        <ele>161</ele>
        <time>2018-05-20T07:48:43Z</time>
      </trkpt>
      <trkpt lat="48.09751" lon="-0.35123">
        <ele>161</ele>
        <time>2018-05-20T07:48:44Z</time>
      </trkpt>
      <trkpt lat="48.09734" lon="-0.35136">
        <ele>158</ele>
        <time>2018-05-20T07:48:52Z</time>
      </trkpt>
      <trkpt lat="48.09731" lon="-0.35134">
        <ele>158</ele>
        <time>2018-05-20T07:48:53Z</time>
      </trkpt>
      <trkpt lat="48.09706" lon="-0.35117">
        <ele>158</ele>
        <time>2018-05-20T07:49:00Z</time>
      </trkpt>
      <trkpt lat="48.09685" lon="-0.35117">
        <ele>157</ele>
        <time>2018-05-20T07:49:05Z</time>
      </trkpt>
      <trkpt lat="48.09671" lon="-0.35126">
        <ele>156</ele>
        <time>2018-05-20T07:49:09Z</time>
      </trkpt>
      <trkpt lat="48.09668" lon="-0.35126">
        <ele>156</ele>
        <time>2018-05-20T07:49:11Z</time>
      </trkpt>
      <trkpt lat="48.09666" lon="-0.35123">
        <ele>147</ele>
        <time>2018-05-20T07:49:14Z</time>
      </trkpt>
      <trkpt lat="48.09655" lon="-0.35084">
        <ele>152</ele>
        <time>2018-05-20T07:49:25Z</time>
      </trkpt>
      <trkpt lat="48.09651" lon="-0.35041">
        <ele>147</ele>
        <time>2018-05-20T07:49:34Z</time>
      </trkpt>
      <trkpt lat="48.09652" lon="-0.35039">
        <ele>147</ele>
        <time>2018-05-20T07:49:35Z</time>
      </trkpt>
      <trkpt lat="48.09649" lon="-0.35032">
        <ele>147</ele>
        <time>2018-05-20T07:49:39Z</time>
      </trkpt>
      <trkpt lat="48.09646" lon="-0.34994">
        <ele>149</ele>
        <time>2018-05-20T07:49:47Z</time>
      </trkpt>
      <trkpt lat="48.09637" lon="-0.34911">
        <ele>146</ele>
        <time>2018-05-20T07:50:02Z</time>
      </trkpt>
      <trkpt lat="48.0964" lon="-0.34853">
        <ele>146</ele>
        <time>2018-05-20T07:50:14Z</time>
      </trkpt>
      <trkpt lat="48.09642" lon="-0.34794">
        <ele>144</ele>
        <time>2018-05-20T07:50:24Z</time>
      </trkpt>
      <trkpt lat="48.09648" lon="-0.3475">
        <ele>143</ele>
        <time>2018-05-20T07:50:33Z</time>
      </trkpt>
      <trkpt lat="48.09662" lon="-0.34714">
        <ele>139</ele>
        <time>2018-05-20T07:50:42Z</time>
      </trkpt>
      <trkpt lat="48.09665" lon="-0.34715">
        <ele>139</ele>
        <time>2018-05-20T07:50:50Z</time>
      </trkpt>
      <trkpt lat="48.09667" lon="-0.34716">
        <ele>139</ele>
        <time>2018-05-20T07:50:52Z</time>
      </trkpt>
      <trkpt lat="48.09671" lon="-0.34718">
        <ele>146</ele>
        <time>2018-05-20T07:50:56Z</time>
      </trkpt>
      <trkpt lat="48.09674" lon="-0.34719">
        <ele>146</ele>
        <time>2018-05-20T07:50:59Z</time>
      </trkpt>
      <trkpt lat="48.09692" lon="-0.34743">
        <ele>148</ele>
        <time>2018-05-20T07:51:13Z</time>
      </trkpt>
      <trkpt lat="48.09725" lon="-0.34769">
        <ele>155</ele>
        <time>2018-05-20T07:51:22Z</time>
      </trkpt>
      <trkpt lat="48.0975" lon="-0.34805">
        <ele>152</ele>
        <time>2018-05-20T07:51:33Z</time>
      </trkpt>
      <trkpt lat="48.09773" lon="-0.34843">
        <ele>159</ele>
        <time>2018-05-20T07:51:45Z</time>
      </trkpt>
      <trkpt lat="48.09794" lon="-0.34872">
        <ele>157</ele>
        <time>2018-05-20T07:51:54Z</time>
      </trkpt>
      <trkpt lat="48.09799" lon="-0.34879">
        <ele>157</ele>
        <time>2018-05-20T07:52:04Z</time>
      </trkpt>
      <trkpt lat="48.09798" lon="-0.34876">
        <ele>157</ele>
        <time>2018-05-20T07:52:16Z</time>
      </trkpt>
      <trkpt lat="48.09798" lon="-0.34876">
        <ele>157</ele>
        <time>2018-05-20T07:52:45Z</time>
      </trkpt>
      <trkpt lat="48.09787" lon="-0.34854">
        <ele>157</ele>
        <time>2018-05-20T07:52:51Z</time>
      </trkpt>
      <trkpt lat="48.09773" lon="-0.34792">
        <ele>148</ele>
        <time>2018-05-20T07:53:01Z</time>
      </trkpt>
      <trkpt lat="48.09772" lon="-0.34781">
        <ele>147</ele>
        <time>2018-05-20T07:53:09Z</time>
      </trkpt>
      <trkpt lat="48.09772" lon="-0.34775">
        <ele>147</ele>
        <time>2018-05-20T07:53:26Z</time>
      </trkpt>
      <trkpt lat="48.09771" lon="-0.3477">
        <ele>147</ele>
        <time>2018-05-20T07:53:29Z</time>
      </trkpt>
      <trkpt lat="48.09771" lon="-0.34756">
        <ele>147</ele>
        <time>2018-05-20T07:53:32Z</time>
      </trkpt>
      <trkpt lat="48.09764" lon="-0.34704">
        <ele>136</ele>
        <time>2018-05-20T07:53:41Z</time>
      </trkpt>
      <trkpt lat="48.09762" lon="-0.34686">
        <ele>135</ele>
        <time>2018-05-20T07:53:44Z</time>
      </trkpt>
      <trkpt lat="48.09752" lon="-0.34667">
        <ele>134</ele>
        <time>2018-05-20T07:53:49Z</time>
      </trkpt>
      <trkpt lat="48.09751" lon="-0.34645">
        <ele>129</ele>
        <time>2018-05-20T07:53:53Z</time>
      </trkpt>
      <trkpt lat="48.09758" lon="-0.34631">
        <ele>127</ele>
        <time>2018-05-20T07:53:57Z</time>
      </trkpt>
      <trkpt lat="48.09783" lon="-0.34602">
        <ele>124</ele>
        <time>2018-05-20T07:54:07Z</time>
      </trkpt>
      <trkpt lat="48.0979" lon="-0.34594">
        <ele>124</ele>
        <time>2018-05-20T07:54:11Z</time>
      </trkpt>
      <trkpt lat="48.09792" lon="-0.34587">
        <ele>124</ele>
        <time>2018-05-20T07:54:17Z</time>
      </trkpt>
      <trkpt lat="48.09795" lon="-0.34569">
        <ele>120</ele>
        <time>2018-05-20T07:54:25Z</time>
      </trkpt>
      <trkpt lat="48.09795" lon="-0.34569">
        <ele>120</ele>
        <time>2018-05-20T07:54:42Z</time>
      </trkpt>
      <trkpt lat="48.09795" lon="-0.34569">
        <ele>120</ele>
        <time>2018-05-20T07:57:06Z</time>
      </trkpt>
      <trkpt lat="48.09795" lon="-0.34572">
        <ele>120</ele>
        <time>2018-05-20T07:57:28Z</time>
      </trkpt>
      <trkpt lat="48.09795" lon="-0.34573">
        <ele>120</ele>
        <time>2018-05-20T08:00:20Z</time>
      </trkpt>
      <trkpt lat="48.09794" lon="-0.34573">
        <ele>120</ele>
        <time>2018-05-20T08:01:19Z</time>
      </trkpt>
      <trkpt lat="48.09798" lon="-0.34575">
        <ele>120</ele>
        <time>2018-05-20T08:01:22Z</time>
      </trkpt>
      <trkpt lat="48.09821" lon="-0.34571">
        <ele>120</ele>
        <time>2018-05-20T08:01:31Z</time>
      </trkpt>
      <trkpt lat="48.09846" lon="-0.34568">
        <ele>122</ele>
        <time>2018-05-20T08:01:43Z</time>
      </trkpt>
      <trkpt lat="48.09853" lon="-0.34566">
        <ele>122</ele>
        <time>2018-05-20T08:01:57Z</time>
      </trkpt>
      <trkpt lat="48.09854" lon="-0.34564">
        <ele>122</ele>
        <time>2018-05-20T08:01:58Z</time>
      </trkpt>
      <trkpt lat="48.09851" lon="-0.34532">
        <ele>123</ele>
        <time>2018-05-20T08:02:09Z</time>
      </trkpt>
      <trkpt lat="48.09838" lon="-0.34502">
        <ele>121</ele>
        <time>2018-05-20T08:02:18Z</time>
      </trkpt>
      <trkpt lat="48.09827" lon="-0.34479">
        <ele>123</ele>
        <time>2018-05-20T08:02:23Z</time>
      </trkpt>
      <trkpt lat="48.09818" lon="-0.34469">
        <ele>124</ele>
        <time>2018-05-20T08:02:27Z</time>
      </trkpt>
      <trkpt lat="48.09811" lon="-0.3446">
        <ele>125</ele>
        <time>2018-05-20T08:02:29Z</time>
      </trkpt>
      <trkpt lat="48.09785" lon="-0.34426">
        <ele>127</ele>
        <time>2018-05-20T08:02:37Z</time>
      </trkpt>
      <trkpt lat="48.09763" lon="-0.34431">
        <ele>127</ele>
        <time>2018-05-20T08:02:44Z</time>
      </trkpt>
      <trkpt lat="48.09736" lon="-0.34448">
        <ele>128</ele>
        <time>2018-05-20T08:02:52Z</time>
      </trkpt>
      <trkpt lat="48.09708" lon="-0.34473">
        <ele>127</ele>
        <time>2018-05-20T08:03:01Z</time>
      </trkpt>
      <trkpt lat="48.09692" lon="-0.34489">
        <ele>126</ele>
        <time>2018-05-20T08:03:08Z</time>
      </trkpt>
      <trkpt lat="48.09669" lon="-0.34501">
        <ele>122</ele>
        <time>2018-05-20T08:03:16Z</time>
      </trkpt>
      <trkpt lat="48.09661" lon="-0.34508">
        <ele>122</ele>
        <time>2018-05-20T08:03:21Z</time>
      </trkpt>
      <trkpt lat="48.09636" lon="-0.34534">
        <ele>123</ele>
        <time>2018-05-20T08:03:30Z</time>
      </trkpt>
      <trkpt lat="48.09612" lon="-0.34549">
        <ele>122</ele>
        <time>2018-05-20T08:03:40Z</time>
      </trkpt>
      <trkpt lat="48.09597" lon="-0.3455">
        <ele>122</ele>
        <time>2018-05-20T08:03:50Z</time>
      </trkpt>
      <trkpt lat="48.09598" lon="-0.34549">
        <ele>123</ele>
        <time>2018-05-20T08:04:12Z</time>
      </trkpt>
      <trkpt lat="48.09598" lon="-0.34547">
        <ele>123</ele>
        <time>2018-05-20T08:04:46Z</time>
      </trkpt>
      <trkpt lat="48.09598" lon="-0.34546">
        <ele>123</ele>
        <time>2018-05-20T08:04:49Z</time>
      </trkpt>
      <trkpt lat="48.096" lon="-0.34542">
        <ele>123</ele>
        <time>2018-05-20T08:04:53Z</time>
      </trkpt>
      <trkpt lat="48.09602" lon="-0.34539">
        <ele>123</ele>
        <time>2018-05-20T08:04:55Z</time>
      </trkpt>
      <trkpt lat="48.09613" lon="-0.34527">
        <ele>124</ele>
        <time>2018-05-20T08:05:07Z</time>
      </trkpt>
      <trkpt lat="48.09615" lon="-0.34523">
        <ele>124</ele>
        <time>2018-05-20T08:05:11Z</time>
      </trkpt>
      <trkpt lat="48.09618" lon="-0.3452">
        <ele>124</ele>
        <time>2018-05-20T08:05:14Z</time>
      </trkpt>
      <trkpt lat="48.09625" lon="-0.34509">
        <ele>124</ele>
        <time>2018-05-20T08:05:25Z</time>
      </trkpt>
      <trkpt lat="48.09633" lon="-0.34499">
        <ele>133</ele>
        <time>2018-05-20T08:05:33Z</time>
      </trkpt>
      <trkpt lat="48.09643" lon="-0.34482">
        <ele>133</ele>
        <time>2018-05-20T08:05:46Z</time>
      </trkpt>
      <trkpt lat="48.09654" lon="-0.34467">
        <ele>135</ele>
        <time>2018-05-20T08:05:59Z</time>
      </trkpt>
      <trkpt lat="48.09661" lon="-0.34454">
        <ele>137</ele>
        <time>2018-05-20T08:06:10Z</time>
      </trkpt>
      <trkpt lat="48.09668" lon="-0.3444">
        <ele>133</ele>
        <time>2018-05-20T08:06:20Z</time>
      </trkpt>
      <trkpt lat="48.09682" lon="-0.34427">
        <ele>135</ele>
        <time>2018-05-20T08:06:35Z</time>
      </trkpt>
      <trkpt lat="48.09691" lon="-0.34421">
        <ele>133</ele>
        <time>2018-05-20T08:06:46Z</time>
      </trkpt>
      <trkpt lat="48.09699" lon="-0.34411">
        <ele>144</ele>
        <time>2018-05-20T08:06:57Z</time>
      </trkpt>
      <trkpt lat="48.0971" lon="-0.34405">
        <ele>144</ele>
        <time>2018-05-20T08:07:07Z</time>
      </trkpt>
      <trkpt lat="48.09719" lon="-0.34393">
        <ele>144</ele>
        <time>2018-05-20T08:07:18Z</time>
      </trkpt>
      <trkpt lat="48.09722" lon="-0.3439">
        <ele>144</ele>
        <time>2018-05-20T08:07:20Z</time>
      </trkpt>
      <trkpt lat="48.09731" lon="-0.34377">
        <ele>145</ele>
        <time>2018-05-20T08:07:31Z</time>
      </trkpt>
      <trkpt lat="48.09738" lon="-0.34369">
        <ele>146</ele>
        <time>2018-05-20T08:07:42Z</time>
      </trkpt>
      <trkpt lat="48.09744" lon="-0.34358">
        <ele>148</ele>
        <time>2018-05-20T08:07:52Z</time>
      </trkpt>
      <trkpt lat="48.09755" lon="-0.34332">
        <ele>151</ele>
        <time>2018-05-20T08:08:07Z</time>
      </trkpt>
      <trkpt lat="48.09774" lon="-0.34309">
        <ele>151</ele>
        <time>2018-05-20T08:08:24Z</time>
      </trkpt>
      <trkpt lat="48.09777" lon="-0.34305">
        <ele>151</ele>
        <time>2018-05-20T08:08:27Z</time>
      </trkpt>
      <trkpt lat="48.09783" lon="-0.34296">
        <ele>151</ele>
        <time>2018-05-20T08:08:33Z</time>
      </trkpt>
      <trkpt lat="48.09813" lon="-0.34289">
        <ele>150</ele>
        <time>2018-05-20T08:08:50Z</time>
      </trkpt>
      <trkpt lat="48.09828" lon="-0.34287">
        <ele>149</ele>
        <time>2018-05-20T08:09:01Z</time>
      </trkpt>
      <trkpt lat="48.09829" lon="-0.34287">
        <ele>149</ele>
        <time>2018-05-20T08:09:12Z</time>
      </trkpt>
      <trkpt lat="48.09829" lon="-0.34287">
        <ele>149</ele>
        <time>2018-05-20T08:12:28Z</time>
      </trkpt>
      <trkpt lat="48.09829" lon="-0.34275">
        <ele>150</ele>
        <time>2018-05-20T08:12:33Z</time>
      </trkpt>
      <trkpt lat="48.09825" lon="-0.34259">
        <ele>150</ele>
        <time>2018-05-20T08:12:40Z</time>
      </trkpt>
      <trkpt lat="48.0982" lon="-0.34226">
        <ele>152</ele>
        <time>2018-05-20T08:12:51Z</time>
      </trkpt>
      <trkpt lat="48.09816" lon="-0.34187">
        <ele>153</ele>
        <time>2018-05-20T08:13:03Z</time>
      </trkpt>
      <trkpt lat="48.09816" lon="-0.34171">
        <ele>153</ele>
        <time>2018-05-20T08:13:08Z</time>
      </trkpt>
      <trkpt lat="48.09815" lon="-0.34144">
        <ele>155</ele>
        <time>2018-05-20T08:13:18Z</time>
      </trkpt>
      <trkpt lat="48.09813" lon="-0.3412">
        <ele>156</ele>
        <time>2018-05-20T08:13:28Z</time>
      </trkpt>
      <trkpt lat="48.09805" lon="-0.34078">
        <ele>158</ele>
        <time>2018-05-20T08:13:43Z</time>
      </trkpt>
      <trkpt lat="48.09786" lon="-0.34028">
        <ele>159</ele>
        <time>2018-05-20T08:14:02Z</time>
      </trkpt>
      <trkpt lat="48.09768" lon="-0.33977">
        <ele>162</ele>
        <time>2018-05-20T08:14:24Z</time>
      </trkpt>
      <trkpt lat="48.09749" lon="-0.33932">
        <ele>169</ele>
        <time>2018-05-20T08:14:46Z</time>
      </trkpt>
      <trkpt lat="48.09747" lon="-0.33925">
        <ele>169</ele>
        <time>2018-05-20T08:14:50Z</time>
      </trkpt>
      <trkpt lat="48.09745" lon="-0.33918">
        <ele>168</ele>
        <time>2018-05-20T08:15:05Z</time>
      </trkpt>
      <trkpt lat="48.09743" lon="-0.33912">
        <ele>170</ele>
        <time>2018-05-20T08:15:59Z</time>
      </trkpt>
      <trkpt lat="48.09742" lon="-0.33913">
        <ele>170</ele>
        <time>2018-05-20T08:16:58Z</time>
      </trkpt>
      <trkpt lat="48.09741" lon="-0.33912">
        <ele>170</ele>
        <time>2018-05-20T08:17:15Z</time>
      </trkpt>
      <trkpt lat="48.09741" lon="-0.33912">
        <ele>170</ele>
        <time>2018-05-20T08:20:39Z</time>
      </trkpt>
      <trkpt lat="48.09738" lon="-0.33917">
        <ele>169</ele>
        <time>2018-05-20T08:20:43Z</time>
      </trkpt>
      <trkpt lat="48.09709" lon="-0.33932">
        <ele>173</ele>
        <time>2018-05-20T08:21:00Z</time>
      </trkpt>
      <trkpt lat="48.09672" lon="-0.33948">
        <ele>176</ele>
        <time>2018-05-20T08:21:22Z</time>
      </trkpt>
      <trkpt lat="48.09638" lon="-0.33964">
        <ele>184</ele>
        <time>2018-05-20T08:21:44Z</time>
      </trkpt>
      <trkpt lat="48.09629" lon="-0.33967">
        <ele>185</ele>
        <time>2018-05-20T08:21:51Z</time>
      </trkpt>
      <trkpt lat="48.09626" lon="-0.33971">
        <ele>185</ele>
        <time>2018-05-20T08:21:54Z</time>
      </trkpt>
      <trkpt lat="48.09621" lon="-0.33975">
        <ele>185</ele>
        <time>2018-05-20T08:21:58Z</time>
      </trkpt>
      <trkpt lat="48.09601" lon="-0.33985">
        <ele>186</ele>
        <time>2018-05-20T08:22:12Z</time>
      </trkpt>
      <trkpt lat="48.09574" lon="-0.34001">
        <ele>187</ele>
        <time>2018-05-20T08:22:29Z</time>
      </trkpt>
      <trkpt lat="48.0954" lon="-0.34021">
        <ele>188</ele>
        <time>2018-05-20T08:22:52Z</time>
      </trkpt>
      <trkpt lat="48.09525" lon="-0.3403">
        <ele>188</ele>
        <time>2018-05-20T08:23:03Z</time>
      </trkpt>
      <trkpt lat="48.09517" lon="-0.3404">
        <ele>188</ele>
        <time>2018-05-20T08:23:09Z</time>
      </trkpt>
      <trkpt lat="48.09516" lon="-0.34048">
        <ele>188</ele>
        <time>2018-05-20T08:23:14Z</time>
      </trkpt>
      <trkpt lat="48.09514" lon="-0.3405">
        <ele>188</ele>
        <time>2018-05-20T08:23:16Z</time>
      </trkpt>
      <trkpt lat="48.09513" lon="-0.34059">
        <ele>188</ele>
        <time>2018-05-20T08:23:21Z</time>
      </trkpt>
      <trkpt lat="48.09514" lon="-0.34064">
        <ele>188</ele>
        <time>2018-05-20T08:23:23Z</time>
      </trkpt>
      <trkpt lat="48.09509" lon="-0.34066">
        <ele>188</ele>
        <time>2018-05-20T08:23:29Z</time>
      </trkpt>
      <trkpt lat="48.09514" lon="-0.34066">
        <ele>188</ele>
        <time>2018-05-20T08:23:34Z</time>
      </trkpt>
      <trkpt lat="48.0953" lon="-0.34108">
        <ele>185</ele>
        <time>2018-05-20T08:23:44Z</time>
      </trkpt>
      <trkpt lat="48.09534" lon="-0.34121">
        <ele>185</ele>
        <time>2018-05-20T08:23:47Z</time>
      </trkpt>
      <trkpt lat="48.09536" lon="-0.34131">
        <ele>184</ele>
        <time>2018-05-20T08:23:50Z</time>
      </trkpt>
      <trkpt lat="48.09543" lon="-0.34162">
        <ele>184</ele>
        <time>2018-05-20T08:23:57Z</time>
      </trkpt>
      <trkpt lat="48.09547" lon="-0.342">
        <ele>182</ele>
        <time>2018-05-20T08:24:03Z</time>
      </trkpt>
      <trkpt lat="48.09545" lon="-0.34223">
        <ele>182</ele>
        <time>2018-05-20T08:24:06Z</time>
      </trkpt>
      <trkpt lat="48.09553" lon="-0.34283">
        <ele>177</ele>
        <time>2018-05-20T08:24:14Z</time>
      </trkpt>
      <trkpt lat="48.09554" lon="-0.34325">
        <ele>175</ele>
        <time>2018-05-20T08:24:20Z</time>
      </trkpt>
      <trkpt lat="48.09558" lon="-0.34353">
        <ele>168</ele>
        <time>2018-05-20T08:24:24Z</time>
      </trkpt>
      <trkpt lat="48.09558" lon="-0.34372">
        <ele>165</ele>
        <time>2018-05-20T08:24:32Z</time>
      </trkpt>
      <trkpt lat="48.09556" lon="-0.34372">
        <ele>165</ele>
        <time>2018-05-20T08:24:47Z</time>
      </trkpt>
      <trkpt lat="48.09555" lon="-0.34372">
        <ele>165</ele>
        <time>2018-05-20T08:28:47Z</time>
      </trkpt>
      <trkpt lat="48.09555" lon="-0.34372">
        <ele>165</ele>
        <time>2018-05-20T08:29:14Z</time>
      </trkpt>
      <trkpt lat="48.09554" lon="-0.34371">
        <ele>166</ele>
        <time>2018-05-20T08:29:47Z</time>
      </trkpt>
      <trkpt lat="48.09554" lon="-0.34361">
        <ele>167</ele>
        <time>2018-05-20T08:29:53Z</time>
      </trkpt>
      <trkpt lat="48.09552" lon="-0.3433">
        <ele>175</ele>
        <time>2018-05-20T08:30:05Z</time>
      </trkpt>
      <trkpt lat="48.0955" lon="-0.34305">
        <ele>176</ele>
        <time>2018-05-20T08:30:14Z</time>
      </trkpt>
      <trkpt lat="48.09544" lon="-0.34282">
        <ele>177</ele>
        <time>2018-05-20T08:30:23Z</time>
      </trkpt>
      <trkpt lat="48.09544" lon="-0.34254">
        <ele>178</ele>
        <time>2018-05-20T08:30:33Z</time>
      </trkpt>
      <trkpt lat="48.09543" lon="-0.34231">
        <ele>182</ele>
        <time>2018-05-20T08:30:43Z</time>
      </trkpt>
      <trkpt lat="48.09546" lon="-0.34204">
        <ele>182</ele>
        <time>2018-05-20T08:30:54Z</time>
      </trkpt>
      <trkpt lat="48.09543" lon="-0.34182">
        <ele>182</ele>
        <time>2018-05-20T08:31:03Z</time>
      </trkpt>
      <trkpt lat="48.09534" lon="-0.34141">
        <ele>184</ele>
        <time>2018-05-20T08:31:17Z</time>
      </trkpt>
      <trkpt lat="48.09529" lon="-0.34123">
        <ele>185</ele>
        <time>2018-05-20T08:31:25Z</time>
      </trkpt>
      <trkpt lat="48.09522" lon="-0.34108">
        <ele>185</ele>
        <time>2018-05-20T08:31:31Z</time>
      </trkpt>
      <trkpt lat="48.09511" lon="-0.34072">
        <ele>188</ele>
        <time>2018-05-20T08:31:46Z</time>
      </trkpt>
      <trkpt lat="48.09502" lon="-0.34052">
        <ele>188</ele>
        <time>2018-05-20T08:31:56Z</time>
      </trkpt>
      <trkpt lat="48.09497" lon="-0.3405">
        <ele>188</ele>
        <time>2018-05-20T08:32:07Z</time>
      </trkpt>
      <trkpt lat="48.09496" lon="-0.34049">
        <ele>188</ele>
        <time>2018-05-20T08:34:50Z</time>
      </trkpt>
      <trkpt lat="48.09468" lon="-0.3406">
        <ele>187</ele>
        <time>2018-05-20T08:34:59Z</time>
      </trkpt>
      <trkpt lat="48.09445" lon="-0.34057">
        <ele>186</ele>
        <time>2018-05-20T08:35:08Z</time>
      </trkpt>
      <trkpt lat="48.09436" lon="-0.34052">
        <ele>186</ele>
        <time>2018-05-20T08:35:22Z</time>
      </trkpt>
      <trkpt lat="48.09421" lon="-0.34045">
        <ele>186</ele>
        <time>2018-05-20T08:35:45Z</time>
      </trkpt>
      <trkpt lat="48.09387" lon="-0.34018">
        <ele>180</ele>
        <time>2018-05-20T08:35:57Z</time>
      </trkpt>
      <trkpt lat="48.09357" lon="-0.33996">
        <ele>181</ele>
        <time>2018-05-20T08:36:03Z</time>
      </trkpt>
      <trkpt lat="48.09325" lon="-0.33939">
        <ele>175</ele>
        <time>2018-05-20T08:36:10Z</time>
      </trkpt>
      <trkpt lat="48.09308" lon="-0.33896">
        <ele>177</ele>
        <time>2018-05-20T08:36:14Z</time>
      </trkpt>
      <trkpt lat="48.09274" lon="-0.33844">
        <ele>174</ele>
        <time>2018-05-20T08:36:20Z</time>
      </trkpt>
      <trkpt lat="48.09263" lon="-0.33815">
        <ele>176</ele>
        <time>2018-05-20T08:36:23Z</time>
      </trkpt>
      <trkpt lat="48.0923" lon="-0.33748">
        <ele>171</ele>
        <time>2018-05-20T08:36:31Z</time>
      </trkpt>
      <trkpt lat="48.09224" lon="-0.33741">
        <ele>171</ele>
        <time>2018-05-20T08:36:38Z</time>
      </trkpt>
      <trkpt lat="48.09223" lon="-0.33741">
        <ele>171</ele>
        <time>2018-05-20T08:37:12Z</time>
      </trkpt>
      <trkpt lat="48.09193" lon="-0.33767">
        <ele>165</ele>
        <time>2018-05-20T08:37:20Z</time>
      </trkpt>
      <trkpt lat="48.09134" lon="-0.33811">
        <ele>158</ele>
        <time>2018-05-20T08:37:30Z</time>
      </trkpt>
      <trkpt lat="48.09104" lon="-0.33824">
        <ele>156</ele>
        <time>2018-05-20T08:37:37Z</time>
      </trkpt>
      <trkpt lat="48.09101" lon="-0.3382">
        <ele>156</ele>
        <time>2018-05-20T08:37:46Z</time>
      </trkpt>
      <trkpt lat="48.09099" lon="-0.33804">
        <ele>156</ele>
        <time>2018-05-20T08:37:57Z</time>
      </trkpt>
      <trkpt lat="48.09098" lon="-0.33767">
        <ele>156</ele>
        <time>2018-05-20T08:38:06Z</time>
      </trkpt>
      <trkpt lat="48.09099" lon="-0.33732">
        <ele>156</ele>
        <time>2018-05-20T08:38:15Z</time>
      </trkpt>
      <trkpt lat="48.09096" lon="-0.33692">
        <ele>157</ele>
        <time>2018-05-20T08:38:24Z</time>
      </trkpt>
      <trkpt lat="48.09097" lon="-0.33658">
        <ele>157</ele>
        <time>2018-05-20T08:38:32Z</time>
      </trkpt>
      <trkpt lat="48.09099" lon="-0.33614">
        <ele>159</ele>
        <time>2018-05-20T08:38:41Z</time>
      </trkpt>
      <trkpt lat="48.09102" lon="-0.33573">
        <ele>159</ele>
        <time>2018-05-20T08:38:49Z</time>
      </trkpt>
      <trkpt lat="48.09103" lon="-0.33537">
        <ele>160</ele>
        <time>2018-05-20T08:38:58Z</time>
      </trkpt>
      <trkpt lat="48.09103" lon="-0.33522">
        <ele>160</ele>
        <time>2018-05-20T08:39:03Z</time>
      </trkpt>
      <trkpt lat="48.09104" lon="-0.3351">
        <ele>159</ele>
        <time>2018-05-20T08:39:05Z</time>
      </trkpt>
      <trkpt lat="48.09107" lon="-0.33472">
        <ele>160</ele>
        <time>2018-05-20T08:39:15Z</time>
      </trkpt>
      <trkpt lat="48.09112" lon="-0.33443">
        <ele>160</ele>
        <time>2018-05-20T08:39:22Z</time>
      </trkpt>
      <trkpt lat="48.09116" lon="-0.3343">
        <ele>160</ele>
        <time>2018-05-20T08:39:32Z</time>
      </trkpt>
      <trkpt lat="48.09118" lon="-0.33423">
        <ele>160</ele>
        <time>2018-05-20T08:39:44Z</time>
      </trkpt>
      <trkpt lat="48.09119" lon="-0.33419">
        <ele>161</ele>
        <time>2018-05-20T08:39:55Z</time>
      </trkpt>
      <trkpt lat="48.09116" lon="-0.33412">
        <ele>160</ele>
        <time>2018-05-20T08:40:06Z</time>
      </trkpt>
      <trkpt lat="48.09116" lon="-0.3341">
        <ele>160</ele>
        <time>2018-05-20T08:40:16Z</time>
      </trkpt>
      <trkpt lat="48.09114" lon="-0.33399">
        <ele>160</ele>
        <time>2018-05-20T08:40:27Z</time>
      </trkpt>
      <trkpt lat="48.09114" lon="-0.33396">
        <ele>160</ele>
        <time>2018-05-20T08:43:12Z</time>
      </trkpt>
      <trkpt lat="48.09113" lon="-0.33391">
        <ele>160</ele>
        <time>2018-05-20T08:43:40Z</time>
      </trkpt>
      <trkpt lat="48.09115" lon="-0.33363">
        <ele>160</ele>
        <time>2018-05-20T08:43:49Z</time>
      </trkpt>
      <trkpt lat="48.09116" lon="-0.33351">
        <ele>160</ele>
        <time>2018-05-20T08:43:56Z</time>
      </trkpt>
      <trkpt lat="48.09115" lon="-0.33343">
        <ele>159</ele>
        <time>2018-05-20T08:43:59Z</time>
      </trkpt>
      <trkpt lat="48.09116" lon="-0.33306">
        <ele>161</ele>
        <time>2018-05-20T08:44:08Z</time>
      </trkpt>
      <trkpt lat="48.09117" lon="-0.3329">
        <ele>162</ele>
        <time>2018-05-20T08:44:12Z</time>
      </trkpt>
      <trkpt lat="48.09117" lon="-0.33279">
        <ele>162</ele>
        <time>2018-05-20T08:44:15Z</time>
      </trkpt>
      <trkpt lat="48.09119" lon="-0.33245">
        <ele>165</ele>
        <time>2018-05-20T08:44:25Z</time>
      </trkpt>
      <trkpt lat="48.09121" lon="-0.33224">
        <ele>166</ele>
        <time>2018-05-20T08:44:31Z</time>
      </trkpt>
      <trkpt lat="48.09121" lon="-0.33192">
        <ele>167</ele>
        <time>2018-05-20T08:44:41Z</time>
      </trkpt>
      <trkpt lat="48.09122" lon="-0.33161">
        <ele>172</ele>
        <time>2018-05-20T08:44:51Z</time>
      </trkpt>
      <trkpt lat="48.09123" lon="-0.33144">
        <ele>173</ele>
        <time>2018-05-20T08:44:58Z</time>
      </trkpt>
      <trkpt lat="48.09124" lon="-0.33126">
        <ele>174</ele>
        <time>2018-05-20T08:45:05Z</time>
      </trkpt>
      <trkpt lat="48.09124" lon="-0.33103">
        <ele>175</ele>
        <time>2018-05-20T08:45:14Z</time>
      </trkpt>
      <trkpt lat="48.09121" lon="-0.33075">
        <ele>179</ele>
        <time>2018-05-20T08:45:25Z</time>
      </trkpt>
      <trkpt lat="48.09121" lon="-0.33055">
        <ele>180</ele>
        <time>2018-05-20T08:45:35Z</time>
      </trkpt>
      <trkpt lat="48.0912" lon="-0.33049">
        <ele>180</ele>
        <time>2018-05-20T08:45:38Z</time>
      </trkpt>
      <trkpt lat="48.09118" lon="-0.33028">
        <ele>180</ele>
        <time>2018-05-20T08:45:46Z</time>
      </trkpt>
      <trkpt lat="48.09119" lon="-0.33004">
        <ele>181</ele>
        <time>2018-05-20T08:45:56Z</time>
      </trkpt>
      <trkpt lat="48.09119" lon="-0.33002">
        <ele>181</ele>
        <time>2018-05-20T08:45:57Z</time>
      </trkpt>
      <trkpt lat="48.09117" lon="-0.32979">
        <ele>183</ele>
        <time>2018-05-20T08:46:08Z</time>
      </trkpt>
      <trkpt lat="48.09116" lon="-0.32976">
        <ele>183</ele>
        <time>2018-05-20T08:46:12Z</time>
      </trkpt>
      <trkpt lat="48.09113" lon="-0.32968">
        <ele>183</ele>
        <time>2018-05-20T08:46:17Z</time>
      </trkpt>
      <trkpt lat="48.09099" lon="-0.32955">
        <ele>183</ele>
        <time>2018-05-20T08:46:27Z</time>
      </trkpt>
      <trkpt lat="48.09079" lon="-0.32943">
        <ele>179</ele>
        <time>2018-05-20T08:46:36Z</time>
      </trkpt>
      <trkpt lat="48.09056" lon="-0.32925">
        <ele>178</ele>
        <time>2018-05-20T08:46:43Z</time>
      </trkpt>
      <trkpt lat="48.09028" lon="-0.32901">
        <ele>179</ele>
        <time>2018-05-20T08:46:52Z</time>
      </trkpt>
      <trkpt lat="48.09016" lon="-0.32889">
        <ele>179</ele>
        <time>2018-05-20T08:46:56Z</time>
      </trkpt>
      <trkpt lat="48.08992" lon="-0.32875">
        <ele>178</ele>
        <time>2018-05-20T08:47:04Z</time>
      </trkpt>
      <trkpt lat="48.08962" lon="-0.32862">
        <ele>178</ele>
        <time>2018-05-20T08:47:12Z</time>
      </trkpt>
      <trkpt lat="48.0895" lon="-0.32853">
        <ele>178</ele>
        <time>2018-05-20T08:47:16Z</time>
      </trkpt>
      <trkpt lat="48.08924" lon="-0.32833">
        <ele>179</ele>
        <time>2018-05-20T08:47:26Z</time>
      </trkpt>
      <trkpt lat="48.08905" lon="-0.32814">
        <ele>180</ele>
        <time>2018-05-20T08:47:35Z</time>
      </trkpt>
      <trkpt lat="48.08892" lon="-0.32812">
        <ele>180</ele>
        <time>2018-05-20T08:49:20Z</time>
      </trkpt>
      <trkpt lat="48.08887" lon="-0.32813">
        <ele>180</ele>
        <time>2018-05-20T08:49:22Z</time>
      </trkpt>
      <trkpt lat="48.0886" lon="-0.32827">
        <ele>180</ele>
        <time>2018-05-20T08:49:32Z</time>
      </trkpt>
      <trkpt lat="48.08839" lon="-0.32831">
        <ele>179</ele>
        <time>2018-05-20T08:49:40Z</time>
      </trkpt>
      <trkpt lat="48.08812" lon="-0.32831">
        <ele>180</ele>
        <time>2018-05-20T08:49:48Z</time>
      </trkpt>
      <trkpt lat="48.08779" lon="-0.32824">
        <ele>181</ele>
        <time>2018-05-20T08:49:57Z</time>
      </trkpt>
      <trkpt lat="48.08769" lon="-0.32821">
        <ele>181</ele>
        <time>2018-05-20T08:50:04Z</time>
      </trkpt>
      <trkpt lat="48.08768" lon="-0.3282">
        <ele>181</ele>
        <time>2018-05-20T08:51:38Z</time>
      </trkpt>
      <trkpt lat="48.08767" lon="-0.3282">
        <ele>181</ele>
        <time>2018-05-20T08:52:00Z</time>
      </trkpt>
      <trkpt lat="48.08766" lon="-0.32806">
        <ele>181</ele>
        <time>2018-05-20T08:52:09Z</time>
      </trkpt>
      <trkpt lat="48.0876" lon="-0.32789">
        <ele>181</ele>
        <time>2018-05-20T08:52:15Z</time>
      </trkpt>
      <trkpt lat="48.0876" lon="-0.32783">
        <ele>181</ele>
        <time>2018-05-20T08:52:17Z</time>
      </trkpt>
      <trkpt lat="48.08761" lon="-0.32778">
        <ele>181</ele>
        <time>2018-05-20T08:52:19Z</time>
      </trkpt>
      <trkpt lat="48.08761" lon="-0.32763">
        <ele>181</ele>
        <time>2018-05-20T08:52:24Z</time>
      </trkpt>
      <trkpt lat="48.08756" lon="-0.32721">
        <ele>182</ele>
        <time>2018-05-20T08:52:36Z</time>
      </trkpt>
      <trkpt lat="48.08756" lon="-0.32714">
        <ele>182</ele>
        <time>2018-05-20T08:52:38Z</time>
      </trkpt>
      <trkpt lat="48.08751" lon="-0.32693">
        <ele>182</ele>
        <time>2018-05-20T08:52:43Z</time>
      </trkpt>
      <trkpt lat="48.08747" lon="-0.32674">
        <ele>181</ele>
        <time>2018-05-20T08:52:49Z</time>
      </trkpt>
      <trkpt lat="48.08748" lon="-0.32639">
        <ele>182</ele>
        <time>2018-05-20T08:52:59Z</time>
      </trkpt>
      <trkpt lat="48.08748" lon="-0.32615">
        <ele>183</ele>
        <time>2018-05-20T08:53:05Z</time>
      </trkpt>
      <trkpt lat="48.08749" lon="-0.32582">
        <ele>184</ele>
        <time>2018-05-20T08:53:14Z</time>
      </trkpt>
      <trkpt lat="48.08744" lon="-0.32551">
        <ele>185</ele>
        <time>2018-05-20T08:53:24Z</time>
      </trkpt>
      <trkpt lat="48.08743" lon="-0.32532">
        <ele>185</ele>
        <time>2018-05-20T08:53:31Z</time>
      </trkpt>
      <trkpt lat="48.08743" lon="-0.32529">
        <ele>185</ele>
        <time>2018-05-20T08:53:32Z</time>
      </trkpt>
      <trkpt lat="48.08742" lon="-0.32521">
        <ele>186</ele>
        <time>2018-05-20T08:53:35Z</time>
      </trkpt>
      <trkpt lat="48.08738" lon="-0.32496">
        <ele>187</ele>
        <time>2018-05-20T08:53:43Z</time>
      </trkpt>
      <trkpt lat="48.08737" lon="-0.32476">
        <ele>187</ele>
        <time>2018-05-20T08:53:49Z</time>
      </trkpt>
      <trkpt lat="48.08735" lon="-0.3245">
        <ele>188</ele>
        <time>2018-05-20T08:53:56Z</time>
      </trkpt>
      <trkpt lat="48.08728" lon="-0.32417">
        <ele>189</ele>
        <time>2018-05-20T08:54:06Z</time>
      </trkpt>
      <trkpt lat="48.0872" lon="-0.32384">
        <ele>189</ele>
        <time>2018-05-20T08:54:15Z</time>
      </trkpt>
      <trkpt lat="48.08718" lon="-0.32347">
        <ele>190</ele>
        <time>2018-05-20T08:54:24Z</time>
      </trkpt>
      <trkpt lat="48.0873" lon="-0.32312">
        <ele>192</ele>
        <time>2018-05-20T08:54:33Z</time>
      </trkpt>
      <trkpt lat="48.0874" lon="-0.32283">
        <ele>192</ele>
        <time>2018-05-20T08:54:42Z</time>
      </trkpt>
      <trkpt lat="48.08746" lon="-0.3227">
        <ele>193</ele>
        <time>2018-05-20T08:54:50Z</time>
      </trkpt>
      <trkpt lat="48.08754" lon="-0.32267">
        <ele>195</ele>
        <time>2018-05-20T08:54:55Z</time>
      </trkpt>
      <trkpt lat="48.08762" lon="-0.32266">
        <ele>195</ele>
        <time>2018-05-20T08:54:59Z</time>
      </trkpt>
      <trkpt lat="48.08766" lon="-0.32267">
        <ele>195</ele>
        <time>2018-05-20T08:55:02Z</time>
      </trkpt>
      <trkpt lat="48.08781" lon="-0.32262">
        <ele>195</ele>
        <time>2018-05-20T08:55:11Z</time>
      </trkpt>
      <trkpt lat="48.08785" lon="-0.32264">
        <ele>195</ele>
        <time>2018-05-20T08:55:25Z</time>
      </trkpt>
      <trkpt lat="48.08785" lon="-0.32263">
        <ele>195</ele>
        <time>2018-05-20T08:57:04Z</time>
      </trkpt>
      <trkpt lat="48.08785" lon="-0.32263">
        <ele>195</ele>
        <time>2018-05-20T08:57:19Z</time>
      </trkpt>
      <trkpt lat="48.08786" lon="-0.32261">
        <ele>195</ele>
        <time>2018-05-20T08:57:21Z</time>
      </trkpt>
      <trkpt lat="48.08804" lon="-0.3225">
        <ele>197</ele>
        <time>2018-05-20T08:57:30Z</time>
      </trkpt>
      <trkpt lat="48.08827" lon="-0.32245">
        <ele>197</ele>
        <time>2018-05-20T08:57:38Z</time>
      </trkpt>
      <trkpt lat="48.08848" lon="-0.32233">
        <ele>196</ele>
        <time>2018-05-20T08:57:46Z</time>
      </trkpt>
      <trkpt lat="48.08853" lon="-0.32227">
        <ele>195</ele>
        <time>2018-05-20T08:57:48Z</time>
      </trkpt>
      <trkpt lat="48.08898" lon="-0.32219">
        <ele>193</ele>
        <time>2018-05-20T08:57:57Z</time>
      </trkpt>
      <trkpt lat="48.08907" lon="-0.32213">
        <ele>193</ele>
        <time>2018-05-20T08:57:59Z</time>
      </trkpt>
      <trkpt lat="48.08921" lon="-0.32203">
        <ele>188</ele>
        <time>2018-05-20T08:58:02Z</time>
      </trkpt>
      <trkpt lat="48.08951" lon="-0.32186">
        <ele>187</ele>
        <time>2018-05-20T08:58:08Z</time>
      </trkpt>
      <trkpt lat="48.08983" lon="-0.3218">
        <ele>185</ele>
        <time>2018-05-20T08:58:15Z</time>
      </trkpt>
      <trkpt lat="48.09009" lon="-0.32174">
        <ele>182</ele>
        <time>2018-05-20T08:58:24Z</time>
      </trkpt>
      <trkpt lat="48.09031" lon="-0.32161">
        <ele>182</ele>
        <time>2018-05-20T08:58:29Z</time>
      </trkpt>
      <trkpt lat="48.09082" lon="-0.32142">
        <ele>180</ele>
        <time>2018-05-20T08:58:41Z</time>
      </trkpt>
      <trkpt lat="48.0911" lon="-0.32131">
        <ele>178</ele>
        <time>2018-05-20T08:58:50Z</time>
      </trkpt>
      <trkpt lat="48.09132" lon="-0.32126">
        <ele>178</ele>
        <time>2018-05-20T08:58:54Z</time>
      </trkpt>
      <trkpt lat="48.0915" lon="-0.32122">
        <ele>177</ele>
        <time>2018-05-20T08:59:00Z</time>
      </trkpt>
      <trkpt lat="48.09175" lon="-0.32127">
        <ele>175</ele>
        <time>2018-05-20T08:59:06Z</time>
      </trkpt>
      <trkpt lat="48.09179" lon="-0.32126">
        <ele>175</ele>
        <time>2018-05-20T08:59:08Z</time>
      </trkpt>
      <trkpt lat="48.09194" lon="-0.32125">
        <ele>174</ele>
        <time>2018-05-20T08:59:14Z</time>
      </trkpt>
      <trkpt lat="48.09199" lon="-0.32124">
        <ele>174</ele>
        <time>2018-05-20T08:59:16Z</time>
      </trkpt>
      <trkpt lat="48.09204" lon="-0.32123">
        <ele>174</ele>
        <time>2018-05-20T08:59:19Z</time>
      </trkpt>
      <trkpt lat="48.09212" lon="-0.32126">
        <ele>174</ele>
        <time>2018-05-20T08:59:28Z</time>
      </trkpt>
      <trkpt lat="48.09224" lon="-0.32131">
        <ele>174</ele>
        <time>2018-05-20T08:59:32Z</time>
      </trkpt>
      <trkpt lat="48.09245" lon="-0.32126">
        <ele>173</ele>
        <time>2018-05-20T08:59:41Z</time>
      </trkpt>
      <trkpt lat="48.09272" lon="-0.32111">
        <ele>171</ele>
        <time>2018-05-20T08:59:51Z</time>
      </trkpt>
      <trkpt lat="48.09277" lon="-0.32106">
        <ele>171</ele>
        <time>2018-05-20T08:59:53Z</time>
      </trkpt>
      <trkpt lat="48.09301" lon="-0.32083">
        <ele>170</ele>
        <time>2018-05-20T09:00:03Z</time>
      </trkpt>
      <trkpt lat="48.09325" lon="-0.32064">
        <ele>170</ele>
        <time>2018-05-20T09:00:11Z</time>
      </trkpt>
      <trkpt lat="48.0935" lon="-0.32041">
        <ele>168</ele>
        <time>2018-05-20T09:00:20Z</time>
      </trkpt>
      <trkpt lat="48.09357" lon="-0.32035">
        <ele>168</ele>
        <time>2018-05-20T09:00:23Z</time>
      </trkpt>
      <trkpt lat="48.09377" lon="-0.32011">
        <ele>168</ele>
        <time>2018-05-20T09:00:36Z</time>
      </trkpt>
      <trkpt lat="48.09378" lon="-0.32011">
        <ele>168</ele>
        <time>2018-05-20T09:00:55Z</time>
      </trkpt>
      <trkpt lat="48.09378" lon="-0.32009">
        <ele>168</ele>
        <time>2018-05-20T09:03:23Z</time>
      </trkpt>
      <trkpt lat="48.09378" lon="-0.3201">
        <ele>168</ele>
        <time>2018-05-20T09:04:47Z</time>
      </trkpt>
      <trkpt lat="48.09365" lon="-0.31986">
        <ele>167</ele>
        <time>2018-05-20T09:04:55Z</time>
      </trkpt>
      <trkpt lat="48.09362" lon="-0.31981">
        <ele>167</ele>
        <time>2018-05-20T09:04:56Z</time>
      </trkpt>
      <trkpt lat="48.09351" lon="-0.31941">
        <ele>166</ele>
        <time>2018-05-20T09:05:02Z</time>
      </trkpt>
      <trkpt lat="48.09317" lon="-0.31888">
        <ele>166</ele>
        <time>2018-05-20T09:05:08Z</time>
      </trkpt>
      <trkpt lat="48.09271" lon="-0.31848">
        <ele>167</ele>
        <time>2018-05-20T09:05:16Z</time>
      </trkpt>
      <trkpt lat="48.09253" lon="-0.31829">
        <ele>167</ele>
        <time>2018-05-20T09:05:22Z</time>
      </trkpt>
      <trkpt lat="48.09235" lon="-0.31781">
        <ele>171</ele>
        <time>2018-05-20T09:05:32Z</time>
      </trkpt>
      <trkpt lat="48.09228" lon="-0.31741">
        <ele>171</ele>
        <time>2018-05-20T09:05:42Z</time>
      </trkpt>
      <trkpt lat="48.09219" lon="-0.3171">
        <ele>173</ele>
        <time>2018-05-20T09:05:50Z</time>
      </trkpt>
      <trkpt lat="48.09215" lon="-0.31692">
        <ele>173</ele>
        <time>2018-05-20T09:05:57Z</time>
      </trkpt>
      <trkpt lat="48.09205" lon="-0.31673">
        <ele>174</ele>
        <time>2018-05-20T09:06:04Z</time>
      </trkpt>
      <trkpt lat="48.09193" lon="-0.31657">
        <ele>174</ele>
        <time>2018-05-20T09:06:13Z</time>
      </trkpt>
      <trkpt lat="48.09179" lon="-0.31638">
        <ele>175</ele>
        <time>2018-05-20T09:06:21Z</time>
      </trkpt>
      <trkpt lat="48.09167" lon="-0.31624">
        <ele>175</ele>
        <time>2018-05-20T09:06:28Z</time>
      </trkpt>
      <trkpt lat="48.09156" lon="-0.31607">
        <ele>181</ele>
        <time>2018-05-20T09:06:38Z</time>
      </trkpt>
      <trkpt lat="48.09141" lon="-0.31587">
        <ele>181</ele>
        <time>2018-05-20T09:06:46Z</time>
      </trkpt>
      <trkpt lat="48.09134" lon="-0.31575">
        <ele>182</ele>
        <time>2018-05-20T09:06:54Z</time>
      </trkpt>
      <trkpt lat="48.09125" lon="-0.31556">
        <ele>183</ele>
        <time>2018-05-20T09:07:05Z</time>
      </trkpt>
      <trkpt lat="48.09114" lon="-0.31539">
        <ele>184</ele>
        <time>2018-05-20T09:07:13Z</time>
      </trkpt>
      <trkpt lat="48.09111" lon="-0.31536">
        <ele>184</ele>
        <time>2018-05-20T09:07:16Z</time>
      </trkpt>
      <trkpt lat="48.09094" lon="-0.31502">
        <ele>187</ele>
        <time>2018-05-20T09:07:30Z</time>
      </trkpt>
      <trkpt lat="48.09082" lon="-0.31478">
        <ele>191</ele>
        <time>2018-05-20T09:07:38Z</time>
      </trkpt>
      <trkpt lat="48.09082" lon="-0.31464">
        <ele>192</ele>
        <time>2018-05-20T09:07:45Z</time>
      </trkpt>
      <trkpt lat="48.09078" lon="-0.31447">
        <ele>192</ele>
        <time>2018-05-20T09:07:50Z</time>
      </trkpt>
      <trkpt lat="48.09075" lon="-0.31434">
        <ele>191</ele>
        <time>2018-05-20T09:07:54Z</time>
      </trkpt>
      <trkpt lat="48.09071" lon="-0.31426">
        <ele>191</ele>
        <time>2018-05-20T09:07:57Z</time>
      </trkpt>
      <trkpt lat="48.09067" lon="-0.31402">
        <ele>191</ele>
        <time>2018-05-20T09:08:06Z</time>
      </trkpt>
      <trkpt lat="48.09062" lon="-0.31371">
        <ele>191</ele>
        <time>2018-05-20T09:08:18Z</time>
      </trkpt>
      <trkpt lat="48.09049" lon="-0.31336">
        <ele>192</ele>
        <time>2018-05-20T09:08:28Z</time>
      </trkpt>
      <trkpt lat="48.09045" lon="-0.31314">
        <ele>191</ele>
        <time>2018-05-20T09:08:37Z</time>
      </trkpt>
      <trkpt lat="48.09036" lon="-0.31296">
        <ele>192</ele>
        <time>2018-05-20T09:08:45Z</time>
      </trkpt>
      <trkpt lat="48.09031" lon="-0.31285">
        <ele>192</ele>
        <time>2018-05-20T09:08:50Z</time>
      </trkpt>
      <trkpt lat="48.09033" lon="-0.31283">
        <ele>191</ele>
        <time>2018-05-20T09:09:01Z</time>
      </trkpt>
      <trkpt lat="48.09042" lon="-0.31266">
        <ele>191</ele>
        <time>2018-05-20T09:10:41Z</time>
      </trkpt>
      <trkpt lat="48.09086" lon="-0.31245">
        <ele>184</ele>
        <time>2018-05-20T09:10:48Z</time>
      </trkpt>
      <trkpt lat="48.0912" lon="-0.31228">
        <ele>180</ele>
        <time>2018-05-20T09:10:55Z</time>
      </trkpt>
      <trkpt lat="48.09133" lon="-0.31217">
        <ele>179</ele>
        <time>2018-05-20T09:10:58Z</time>
      </trkpt>
      <trkpt lat="48.09146" lon="-0.31183">
        <ele>177</ele>
        <time>2018-05-20T09:11:05Z</time>
      </trkpt>
      <trkpt lat="48.09143" lon="-0.31143">
        <ele>176</ele>
        <time>2018-05-20T09:11:14Z</time>
      </trkpt>
      <trkpt lat="48.09142" lon="-0.31138">
        <ele>176</ele>
        <time>2018-05-20T09:11:15Z</time>
      </trkpt>
      <trkpt lat="48.0914" lon="-0.31118">
        <ele>176</ele>
        <time>2018-05-20T09:11:23Z</time>
      </trkpt>
      <trkpt lat="48.09141" lon="-0.31114">
        <ele>176</ele>
        <time>2018-05-20T09:11:29Z</time>
      </trkpt>
      <trkpt lat="48.09136" lon="-0.311">
        <ele>176</ele>
        <time>2018-05-20T09:11:34Z</time>
      </trkpt>
      <trkpt lat="48.09132" lon="-0.31073">
        <ele>176</ele>
        <time>2018-05-20T09:11:43Z</time>
      </trkpt>
      <trkpt lat="48.09128" lon="-0.31053">
        <ele>177</ele>
        <time>2018-05-20T09:11:49Z</time>
      </trkpt>
      <trkpt lat="48.09132" lon="-0.31045">
        <ele>176</ele>
        <time>2018-05-20T09:11:52Z</time>
      </trkpt>
      <trkpt lat="48.09154" lon="-0.31031">
        <ele>176</ele>
        <time>2018-05-20T09:12:02Z</time>
      </trkpt>
      <trkpt lat="48.09176" lon="-0.31023">
        <ele>171</ele>
        <time>2018-05-20T09:12:09Z</time>
      </trkpt>
      <trkpt lat="48.09209" lon="-0.31026">
        <ele>170</ele>
        <time>2018-05-20T09:12:18Z</time>
      </trkpt>
      <trkpt lat="48.0923" lon="-0.31023">
        <ele>169</ele>
        <time>2018-05-20T09:12:25Z</time>
      </trkpt>
      <trkpt lat="48.09254" lon="-0.31024">
        <ele>165</ele>
        <time>2018-05-20T09:12:31Z</time>
      </trkpt>
      <trkpt lat="48.09287" lon="-0.31015">
        <ele>164</ele>
        <time>2018-05-20T09:12:40Z</time>
      </trkpt>
      <trkpt lat="48.09312" lon="-0.31009">
        <ele>163</ele>
        <time>2018-05-20T09:12:47Z</time>
      </trkpt>
      <trkpt lat="48.09342" lon="-0.30992">
        <ele>159</ele>
        <time>2018-05-20T09:12:55Z</time>
      </trkpt>
      <trkpt lat="48.09373" lon="-0.30986">
        <ele>158</ele>
        <time>2018-05-20T09:13:04Z</time>
      </trkpt>
      <trkpt lat="48.09383" lon="-0.3099">
        <ele>157</ele>
        <time>2018-05-20T09:13:12Z</time>
      </trkpt>
      <trkpt lat="48.09383" lon="-0.30992">
        <ele>157</ele>
        <time>2018-05-20T09:13:40Z</time>
      </trkpt>
      <trkpt lat="48.09382" lon="-0.30992">
        <ele>157</ele>
        <time>2018-05-20T09:14:26Z</time>
      </trkpt>
      <trkpt lat="48.09384" lon="-0.30991">
        <ele>157</ele>
        <time>2018-05-20T09:16:36Z</time>
      </trkpt>
      <trkpt lat="48.09391" lon="-0.30989">
        <ele>157</ele>
        <time>2018-05-20T09:16:40Z</time>
      </trkpt>
      <trkpt lat="48.094" lon="-0.30989">
        <ele>157</ele>
        <time>2018-05-20T09:16:44Z</time>
      </trkpt>
      <trkpt lat="48.09411" lon="-0.30982">
        <ele>156</ele>
        <time>2018-05-20T09:16:53Z</time>
      </trkpt>
      <trkpt lat="48.09412" lon="-0.30981">
        <ele>156</ele>
        <time>2018-05-20T09:16:54Z</time>
      </trkpt>
      <trkpt lat="48.09432" lon="-0.30981">
        <ele>154</ele>
        <time>2018-05-20T09:17:01Z</time>
      </trkpt>
      <trkpt lat="48.0945" lon="-0.30978">
        <ele>153</ele>
        <time>2018-05-20T09:17:09Z</time>
      </trkpt>
      <trkpt lat="48.09466" lon="-0.30977">
        <ele>153</ele>
        <time>2018-05-20T09:17:16Z</time>
      </trkpt>
      <trkpt lat="48.09489" lon="-0.30976">
        <ele>153</ele>
        <time>2018-05-20T09:17:24Z</time>
      </trkpt>
      <trkpt lat="48.09498" lon="-0.30975">
        <ele>153</ele>
        <time>2018-05-20T09:17:27Z</time>
      </trkpt>
      <trkpt lat="48.09506" lon="-0.30972">
        <ele>151</ele>
        <time>2018-05-20T09:17:31Z</time>
      </trkpt>
      <trkpt lat="48.09539" lon="-0.30966">
        <ele>151</ele>
        <time>2018-05-20T09:17:41Z</time>
      </trkpt>
      <trkpt lat="48.09565" lon="-0.30963">
        <ele>151</ele>
        <time>2018-05-20T09:17:49Z</time>
      </trkpt>
      <trkpt lat="48.09583" lon="-0.30957">
        <ele>151</ele>
        <time>2018-05-20T09:17:57Z</time>
      </trkpt>
      <trkpt lat="48.09607" lon="-0.30952">
        <ele>150</ele>
        <time>2018-05-20T09:18:04Z</time>
      </trkpt>
      <trkpt lat="48.09624" lon="-0.30945">
        <ele>150</ele>
        <time>2018-05-20T09:18:09Z</time>
      </trkpt>
      <trkpt lat="48.09634" lon="-0.30941">
        <ele>150</ele>
        <time>2018-05-20T09:18:13Z</time>
      </trkpt>
      <trkpt lat="48.09643" lon="-0.3094">
        <ele>150</ele>
        <time>2018-05-20T09:18:16Z</time>
      </trkpt>
      <trkpt lat="48.09652" lon="-0.30942">
        <ele>149</ele>
        <time>2018-05-20T09:18:26Z</time>
      </trkpt>
      <trkpt lat="48.09652" lon="-0.30942">
        <ele>149</ele>
        <time>2018-05-20T09:20:39Z</time>
      </trkpt>
      <trkpt lat="48.09681" lon="-0.30929">
        <ele>148</ele>
        <time>2018-05-20T09:20:48Z</time>
      </trkpt>
      <trkpt lat="48.09719" lon="-0.30913">
        <ele>146</ele>
        <time>2018-05-20T09:20:57Z</time>
      </trkpt>
      <trkpt lat="48.09746" lon="-0.30902">
        <ele>146</ele>
        <time>2018-05-20T09:21:02Z</time>
      </trkpt>
      <trkpt lat="48.09768" lon="-0.30886">
        <ele>144</ele>
        <time>2018-05-20T09:21:06Z</time>
      </trkpt>
      <trkpt lat="48.09781" lon="-0.30871">
        <ele>143</ele>
        <time>2018-05-20T09:21:09Z</time>
      </trkpt>
      <trkpt lat="48.09796" lon="-0.30856">
        <ele>143</ele>
        <time>2018-05-20T09:21:12Z</time>
      </trkpt>
      <trkpt lat="48.09849" lon="-0.30819">
        <ele>137</ele>
        <time>2018-05-20T09:21:21Z</time>
      </trkpt>
      <trkpt lat="48.09913" lon="-0.30777">
        <ele>133</ele>
        <time>2018-05-20T09:21:30Z</time>
      </trkpt>
      <trkpt lat="48.09947" lon="-0.30763">
        <ele>130</ele>
        <time>2018-05-20T09:21:36Z</time>
      </trkpt>
      <trkpt lat="48.09957" lon="-0.30756">
        <ele>130</ele>
        <time>2018-05-20T09:21:42Z</time>
      </trkpt>
      <trkpt lat="48.09958" lon="-0.30754">
        <ele>130</ele>
        <time>2018-05-20T09:21:58Z</time>
      </trkpt>
      <trkpt lat="48.09958" lon="-0.30753">
        <ele>130</ele>
        <time>2018-05-20T09:22:31Z</time>
      </trkpt>
      <trkpt lat="48.09952" lon="-0.3071">
        <ele>130</ele>
        <time>2018-05-20T09:22:41Z</time>
      </trkpt>
      <trkpt lat="48.09939" lon="-0.30599">
        <ele>129</ele>
        <time>2018-05-20T09:22:58Z</time>
      </trkpt>
      <trkpt lat="48.09938" lon="-0.30478">
        <ele>131</ele>
        <time>2018-05-20T09:23:18Z</time>
      </trkpt>
      <trkpt lat="48.09944" lon="-0.30373">
        <ele>133</ele>
        <time>2018-05-20T09:23:38Z</time>
      </trkpt>
      <trkpt lat="48.09938" lon="-0.30298">
        <ele>135</ele>
        <time>2018-05-20T09:23:54Z</time>
      </trkpt>
      <trkpt lat="48.09931" lon="-0.30216">
        <ele>137</ele>
        <time>2018-05-20T09:24:14Z</time>
      </trkpt>
      <trkpt lat="48.09924" lon="-0.30169">
        <ele>136</ele>
        <time>2018-05-20T09:24:28Z</time>
      </trkpt>
      <trkpt lat="48.09923" lon="-0.30164">
        <ele>136</ele>
        <time>2018-05-20T09:24:30Z</time>
      </trkpt>
      <trkpt lat="48.09924" lon="-0.30162">
        <ele>136</ele>
        <time>2018-05-20T09:24:42Z</time>
      </trkpt>
      <trkpt lat="48.09924" lon="-0.30162">
        <ele>136</ele>
        <time>2018-05-20T09:24:53Z</time>
      </trkpt>
      <trkpt lat="48.09944" lon="-0.30153">
        <ele>138</ele>
        <time>2018-05-20T09:25:05Z</time>
      </trkpt>
      <trkpt lat="48.09963" lon="-0.30147">
        <ele>139</ele>
        <time>2018-05-20T09:25:17Z</time>
      </trkpt>
      <trkpt lat="48.0997" lon="-0.30145">
        <ele>139</ele>
        <time>2018-05-20T09:25:21Z</time>
      </trkpt>
      <trkpt lat="48.09984" lon="-0.30142">
        <ele>140</ele>
        <time>2018-05-20T09:25:28Z</time>
      </trkpt>
      <trkpt lat="48.09993" lon="-0.30143">
        <ele>140</ele>
        <time>2018-05-20T09:25:32Z</time>
      </trkpt>
      <trkpt lat="48.10023" lon="-0.30138">
        <ele>144</ele>
        <time>2018-05-20T09:25:46Z</time>
      </trkpt>
      <trkpt lat="48.10042" lon="-0.30128">
        <ele>145</ele>
        <time>2018-05-20T09:26:00Z</time>
      </trkpt>
      <trkpt lat="48.10072" lon="-0.30107">
        <ele>146</ele>
        <time>2018-05-20T09:26:21Z</time>
      </trkpt>
      <trkpt lat="48.10105" lon="-0.30082">
        <ele>149</ele>
        <time>2018-05-20T09:26:41Z</time>
      </trkpt>
      <trkpt lat="48.1014" lon="-0.30063">
        <ele>151</ele>
        <time>2018-05-20T09:26:57Z</time>
      </trkpt>
      <trkpt lat="48.10173" lon="-0.3004">
        <ele>156</ele>
        <time>2018-05-20T09:27:16Z</time>
      </trkpt>
      <trkpt lat="48.10203" lon="-0.30031">
        <ele>157</ele>
        <time>2018-05-20T09:27:34Z</time>
      </trkpt>
      <trkpt lat="48.10235" lon="-0.30021">
        <ele>159</ele>
        <time>2018-05-20T09:27:54Z</time>
      </trkpt>
      <trkpt lat="48.1025" lon="-0.30021">
        <ele>163</ele>
        <time>2018-05-20T09:28:05Z</time>
      </trkpt>
      <trkpt lat="48.10248" lon="-0.30026">
        <ele>159</ele>
        <time>2018-05-20T09:28:12Z</time>
      </trkpt>
      <trkpt lat="48.10251" lon="-0.30022">
        <ele>163</ele>
        <time>2018-05-20T09:28:21Z</time>
      </trkpt>
      <trkpt lat="48.10244" lon="-0.30024">
        <ele>159</ele>
        <time>2018-05-20T09:28:30Z</time>
      </trkpt>
      <trkpt lat="48.10244" lon="-0.30022">
        <ele>159</ele>
        <time>2018-05-20T09:28:31Z</time>
      </trkpt>
      <trkpt lat="48.10244" lon="-0.30018">
        <ele>159</ele>
        <time>2018-05-20T09:28:34Z</time>
      </trkpt>
      <trkpt lat="48.10248" lon="-0.30019">
        <ele>159</ele>
        <time>2018-05-20T09:28:39Z</time>
      </trkpt>
      <trkpt lat="48.10246" lon="-0.30024">
        <ele>159</ele>
        <time>2018-05-20T09:28:49Z</time>
      </trkpt>
      <trkpt lat="48.10253" lon="-0.30018">
        <ele>163</ele>
        <time>2018-05-20T09:28:56Z</time>
      </trkpt>
      <trkpt lat="48.10283" lon="-0.30013">
        <ele>164</ele>
        <time>2018-05-20T09:29:14Z</time>
      </trkpt>
      <trkpt lat="48.10304" lon="-0.30013">
        <ele>165</ele>
        <time>2018-05-20T09:29:30Z</time>
      </trkpt>
      <trkpt lat="48.10319" lon="-0.30016">
        <ele>166</ele>
        <time>2018-05-20T09:29:39Z</time>
      </trkpt>
      <trkpt lat="48.10337" lon="-0.30013">
        <ele>169</ele>
        <time>2018-05-20T09:29:51Z</time>
      </trkpt>
      <trkpt lat="48.10355" lon="-0.30008">
        <ele>170</ele>
        <time>2018-05-20T09:30:06Z</time>
      </trkpt>
      <trkpt lat="48.10378" lon="-0.30006">
        <ele>171</ele>
        <time>2018-05-20T09:30:22Z</time>
      </trkpt>
      <trkpt lat="48.10402" lon="-0.29998">
        <ele>173</ele>
        <time>2018-05-20T09:30:37Z</time>
      </trkpt>
      <trkpt lat="48.10427" lon="-0.29994">
        <ele>174</ele>
        <time>2018-05-20T09:30:49Z</time>
      </trkpt>
      <trkpt lat="48.10458" lon="-0.29989">
        <ele>175</ele>
        <time>2018-05-20T09:31:00Z</time>
      </trkpt>
      <trkpt lat="48.10487" lon="-0.29968">
        <ele>175</ele>
        <time>2018-05-20T09:31:11Z</time>
      </trkpt>
      <trkpt lat="48.10488" lon="-0.29962">
        <ele>175</ele>
        <time>2018-05-20T09:31:13Z</time>
      </trkpt>
      <trkpt lat="48.10487" lon="-0.29958">
        <ele>175</ele>
        <time>2018-05-20T09:31:24Z</time>
      </trkpt>
      <trkpt lat="48.10487" lon="-0.29958">
        <ele>175</ele>
        <time>2018-05-20T09:33:41Z</time>
      </trkpt>
      <trkpt lat="48.10487" lon="-0.29958">
        <ele>175</ele>
        <time>2018-05-20T09:35:07Z</time>
      </trkpt>
      <trkpt lat="48.10488" lon="-0.29958">
        <ele>175</ele>
        <time>2018-05-20T09:35:26Z</time>
      </trkpt>
      <trkpt lat="48.10488" lon="-0.29959">
        <ele>175</ele>
        <time>2018-05-20T09:36:20Z</time>
      </trkpt>
      <trkpt lat="48.10488" lon="-0.2996">
        <ele>175</ele>
        <time>2018-05-20T09:37:33Z</time>
      </trkpt>
      <trkpt lat="48.10488" lon="-0.2996">
        <ele>175</ele>
        <time>2018-05-20T09:37:56Z</time>
      </trkpt>
      <trkpt lat="48.10486" lon="-0.29957">
        <ele>175</ele>
        <time>2018-05-20T09:37:58Z</time>
      </trkpt>
      <trkpt lat="48.1048" lon="-0.29927">
        <ele>175</ele>
        <time>2018-05-20T09:38:07Z</time>
      </trkpt>
      <trkpt lat="48.10472" lon="-0.29893">
        <ele>175</ele>
        <time>2018-05-20T09:38:16Z</time>
      </trkpt>
      <trkpt lat="48.10463" lon="-0.29853">
        <ele>174</ele>
        <time>2018-05-20T09:38:27Z</time>
      </trkpt>
      <trkpt lat="48.10449" lon="-0.29814">
        <ele>175</ele>
        <time>2018-05-20T09:38:38Z</time>
      </trkpt>
      <trkpt lat="48.10439" lon="-0.29785">
        <ele>176</ele>
        <time>2018-05-20T09:38:48Z</time>
      </trkpt>
      <trkpt lat="48.10419" lon="-0.29738">
        <ele>177</ele>
        <time>2018-05-20T09:39:04Z</time>
      </trkpt>
      <trkpt lat="48.10411" lon="-0.29714">
        <ele>179</ele>
        <time>2018-05-20T09:39:12Z</time>
      </trkpt>
      <trkpt lat="48.10401" lon="-0.29689">
        <ele>180</ele>
        <time>2018-05-20T09:39:22Z</time>
      </trkpt>
      <trkpt lat="48.10389" lon="-0.29659">
        <ele>181</ele>
        <time>2018-05-20T09:39:35Z</time>
      </trkpt>
      <trkpt lat="48.10379" lon="-0.29629">
        <ele>181</ele>
        <time>2018-05-20T09:39:47Z</time>
      </trkpt>
      <trkpt lat="48.10371" lon="-0.29602">
        <ele>182</ele>
        <time>2018-05-20T09:39:57Z</time>
      </trkpt>
      <trkpt lat="48.10364" lon="-0.29569">
        <ele>183</ele>
        <time>2018-05-20T09:40:10Z</time>
      </trkpt>
      <trkpt lat="48.10357" lon="-0.29521">
        <ele>183</ele>
        <time>2018-05-20T09:40:24Z</time>
      </trkpt>
      <trkpt lat="48.10352" lon="-0.29457">
        <ele>183</ele>
        <time>2018-05-20T09:40:37Z</time>
      </trkpt>
      <trkpt lat="48.10345" lon="-0.29383">
        <ele>183</ele>
        <time>2018-05-20T09:40:51Z</time>
      </trkpt>
      <trkpt lat="48.10334" lon="-0.29341">
        <ele>184</ele>
        <time>2018-05-20T09:41:01Z</time>
      </trkpt>
      <trkpt lat="48.10308" lon="-0.29296">
        <ele>185</ele>
        <time>2018-05-20T09:41:15Z</time>
      </trkpt>
      <trkpt lat="48.10275" lon="-0.29258">
        <ele>186</ele>
        <time>2018-05-20T09:41:31Z</time>
      </trkpt>
      <trkpt lat="48.10254" lon="-0.29226">
        <ele>187</ele>
        <time>2018-05-20T09:41:44Z</time>
      </trkpt>
      <trkpt lat="48.10239" lon="-0.29193">
        <ele>187</ele>
        <time>2018-05-20T09:41:57Z</time>
      </trkpt>
      <trkpt lat="48.10229" lon="-0.2916">
        <ele>188</ele>
        <time>2018-05-20T09:42:09Z</time>
      </trkpt>
      <trkpt lat="48.10219" lon="-0.29129">
        <ele>188</ele>
        <time>2018-05-20T09:42:21Z</time>
      </trkpt>
      <trkpt lat="48.1022" lon="-0.29127">
        <ele>188</ele>
        <time>2018-05-20T09:42:35Z</time>
      </trkpt>
      <trkpt lat="48.10219" lon="-0.29127">
        <ele>188</ele>
        <time>2018-05-20T09:45:11Z</time>
      </trkpt>
      <trkpt lat="48.10219" lon="-0.29127">
        <ele>188</ele>
        <time>2018-05-20T09:46:46Z</time>
      </trkpt>
      <trkpt lat="48.10209" lon="-0.29089">
        <ele>188</ele>
        <time>2018-05-20T09:46:57Z</time>
      </trkpt>
      <trkpt lat="48.10196" lon="-0.29028">
        <ele>188</ele>
        <time>2018-05-20T09:47:09Z</time>
      </trkpt>
      <trkpt lat="48.10192" lon="-0.29005">
        <ele>188</ele>
        <time>2018-05-20T09:47:13Z</time>
      </trkpt>
      <trkpt lat="48.10179" lon="-0.28934">
        <ele>190</ele>
        <time>2018-05-20T09:47:26Z</time>
      </trkpt>
      <trkpt lat="48.10166" lon="-0.28865">
        <ele>191</ele>
        <time>2018-05-20T09:47:39Z</time>
      </trkpt>
      <trkpt lat="48.10161" lon="-0.28828">
        <ele>191</ele>
        <time>2018-05-20T09:47:48Z</time>
      </trkpt>
      <trkpt lat="48.10153" lon="-0.28764">
        <ele>191</ele>
        <time>2018-05-20T09:48:01Z</time>
      </trkpt>
      <trkpt lat="48.10128" lon="-0.28673">
        <ele>192</ele>
        <time>2018-05-20T09:48:18Z</time>
      </trkpt>
      <trkpt lat="48.10095" lon="-0.28634">
        <ele>192</ele>
        <time>2018-05-20T09:48:31Z</time>
      </trkpt>
      <trkpt lat="48.10071" lon="-0.2863">
        <ele>192</ele>
        <time>2018-05-20T09:48:41Z</time>
      </trkpt>
      <trkpt lat="48.10068" lon="-0.28619">
        <ele>192</ele>
        <time>2018-05-20T09:48:45Z</time>
      </trkpt>
      <trkpt lat="48.10069" lon="-0.28614">
        <ele>192</ele>
        <time>2018-05-20T09:48:56Z</time>
      </trkpt>
      <trkpt lat="48.10073" lon="-0.28599">
        <ele>192</ele>
        <time>2018-05-20T09:49:15Z</time>
      </trkpt>
      <trkpt lat="48.10077" lon="-0.2857">
        <ele>191</ele>
        <time>2018-05-20T09:49:23Z</time>
      </trkpt>
      <trkpt lat="48.10082" lon="-0.28541">
        <ele>191</ele>
        <time>2018-05-20T09:49:29Z</time>
      </trkpt>
      <trkpt lat="48.10091" lon="-0.28492">
        <ele>190</ele>
        <time>2018-05-20T09:49:38Z</time>
      </trkpt>
      <trkpt lat="48.10099" lon="-0.2845">
        <ele>189</ele>
        <time>2018-05-20T09:49:45Z</time>
      </trkpt>
      <trkpt lat="48.10108" lon="-0.28403">
        <ele>188</ele>
        <time>2018-05-20T09:49:51Z</time>
      </trkpt>
      <trkpt lat="48.10109" lon="-0.28374">
        <ele>187</ele>
        <time>2018-05-20T09:49:55Z</time>
      </trkpt>
      <trkpt lat="48.10104" lon="-0.28338">
        <ele>187</ele>
        <time>2018-05-20T09:50:02Z</time>
      </trkpt>
      <trkpt lat="48.101" lon="-0.28281">
        <ele>182</ele>
        <time>2018-05-20T09:50:09Z</time>
      </trkpt>
      <trkpt lat="48.1009" lon="-0.2823">
        <ele>178</ele>
        <time>2018-05-20T09:50:14Z</time>
      </trkpt>
      <trkpt lat="48.10085" lon="-0.28182">
        <ele>176</ele>
        <time>2018-05-20T09:50:19Z</time>
      </trkpt>
      <trkpt lat="48.10086" lon="-0.28107">
        <ele>173</ele>
        <time>2018-05-20T09:50:28Z</time>
      </trkpt>
      <trkpt lat="48.10094" lon="-0.2806">
        <ele>171</ele>
        <time>2018-05-20T09:50:33Z</time>
      </trkpt>
      <trkpt lat="48.10098" lon="-0.27976">
        <ele>167</ele>
        <time>2018-05-20T09:50:41Z</time>
      </trkpt>
      <trkpt lat="48.10111" lon="-0.2793">
        <ele>166</ele>
        <time>2018-05-20T09:50:46Z</time>
      </trkpt>
      <trkpt lat="48.1012" lon="-0.2788">
        <ele>164</ele>
        <time>2018-05-20T09:50:51Z</time>
      </trkpt>
      <trkpt lat="48.10124" lon="-0.27825">
        <ele>162</ele>
        <time>2018-05-20T09:50:57Z</time>
      </trkpt>
      <trkpt lat="48.10125" lon="-0.27747">
        <ele>161</ele>
        <time>2018-05-20T09:51:07Z</time>
      </trkpt>
      <trkpt lat="48.10124" lon="-0.27726">
        <ele>161</ele>
        <time>2018-05-20T09:51:10Z</time>
      </trkpt>
      <trkpt lat="48.10126" lon="-0.27698">
        <ele>161</ele>
        <time>2018-05-20T09:51:14Z</time>
      </trkpt>
      <trkpt lat="48.10128" lon="-0.27656">
        <ele>159</ele>
        <time>2018-05-20T09:51:20Z</time>
      </trkpt>
      <trkpt lat="48.10128" lon="-0.27649">
        <ele>159</ele>
        <time>2018-05-20T09:51:21Z</time>
      </trkpt>
      <trkpt lat="48.1013" lon="-0.27634">
        <ele>159</ele>
        <time>2018-05-20T09:51:23Z</time>
      </trkpt>
      <trkpt lat="48.10132" lon="-0.27557">
        <ele>157</ele>
        <time>2018-05-20T09:51:35Z</time>
      </trkpt>
      <trkpt lat="48.10132" lon="-0.27549">
        <ele>157</ele>
        <time>2018-05-20T09:51:36Z</time>
      </trkpt>
      <trkpt lat="48.10132" lon="-0.27531">
        <ele>157</ele>
        <time>2018-05-20T09:51:39Z</time>
      </trkpt>
      <trkpt lat="48.10141" lon="-0.27469">
        <ele>157</ele>
        <time>2018-05-20T09:51:48Z</time>
      </trkpt>
      <trkpt lat="48.10143" lon="-0.27445">
        <ele>157</ele>
        <time>2018-05-20T09:51:51Z</time>
      </trkpt>
      <trkpt lat="48.10147" lon="-0.27414">
        <ele>156</ele>
        <time>2018-05-20T09:51:55Z</time>
      </trkpt>
      <trkpt lat="48.10142" lon="-0.27345">
        <ele>155</ele>
        <time>2018-05-20T09:52:03Z</time>
      </trkpt>
      <trkpt lat="48.10139" lon="-0.2728">
        <ele>152</ele>
        <time>2018-05-20T09:52:11Z</time>
      </trkpt>
      <trkpt lat="48.1014" lon="-0.2727">
        <ele>152</ele>
        <time>2018-05-20T09:52:12Z</time>
      </trkpt>
      <trkpt lat="48.10145" lon="-0.27207">
        <ele>151</ele>
        <time>2018-05-20T09:52:19Z</time>
      </trkpt>
      <trkpt lat="48.10146" lon="-0.27196">
        <ele>151</ele>
        <time>2018-05-20T09:52:20Z</time>
      </trkpt>
      <trkpt lat="48.10165" lon="-0.27106">
        <ele>149</ele>
        <time>2018-05-20T09:52:28Z</time>
      </trkpt>
      <trkpt lat="48.10166" lon="-0.27091">
        <ele>149</ele>
        <time>2018-05-20T09:52:36Z</time>
      </trkpt>
      <trkpt lat="48.10168" lon="-0.27088">
        <ele>148</ele>
        <time>2018-05-20T09:53:25Z</time>
      </trkpt>
      <trkpt lat="48.10168" lon="-0.27089">
        <ele>148</ele>
        <time>2018-05-20T09:54:06Z</time>
      </trkpt>
      <trkpt lat="48.10169" lon="-0.27089">
        <ele>148</ele>
        <time>2018-05-20T09:54:55Z</time>
      </trkpt>
      <trkpt lat="48.10169" lon="-0.27084">
        <ele>148</ele>
        <time>2018-05-20T09:57:51Z</time>
      </trkpt>
      <trkpt lat="48.10164" lon="-0.27078">
        <ele>148</ele>
        <time>2018-05-20T09:57:55Z</time>
      </trkpt>
      <trkpt lat="48.10143" lon="-0.27062">
        <ele>149</ele>
        <time>2018-05-20T09:58:01Z</time>
      </trkpt>
      <trkpt lat="48.10092" lon="-0.27024">
        <ele>151</ele>
        <time>2018-05-20T09:58:15Z</time>
      </trkpt>
      <trkpt lat="48.10056" lon="-0.27005">
        <ele>153</ele>
        <time>2018-05-20T09:58:28Z</time>
      </trkpt>
      <trkpt lat="48.1004" lon="-0.26982">
        <ele>153</ele>
        <time>2018-05-20T09:58:37Z</time>
      </trkpt>
      <trkpt lat="48.10036" lon="-0.2693">
        <ele>152</ele>
        <time>2018-05-20T09:58:49Z</time>
      </trkpt>
      <trkpt lat="48.10033" lon="-0.26856">
        <ele>151</ele>
        <time>2018-05-20T09:59:04Z</time>
      </trkpt>
      <trkpt lat="48.10028" lon="-0.26778">
        <ele>150</ele>
        <time>2018-05-20T09:59:18Z</time>
      </trkpt>
      <trkpt lat="48.10025" lon="-0.26764">
        <ele>150</ele>
        <time>2018-05-20T09:59:20Z</time>
      </trkpt>
      <trkpt lat="48.10019" lon="-0.26741">
        <ele>149</ele>
        <time>2018-05-20T09:59:23Z</time>
      </trkpt>
      <trkpt lat="48.10015" lon="-0.26722">
        <ele>149</ele>
        <time>2018-05-20T09:59:25Z</time>
      </trkpt>
      <trkpt lat="48.10006" lon="-0.26681">
        <ele>149</ele>
        <time>2018-05-20T09:59:30Z</time>
      </trkpt>
      <trkpt lat="48.10009" lon="-0.26654">
        <ele>149</ele>
        <time>2018-05-20T09:59:37Z</time>
      </trkpt>
      <trkpt lat="48.1001" lon="-0.26653">
        <ele>149</ele>
        <time>2018-05-20T09:59:43Z</time>
      </trkpt>
      <trkpt lat="48.10017" lon="-0.26651">
        <ele>149</ele>
        <time>2018-05-20T09:59:47Z</time>
      </trkpt>
      <trkpt lat="48.10048" lon="-0.2665">
        <ele>148</ele>
        <time>2018-05-20T09:59:53Z</time>
      </trkpt>
      <trkpt lat="48.10117" lon="-0.26636">
        <ele>146</ele>
        <time>2018-05-20T10:00:06Z</time>
      </trkpt>
      <trkpt lat="48.1017" lon="-0.26616">
        <ele>146</ele>
        <time>2018-05-20T10:00:17Z</time>
      </trkpt>
      <trkpt lat="48.1018" lon="-0.26599">
        <ele>146</ele>
        <time>2018-05-20T10:00:22Z</time>
      </trkpt>
      <trkpt lat="48.10178" lon="-0.26594">
        <ele>146</ele>
        <time>2018-05-20T10:00:35Z</time>
      </trkpt>
      <trkpt lat="48.10178" lon="-0.26595">
        <ele>146</ele>
        <time>2018-05-20T10:01:04Z</time>
      </trkpt>
      <trkpt lat="48.10174" lon="-0.26559">
        <ele>148</ele>
        <time>2018-05-20T10:01:14Z</time>
      </trkpt>
      <trkpt lat="48.10163" lon="-0.26483">
        <ele>148</ele>
        <time>2018-05-20T10:01:27Z</time>
      </trkpt>
      <trkpt lat="48.10164" lon="-0.26432">
        <ele>149</ele>
        <time>2018-05-20T10:01:38Z</time>
      </trkpt>
      <trkpt lat="48.10167" lon="-0.26379">
        <ele>152</ele>
        <time>2018-05-20T10:01:53Z</time>
      </trkpt>
      <trkpt lat="48.10151" lon="-0.26326">
        <ele>154</ele>
        <time>2018-05-20T10:02:09Z</time>
      </trkpt>
      <trkpt lat="48.10151" lon="-0.26309">
        <ele>154</ele>
        <time>2018-05-20T10:02:14Z</time>
      </trkpt>
      <trkpt lat="48.10163" lon="-0.26257">
        <ele>156</ele>
        <time>2018-05-20T10:02:31Z</time>
      </trkpt>
      <trkpt lat="48.1018" lon="-0.26221">
        <ele>157</ele>
        <time>2018-05-20T10:02:47Z</time>
      </trkpt>
      <trkpt lat="48.10176" lon="-0.26183">
        <ele>157</ele>
        <time>2018-05-20T10:03:00Z</time>
      </trkpt>
      <trkpt lat="48.10172" lon="-0.26156">
        <ele>158</ele>
        <time>2018-05-20T10:03:13Z</time>
      </trkpt>
      <trkpt lat="48.10165" lon="-0.26137">
        <ele>159</ele>
        <time>2018-05-20T10:03:25Z</time>
      </trkpt>
      <trkpt lat="48.10148" lon="-0.2607">
        <ele>160</ele>
        <time>2018-05-20T10:03:43Z</time>
      </trkpt>
      <trkpt lat="48.10147" lon="-0.26063">
        <ele>160</ele>
        <time>2018-05-20T10:03:52Z</time>
      </trkpt>
      <trkpt lat="48.10147" lon="-0.26063">
        <ele>160</ele>
        <time>2018-05-20T10:03:54Z</time>
      </trkpt>
      <trkpt lat="48.10167" lon="-0.26051">
        <ele>158</ele>
        <time>2018-05-20T10:04:02Z</time>
      </trkpt>
      <trkpt lat="48.10171" lon="-0.26049">
        <ele>158</ele>
        <time>2018-05-20T10:04:03Z</time>
      </trkpt>
      <trkpt lat="48.10184" lon="-0.26033">
        <ele>158</ele>
        <time>2018-05-20T10:04:07Z</time>
      </trkpt>
      <trkpt lat="48.10187" lon="-0.25973">
        <ele>156</ele>
        <time>2018-05-20T10:04:18Z</time>
      </trkpt>
      <trkpt lat="48.10187" lon="-0.25968">
        <ele>156</ele>
        <time>2018-05-20T10:04:19Z</time>
      </trkpt>
      <trkpt lat="48.10193" lon="-0.25898">
        <ele>154</ele>
        <time>2018-05-20T10:04:29Z</time>
      </trkpt>
      <trkpt lat="48.10196" lon="-0.25838">
        <ele>153</ele>
        <time>2018-05-20T10:04:35Z</time>
      </trkpt>
      <trkpt lat="48.10202" lon="-0.25802">
        <ele>150</ele>
        <time>2018-05-20T10:04:38Z</time>
      </trkpt>
      <trkpt lat="48.10223" lon="-0.25726">
        <ele>146</ele>
        <time>2018-05-20T10:04:44Z</time>
      </trkpt>
      <trkpt lat="48.10237" lon="-0.25692">
        <ele>145</ele>
        <time>2018-05-20T10:04:47Z</time>
      </trkpt>
      <trkpt lat="48.10242" lon="-0.25672">
        <ele>144</ele>
        <time>2018-05-20T10:04:49Z</time>
      </trkpt>
      <trkpt lat="48.10246" lon="-0.25628">
        <ele>142</ele>
        <time>2018-05-20T10:04:56Z</time>
      </trkpt>
      <trkpt lat="48.10247" lon="-0.25621">
        <ele>142</ele>
        <time>2018-05-20T10:04:57Z</time>
      </trkpt>
      <trkpt lat="48.10257" lon="-0.25592">
        <ele>141</ele>
        <time>2018-05-20T10:05:02Z</time>
      </trkpt>
      <trkpt lat="48.10275" lon="-0.25568">
        <ele>139</ele>
        <time>2018-05-20T10:05:07Z</time>
      </trkpt>
      <trkpt lat="48.10315" lon="-0.25547">
        <ele>139</ele>
        <time>2018-05-20T10:05:17Z</time>
      </trkpt>
      <trkpt lat="48.10319" lon="-0.25545">
        <ele>139</ele>
        <time>2018-05-20T10:05:18Z</time>
      </trkpt>
      <trkpt lat="48.10365" lon="-0.25518">
        <ele>137</ele>
        <time>2018-05-20T10:05:30Z</time>
      </trkpt>
      <trkpt lat="48.10397" lon="-0.25498">
        <ele>137</ele>
        <time>2018-05-20T10:05:40Z</time>
      </trkpt>
      <trkpt lat="48.10423" lon="-0.25484">
        <ele>136</ele>
        <time>2018-05-20T10:05:49Z</time>
      </trkpt>
      <trkpt lat="48.10427" lon="-0.25481">
        <ele>136</ele>
        <time>2018-05-20T10:05:50Z</time>
      </trkpt>
      <trkpt lat="48.10434" lon="-0.25462">
        <ele>136</ele>
        <time>2018-05-20T10:05:54Z</time>
      </trkpt>
      <trkpt lat="48.10436" lon="-0.25394">
        <ele>137</ele>
        <time>2018-05-20T10:06:04Z</time>
      </trkpt>
      <trkpt lat="48.10444" lon="-0.2535">
        <ele>137</ele>
        <time>2018-05-20T10:06:15Z</time>
      </trkpt>
      <trkpt lat="48.10441" lon="-0.25313">
        <ele>138</ele>
        <time>2018-05-20T10:06:26Z</time>
      </trkpt>
      <trkpt lat="48.10434" lon="-0.25266">
        <ele>138</ele>
        <time>2018-05-20T10:06:39Z</time>
      </trkpt>
      <trkpt lat="48.10434" lon="-0.25225">
        <ele>138</ele>
        <time>2018-05-20T10:06:50Z</time>
      </trkpt>
      <trkpt lat="48.10435" lon="-0.25185">
        <ele>138</ele>
        <time>2018-05-20T10:07:04Z</time>
      </trkpt>
      <trkpt lat="48.10434" lon="-0.25159">
        <ele>139</ele>
        <time>2018-05-20T10:07:15Z</time>
      </trkpt>
      <trkpt lat="48.10438" lon="-0.25152">
        <ele>139</ele>
        <time>2018-05-20T10:07:20Z</time>
      </trkpt>
      <trkpt lat="48.1044" lon="-0.25156">
        <ele>139</ele>
        <time>2018-05-20T10:07:26Z</time>
      </trkpt>
      <trkpt lat="48.10439" lon="-0.25156">
        <ele>139</ele>
        <time>2018-05-20T10:07:41Z</time>
      </trkpt>
      <trkpt lat="48.10439" lon="-0.25156">
        <ele>139</ele>
        <time>2018-05-20T10:08:26Z</time>
      </trkpt>
      <trkpt lat="48.10438" lon="-0.25158">
        <ele>139</ele>
        <time>2018-05-20T10:10:04Z</time>
      </trkpt>
      <trkpt lat="48.10438" lon="-0.25157">
        <ele>139</ele>
        <time>2018-05-20T10:10:22Z</time>
      </trkpt>
      <trkpt lat="48.10437" lon="-0.25157">
        <ele>139</ele>
        <time>2018-05-20T10:11:11Z</time>
      </trkpt>
      <trkpt lat="48.10435" lon="-0.25151">
        <ele>139</ele>
        <time>2018-05-20T10:11:14Z</time>
      </trkpt>
      <trkpt lat="48.10416" lon="-0.25116">
        <ele>140</ele>
        <time>2018-05-20T10:11:27Z</time>
      </trkpt>
      <trkpt lat="48.10402" lon="-0.25108">
        <ele>141</ele>
        <time>2018-05-20T10:11:34Z</time>
      </trkpt>
      <trkpt lat="48.10398" lon="-0.25096">
        <ele>141</ele>
        <time>2018-05-20T10:11:38Z</time>
      </trkpt>
      <trkpt lat="48.10402" lon="-0.25024">
        <ele>142</ele>
        <time>2018-05-20T10:11:54Z</time>
      </trkpt>
      <trkpt lat="48.10403" lon="-0.24925">
        <ele>143</ele>
        <time>2018-05-20T10:12:15Z</time>
      </trkpt>
      <trkpt lat="48.104" lon="-0.2483">
        <ele>144</ele>
        <time>2018-05-20T10:12:33Z</time>
      </trkpt>
      <trkpt lat="48.10396" lon="-0.24702">
        <ele>145</ele>
        <time>2018-05-20T10:12:54Z</time>
      </trkpt>
      <trkpt lat="48.10394" lon="-0.24566">
        <ele>145</ele>
        <time>2018-05-20T10:13:16Z</time>
      </trkpt>
      <trkpt lat="48.1039" lon="-0.24426">
        <ele>145</ele>
        <time>2018-05-20T10:13:40Z</time>
      </trkpt>
      <trkpt lat="48.10389" lon="-0.24411">
        <ele>144</ele>
        <time>2018-05-20T10:13:47Z</time>
      </trkpt>
      <trkpt lat="48.1039" lon="-0.24451">
        <ele>145</ele>
        <time>2018-05-20T10:13:57Z</time>
      </trkpt>
      <trkpt lat="48.10391" lon="-0.24455">
        <ele>145</ele>
        <time>2018-05-20T10:13:58Z</time>
      </trkpt>
      <trkpt lat="48.1038" lon="-0.24461">
        <ele>145</ele>
        <time>2018-05-20T10:14:04Z</time>
      </trkpt>
      <trkpt lat="48.1035" lon="-0.24454">
        <ele>144</ele>
        <time>2018-05-20T10:14:12Z</time>
      </trkpt>
      <trkpt lat="48.10337" lon="-0.24452">
        <ele>144</ele>
        <time>2018-05-20T10:14:15Z</time>
      </trkpt>
      <trkpt lat="48.10287" lon="-0.2444">
        <ele>142</ele>
        <time>2018-05-20T10:14:25Z</time>
      </trkpt>
      <trkpt lat="48.10261" lon="-0.24439">
        <ele>141</ele>
        <time>2018-05-20T10:14:30Z</time>
      </trkpt>
      <trkpt lat="48.10204" lon="-0.24424">
        <ele>139</ele>
        <time>2018-05-20T10:14:38Z</time>
      </trkpt>
      <trkpt lat="48.10168" lon="-0.24422">
        <ele>138</ele>
        <time>2018-05-20T10:14:45Z</time>
      </trkpt>
      <trkpt lat="48.10131" lon="-0.24424">
        <ele>138</ele>
        <time>2018-05-20T10:14:54Z</time>
      </trkpt>
      <trkpt lat="48.10093" lon="-0.24424">
        <ele>139</ele>
        <time>2018-05-20T10:15:02Z</time>
      </trkpt>
      <trkpt lat="48.10043" lon="-0.24431">
        <ele>139</ele>
        <time>2018-05-20T10:15:14Z</time>
      </trkpt>
      <trkpt lat="48.10002" lon="-0.24428">
        <ele>139</ele>
        <time>2018-05-20T10:15:26Z</time>
      </trkpt>
      <trkpt lat="48.09975" lon="-0.24422">
        <ele>138</ele>
        <time>2018-05-20T10:15:34Z</time>
      </trkpt>
      <trkpt lat="48.09947" lon="-0.24406">
        <ele>138</ele>
        <time>2018-05-20T10:15:42Z</time>
      </trkpt>
      <trkpt lat="48.09919" lon="-0.24392">
        <ele>138</ele>
        <time>2018-05-20T10:15:52Z</time>
      </trkpt>
      <trkpt lat="48.09882" lon="-0.24377">
        <ele>140</ele>
        <time>2018-05-20T10:16:02Z</time>
      </trkpt>
      <trkpt lat="48.09859" lon="-0.24371">
        <ele>141</ele>
        <time>2018-05-20T10:16:10Z</time>
      </trkpt>
      <trkpt lat="48.09844" lon="-0.24368">
        <ele>141</ele>
        <time>2018-05-20T10:16:17Z</time>
      </trkpt>
      <trkpt lat="48.09842" lon="-0.24366">
        <ele>141</ele>
        <time>2018-05-20T10:22:08Z</time>
      </trkpt>
      <trkpt lat="48.09842" lon="-0.24366">
        <ele>141</ele>
        <time>2018-05-20T10:23:39Z</time>
      </trkpt>
      <trkpt lat="48.09841" lon="-0.24363">
        <ele>141</ele>
        <time>2018-05-20T10:24:09Z</time>
      </trkpt>
      <trkpt lat="48.0984" lon="-0.24362">
        <ele>141</ele>
        <time>2018-05-20T10:24:11Z</time>
      </trkpt>
      <trkpt lat="48.0982" lon="-0.24358">
        <ele>143</ele>
        <time>2018-05-20T10:24:20Z</time>
      </trkpt>
      <trkpt lat="48.09796" lon="-0.24359">
        <ele>143</ele>
        <time>2018-05-20T10:24:29Z</time>
      </trkpt>
      <trkpt lat="48.09769" lon="-0.24359">
        <ele>142</ele>
        <time>2018-05-20T10:24:39Z</time>
      </trkpt>
      <trkpt lat="48.09747" lon="-0.24361">
        <ele>142</ele>
        <time>2018-05-20T10:24:47Z</time>
      </trkpt>
      <trkpt lat="48.09722" lon="-0.2436">
        <ele>142</ele>
        <time>2018-05-20T10:24:57Z</time>
      </trkpt>
      <trkpt lat="48.09674" lon="-0.24354">
        <ele>142</ele>
        <time>2018-05-20T10:25:14Z</time>
      </trkpt>
      <trkpt lat="48.0963" lon="-0.24363">
        <ele>143</ele>
        <time>2018-05-20T10:25:29Z</time>
      </trkpt>
      <trkpt lat="48.09592" lon="-0.24366">
        <ele>143</ele>
        <time>2018-05-20T10:25:41Z</time>
      </trkpt>
      <trkpt lat="48.09559" lon="-0.24366">
        <ele>144</ele>
        <time>2018-05-20T10:25:51Z</time>
      </trkpt>
      <trkpt lat="48.0952" lon="-0.24364">
        <ele>145</ele>
        <time>2018-05-20T10:26:02Z</time>
      </trkpt>
      <trkpt lat="48.09483" lon="-0.24362">
        <ele>147</ele>
        <time>2018-05-20T10:26:17Z</time>
      </trkpt>
      <trkpt lat="48.09477" lon="-0.24363">
        <ele>147</ele>
        <time>2018-05-20T10:26:40Z</time>
      </trkpt>
      <trkpt lat="48.0944" lon="-0.24365">
        <ele>148</ele>
        <time>2018-05-20T10:26:55Z</time>
      </trkpt>
      <trkpt lat="48.09402" lon="-0.24374">
        <ele>150</ele>
        <time>2018-05-20T10:27:11Z</time>
      </trkpt>
      <trkpt lat="48.09399" lon="-0.24373">
        <ele>150</ele>
        <time>2018-05-20T10:27:22Z</time>
      </trkpt>
      <trkpt lat="48.09399" lon="-0.24374">
        <ele>150</ele>
        <time>2018-05-20T10:27:54Z</time>
      </trkpt>
      <trkpt lat="48.09401" lon="-0.24374">
        <ele>150</ele>
        <time>2018-05-20T10:30:44Z</time>
      </trkpt>
      <trkpt lat="48.094" lon="-0.24374">
        <ele>150</ele>
        <time>2018-05-20T10:31:03Z</time>
      </trkpt>
      <trkpt lat="48.0939" lon="-0.24374">
        <ele>151</ele>
        <time>2018-05-20T10:31:14Z</time>
      </trkpt>
      <trkpt lat="48.09365" lon="-0.24375">
        <ele>151</ele>
        <time>2018-05-20T10:31:25Z</time>
      </trkpt>
      <trkpt lat="48.09327" lon="-0.24373">
        <ele>155</ele>
        <time>2018-05-20T10:31:44Z</time>
      </trkpt>
      <trkpt lat="48.09299" lon="-0.24367">
        <ele>156</ele>
        <time>2018-05-20T10:31:59Z</time>
      </trkpt>
      <trkpt lat="48.09269" lon="-0.24359">
        <ele>158</ele>
        <time>2018-05-20T10:32:17Z</time>
      </trkpt>
      <trkpt lat="48.09247" lon="-0.24352">
        <ele>163</ele>
        <time>2018-05-20T10:32:34Z</time>
      </trkpt>
      <trkpt lat="48.09225" lon="-0.24346">
        <ele>164</ele>
        <time>2018-05-20T10:32:53Z</time>
      </trkpt>
      <trkpt lat="48.09212" lon="-0.24344">
        <ele>165</ele>
        <time>2018-05-20T10:33:05Z</time>
      </trkpt>
      <trkpt lat="48.09202" lon="-0.24342">
        <ele>166</ele>
        <time>2018-05-20T10:33:17Z</time>
      </trkpt>
      <trkpt lat="48.09189" lon="-0.24339">
        <ele>167</ele>
        <time>2018-05-20T10:33:30Z</time>
      </trkpt>
      <trkpt lat="48.09183" lon="-0.24337">
        <ele>168</ele>
        <time>2018-05-20T10:33:36Z</time>
      </trkpt>
      <trkpt lat="48.09166" lon="-0.2433">
        <ele>172</ele>
        <time>2018-05-20T10:33:50Z</time>
      </trkpt>
      <trkpt lat="48.09148" lon="-0.24321">
        <ele>175</ele>
        <time>2018-05-20T10:34:06Z</time>
      </trkpt>
      <trkpt lat="48.09136" lon="-0.24315">
        <ele>177</ele>
        <time>2018-05-20T10:34:18Z</time>
      </trkpt>
      <trkpt lat="48.09125" lon="-0.24312">
        <ele>178</ele>
        <time>2018-05-20T10:34:27Z</time>
      </trkpt>
      <trkpt lat="48.09118" lon="-0.24307">
        <ele>179</ele>
        <time>2018-05-20T10:34:33Z</time>
      </trkpt>
      <trkpt lat="48.09106" lon="-0.24298">
        <ele>180</ele>
        <time>2018-05-20T10:34:48Z</time>
      </trkpt>
      <trkpt lat="48.09093" lon="-0.24301">
        <ele>180</ele>
        <time>2018-05-20T10:35:00Z</time>
      </trkpt>
      <trkpt lat="48.09089" lon="-0.24302">
        <ele>181</ele>
        <time>2018-05-20T10:35:03Z</time>
      </trkpt>
      <trkpt lat="48.09081" lon="-0.24296">
        <ele>190</ele>
        <time>2018-05-20T10:35:14Z</time>
      </trkpt>
      <trkpt lat="48.09078" lon="-0.24295">
        <ele>190</ele>
        <time>2018-05-20T10:35:16Z</time>
      </trkpt>
      <trkpt lat="48.09075" lon="-0.24294">
        <ele>191</ele>
        <time>2018-05-20T10:35:22Z</time>
      </trkpt>
      <trkpt lat="48.09068" lon="-0.24289">
        <ele>191</ele>
        <time>2018-05-20T10:35:37Z</time>
      </trkpt>
      <trkpt lat="48.09056" lon="-0.24278">
        <ele>192</ele>
        <time>2018-05-20T10:35:54Z</time>
      </trkpt>
      <trkpt lat="48.09047" lon="-0.2427">
        <ele>194</ele>
        <time>2018-05-20T10:36:09Z</time>
      </trkpt>
      <trkpt lat="48.09039" lon="-0.24262">
        <ele>195</ele>
        <time>2018-05-20T10:36:20Z</time>
      </trkpt>
      <trkpt lat="48.09034" lon="-0.24256">
        <ele>196</ele>
        <time>2018-05-20T10:36:33Z</time>
      </trkpt>
      <trkpt lat="48.09028" lon="-0.24256">
        <ele>197</ele>
        <time>2018-05-20T10:36:48Z</time>
      </trkpt>
      <trkpt lat="48.09018" lon="-0.24247">
        <ele>200</ele>
        <time>2018-05-20T10:37:01Z</time>
      </trkpt>
      <trkpt lat="48.09007" lon="-0.24237">
        <ele>201</ele>
        <time>2018-05-20T10:37:12Z</time>
      </trkpt>
      <trkpt lat="48.08999" lon="-0.2423">
        <ele>207</ele>
        <time>2018-05-20T10:37:22Z</time>
      </trkpt>
      <trkpt lat="48.08996" lon="-0.24221">
        <ele>207</ele>
        <time>2018-05-20T10:37:28Z</time>
      </trkpt>
      <trkpt lat="48.08987" lon="-0.24205">
        <ele>207</ele>
        <time>2018-05-20T10:37:37Z</time>
      </trkpt>
      <trkpt lat="48.08981" lon="-0.24194">
        <ele>207</ele>
        <time>2018-05-20T10:37:46Z</time>
      </trkpt>
      <trkpt lat="48.08978" lon="-0.24186">
        <ele>207</ele>
        <time>2018-05-20T10:37:52Z</time>
      </trkpt>
      <trkpt lat="48.08969" lon="-0.24172">
        <ele>207</ele>
        <time>2018-05-20T10:38:03Z</time>
      </trkpt>
      <trkpt lat="48.0896" lon="-0.24156">
        <ele>206</ele>
        <time>2018-05-20T10:38:15Z</time>
      </trkpt>
      <trkpt lat="48.08956" lon="-0.24151">
        <ele>206</ele>
        <time>2018-05-20T10:38:20Z</time>
      </trkpt>
      <trkpt lat="48.08951" lon="-0.24141">
        <ele>206</ele>
        <time>2018-05-20T10:38:27Z</time>
      </trkpt>
      <trkpt lat="48.08946" lon="-0.24138">
        <ele>206</ele>
        <time>2018-05-20T10:38:32Z</time>
      </trkpt>
      <trkpt lat="48.08943" lon="-0.24132">
        <ele>206</ele>
        <time>2018-05-20T10:38:39Z</time>
      </trkpt>
      <trkpt lat="48.0893" lon="-0.24118">
        <ele>206</ele>
        <time>2018-05-20T10:38:53Z</time>
      </trkpt>
      <trkpt lat="48.08917" lon="-0.24114">
        <ele>207</ele>
        <time>2018-05-20T10:39:04Z</time>
      </trkpt>
      <trkpt lat="48.0891" lon="-0.24109">
        <ele>214</ele>
        <time>2018-05-20T10:39:13Z</time>
      </trkpt>
      <trkpt lat="48.089" lon="-0.24102">
        <ele>214</ele>
        <time>2018-05-20T10:39:23Z</time>
      </trkpt>
      <trkpt lat="48.0889" lon="-0.241">
        <ele>215</ele>
        <time>2018-05-20T10:39:32Z</time>
      </trkpt>
      <trkpt lat="48.08881" lon="-0.24097">
        <ele>216</ele>
        <time>2018-05-20T10:39:40Z</time>
      </trkpt>
      <trkpt lat="48.08881" lon="-0.24097">
        <ele>216</ele>
        <time>2018-05-20T10:39:41Z</time>
      </trkpt>
      <trkpt lat="48.08869" lon="-0.24091">
        <ele>218</ele>
        <time>2018-05-20T10:39:52Z</time>
      </trkpt>
      <trkpt lat="48.08859" lon="-0.2409">
        <ele>219</ele>
        <time>2018-05-20T10:40:00Z</time>
      </trkpt>
      <trkpt lat="48.08857" lon="-0.24081">
        <ele>217</ele>
        <time>2018-05-20T10:40:06Z</time>
      </trkpt>
      <trkpt lat="48.08858" lon="-0.2409">
        <ele>219</ele>
        <time>2018-05-20T10:40:12Z</time>
      </trkpt>
      <trkpt lat="48.08857" lon="-0.24125">
        <ele>219</ele>
        <time>2018-05-20T10:40:25Z</time>
      </trkpt>
      <trkpt lat="48.08857" lon="-0.24145">
        <ele>219</ele>
        <time>2018-05-20T10:40:32Z</time>
      </trkpt>
      <trkpt lat="48.08854" lon="-0.2414">
        <ele>219</ele>
        <time>2018-05-20T10:40:36Z</time>
      </trkpt>
      <trkpt lat="48.08853" lon="-0.24136">
        <ele>219</ele>
        <time>2018-05-20T10:40:38Z</time>
      </trkpt>
      <trkpt lat="48.08852" lon="-0.24101">
        <ele>219</ele>
        <time>2018-05-20T10:40:52Z</time>
      </trkpt>
      <trkpt lat="48.08852" lon="-0.24096">
        <ele>219</ele>
        <time>2018-05-20T10:40:54Z</time>
      </trkpt>
      <trkpt lat="48.08854" lon="-0.24087">
        <ele>219</ele>
        <time>2018-05-20T10:41:02Z</time>
      </trkpt>
      <trkpt lat="48.08854" lon="-0.24085">
        <ele>219</ele>
        <time>2018-05-20T10:41:12Z</time>
      </trkpt>
      <trkpt lat="48.08853" lon="-0.24083">
        <ele>220</ele>
        <time>2018-05-20T10:42:17Z</time>
      </trkpt>
      <trkpt lat="48.08853" lon="-0.24084">
        <ele>220</ele>
        <time>2018-05-20T10:44:14Z</time>
      </trkpt>
      <trkpt lat="48.08853" lon="-0.24084">
        <ele>220</ele>
        <time>2018-05-20T10:47:09Z</time>
      </trkpt>
      <trkpt lat="48.08853" lon="-0.24084">
        <ele>220</ele>
        <time>2018-05-20T10:48:10Z</time>
      </trkpt>
      <trkpt lat="48.08856" lon="-0.24085">
        <ele>219</ele>
        <time>2018-05-20T10:49:27Z</time>
      </trkpt>
      <trkpt lat="48.08856" lon="-0.24088">
        <ele>219</ele>
        <time>2018-05-20T10:49:32Z</time>
      </trkpt>
      <trkpt lat="48.08857" lon="-0.2411">
        <ele>219</ele>
        <time>2018-05-20T10:49:40Z</time>
      </trkpt>
      <trkpt lat="48.0886" lon="-0.24158">
        <ele>220</ele>
        <time>2018-05-20T10:49:49Z</time>
      </trkpt>
      <trkpt lat="48.08861" lon="-0.24206">
        <ele>220</ele>
        <time>2018-05-20T10:49:59Z</time>
      </trkpt>
      <trkpt lat="48.08861" lon="-0.24246">
        <ele>220</ele>
        <time>2018-05-20T10:50:05Z</time>
      </trkpt>
      <trkpt lat="48.08864" lon="-0.24268">
        <ele>217</ele>
        <time>2018-05-20T10:50:08Z</time>
      </trkpt>
      <trkpt lat="48.08868" lon="-0.24348">
        <ele>209</ele>
        <time>2018-05-20T10:50:19Z</time>
      </trkpt>
      <trkpt lat="48.0888" lon="-0.24425">
        <ele>203</ele>
        <time>2018-05-20T10:50:30Z</time>
      </trkpt>
      <trkpt lat="48.08903" lon="-0.24538">
        <ele>203</ele>
        <time>2018-05-20T10:50:43Z</time>
      </trkpt>
      <trkpt lat="48.08926" lon="-0.24627">
        <ele>199</ele>
        <time>2018-05-20T10:50:54Z</time>
      </trkpt>
      <trkpt lat="48.08933" lon="-0.24661">
        <ele>202</ele>
        <time>2018-05-20T10:51:02Z</time>
      </trkpt>
      <trkpt lat="48.08936" lon="-0.24691">
        <ele>204</ele>
        <time>2018-05-20T10:51:08Z</time>
      </trkpt>
      <trkpt lat="48.08933" lon="-0.24732">
        <ele>205</ele>
        <time>2018-05-20T10:51:19Z</time>
      </trkpt>
      <trkpt lat="48.08931" lon="-0.2476">
        <ele>208</ele>
        <time>2018-05-20T10:51:28Z</time>
      </trkpt>
      <trkpt lat="48.08935" lon="-0.24789">
        <ele>207</ele>
        <time>2018-05-20T10:51:35Z</time>
      </trkpt>
      <trkpt lat="48.08935" lon="-0.24812">
        <ele>208</ele>
        <time>2018-05-20T10:51:40Z</time>
      </trkpt>
      <trkpt lat="48.08931" lon="-0.24837">
        <ele>211</ele>
        <time>2018-05-20T10:51:47Z</time>
      </trkpt>
      <trkpt lat="48.08923" lon="-0.24874">
        <ele>210</ele>
        <time>2018-05-20T10:51:59Z</time>
      </trkpt>
      <trkpt lat="48.08918" lon="-0.24899">
        <ele>212</ele>
        <time>2018-05-20T10:52:12Z</time>
      </trkpt>
      <trkpt lat="48.08917" lon="-0.24901">
        <ele>212</ele>
        <time>2018-05-20T10:52:13Z</time>
      </trkpt>
      <trkpt lat="48.08912" lon="-0.24924">
        <ele>217</ele>
        <time>2018-05-20T10:52:21Z</time>
      </trkpt>
      <trkpt lat="48.08911" lon="-0.2494">
        <ele>218</ele>
        <time>2018-05-20T10:52:27Z</time>
      </trkpt>
      <trkpt lat="48.08909" lon="-0.24951">
        <ele>219</ele>
        <time>2018-05-20T10:52:31Z</time>
      </trkpt>
      <trkpt lat="48.0891" lon="-0.24969">
        <ele>219</ele>
        <time>2018-05-20T10:52:36Z</time>
      </trkpt>
      <trkpt lat="48.08911" lon="-0.24978">
        <ele>218</ele>
        <time>2018-05-20T10:52:39Z</time>
      </trkpt>
      <trkpt lat="48.0891" lon="-0.2501">
        <ele>218</ele>
        <time>2018-05-20T10:52:49Z</time>
      </trkpt>
      <trkpt lat="48.08907" lon="-0.25046">
        <ele>219</ele>
        <time>2018-05-20T10:52:58Z</time>
      </trkpt>
      <trkpt lat="48.08906" lon="-0.25061">
        <ele>218</ele>
        <time>2018-05-20T10:53:01Z</time>
      </trkpt>
      <trkpt lat="48.08903" lon="-0.25092">
        <ele>218</ele>
        <time>2018-05-20T10:53:09Z</time>
      </trkpt>
      <trkpt lat="48.08903" lon="-0.25125">
        <ele>218</ele>
        <time>2018-05-20T10:53:17Z</time>
      </trkpt>
      <trkpt lat="48.08892" lon="-0.25164">
        <ele>218</ele>
        <time>2018-05-20T10:53:25Z</time>
      </trkpt>
      <trkpt lat="48.08883" lon="-0.25196">
        <ele>215</ele>
        <time>2018-05-20T10:53:33Z</time>
      </trkpt>
      <trkpt lat="48.08879" lon="-0.25203">
        <ele>215</ele>
        <time>2018-05-20T10:53:35Z</time>
      </trkpt>
      <trkpt lat="48.08861" lon="-0.25219">
        <ele>215</ele>
        <time>2018-05-20T10:53:44Z</time>
      </trkpt>
      <trkpt lat="48.0886" lon="-0.25221">
        <ele>215</ele>
        <time>2018-05-20T10:53:45Z</time>
      </trkpt>
      <trkpt lat="48.08842" lon="-0.25238">
        <ele>215</ele>
        <time>2018-05-20T10:53:57Z</time>
      </trkpt>
      <trkpt lat="48.08822" lon="-0.25246">
        <ele>219</ele>
        <time>2018-05-20T10:54:06Z</time>
      </trkpt>
      <trkpt lat="48.08807" lon="-0.25256">
        <ele>217</ele>
        <time>2018-05-20T10:54:16Z</time>
      </trkpt>
      <trkpt lat="48.08802" lon="-0.25276">
        <ele>217</ele>
        <time>2018-05-20T10:54:25Z</time>
      </trkpt>
      <trkpt lat="48.08804" lon="-0.25309">
        <ele>216</ele>
        <time>2018-05-20T10:54:34Z</time>
      </trkpt>
      <trkpt lat="48.08823" lon="-0.25365">
        <ele>212</ele>
        <time>2018-05-20T10:54:45Z</time>
      </trkpt>
      <trkpt lat="48.08828" lon="-0.25409">
        <ele>210</ele>
        <time>2018-05-20T10:54:54Z</time>
      </trkpt>
      <trkpt lat="48.08833" lon="-0.25439">
        <ele>212</ele>
        <time>2018-05-20T10:55:00Z</time>
      </trkpt>
      <trkpt lat="48.08839" lon="-0.25499">
        <ele>209</ele>
        <time>2018-05-20T10:55:11Z</time>
      </trkpt>
      <trkpt lat="48.08842" lon="-0.25531">
        <ele>208</ele>
        <time>2018-05-20T10:55:17Z</time>
      </trkpt>
      <trkpt lat="48.08845" lon="-0.25596">
        <ele>211</ele>
        <time>2018-05-20T10:55:29Z</time>
      </trkpt>
      <trkpt lat="48.08843" lon="-0.25664">
        <ele>212</ele>
        <time>2018-05-20T10:55:45Z</time>
      </trkpt>
      <trkpt lat="48.08841" lon="-0.25697">
        <ele>212</ele>
        <time>2018-05-20T10:55:58Z</time>
      </trkpt>
      <trkpt lat="48.08839" lon="-0.25704">
        <ele>211</ele>
        <time>2018-05-20T10:57:13Z</time>
      </trkpt>
      <trkpt lat="48.08838" lon="-0.25703">
        <ele>211</ele>
        <time>2018-05-20T10:57:32Z</time>
      </trkpt>
      <trkpt lat="48.08839" lon="-0.25704">
        <ele>211</ele>
        <time>2018-05-20T10:58:47Z</time>
      </trkpt>
      <trkpt lat="48.08838" lon="-0.25738">
        <ele>212</ele>
        <time>2018-05-20T10:58:57Z</time>
      </trkpt>
      <trkpt lat="48.08824" lon="-0.25763">
        <ele>217</ele>
        <time>2018-05-20T10:59:08Z</time>
      </trkpt>
      <trkpt lat="48.08822" lon="-0.25763">
        <ele>218</ele>
        <time>2018-05-20T10:59:16Z</time>
      </trkpt>
      <trkpt lat="48.08818" lon="-0.25764">
        <ele>218</ele>
        <time>2018-05-20T10:59:29Z</time>
      </trkpt>
      <trkpt lat="48.08817" lon="-0.25766">
        <ele>219</ele>
        <time>2018-05-20T10:59:39Z</time>
      </trkpt>
      <trkpt lat="48.08816" lon="-0.25762">
        <ele>218</ele>
        <time>2018-05-20T11:53:43Z</time>
      </trkpt>
      <trkpt lat="48.08817" lon="-0.25762">
        <ele>218</ele>
        <time>2018-05-20T11:53:54Z</time>
      </trkpt>
      <trkpt lat="48.08825" lon="-0.25756">
        <ele>216</ele>
        <time>2018-05-20T11:53:59Z</time>
      </trkpt>
      <trkpt lat="48.0883" lon="-0.25747">
        <ele>214</ele>
        <time>2018-05-20T11:54:03Z</time>
      </trkpt>
      <trkpt lat="48.08832" lon="-0.2576">
        <ele>216</ele>
        <time>2018-05-20T11:54:10Z</time>
      </trkpt>
      <trkpt lat="48.08829" lon="-0.25763">
        <ele>217</ele>
        <time>2018-05-20T11:54:13Z</time>
      </trkpt>
      <trkpt lat="48.08814" lon="-0.25781">
        <ele>220</ele>
        <time>2018-05-20T11:54:30Z</time>
      </trkpt>
      <trkpt lat="48.08812" lon="-0.25785">
        <ele>220</ele>
        <time>2018-05-20T11:54:32Z</time>
      </trkpt>
      <trkpt lat="48.08803" lon="-0.25817">
        <ele>221</ele>
        <time>2018-05-20T11:54:46Z</time>
      </trkpt>
      <trkpt lat="48.08801" lon="-0.25824">
        <ele>221</ele>
        <time>2018-05-20T11:54:49Z</time>
      </trkpt>
      <trkpt lat="48.08796" lon="-0.25851">
        <ele>222</ele>
        <time>2018-05-20T11:55:00Z</time>
      </trkpt>
      <trkpt lat="48.08789" lon="-0.2591">
        <ele>224</ele>
        <time>2018-05-20T11:55:22Z</time>
      </trkpt>
      <trkpt lat="48.08781" lon="-0.25951">
        <ele>224</ele>
        <time>2018-05-20T11:55:38Z</time>
      </trkpt>
      <trkpt lat="48.08772" lon="-0.2601">
        <ele>226</ele>
        <time>2018-05-20T11:55:58Z</time>
      </trkpt>
      <trkpt lat="48.08772" lon="-0.26059">
        <ele>225</ele>
        <time>2018-05-20T11:56:16Z</time>
      </trkpt>
      <trkpt lat="48.08774" lon="-0.26127">
        <ele>226</ele>
        <time>2018-05-20T11:56:41Z</time>
      </trkpt>
      <trkpt lat="48.08777" lon="-0.26165">
        <ele>227</ele>
        <time>2018-05-20T11:56:54Z</time>
      </trkpt>
      <trkpt lat="48.08782" lon="-0.26216">
        <ele>229</ele>
        <time>2018-05-20T11:57:11Z</time>
      </trkpt>
      <trkpt lat="48.08788" lon="-0.26286">
        <ele>232</ele>
        <time>2018-05-20T11:57:33Z</time>
      </trkpt>
      <trkpt lat="48.0879" lon="-0.26341">
        <ele>235</ele>
        <time>2018-05-20T11:57:49Z</time>
      </trkpt>
      <trkpt lat="48.08793" lon="-0.26389">
        <ele>235</ele>
        <time>2018-05-20T11:58:01Z</time>
      </trkpt>
      <trkpt lat="48.0879" lon="-0.26406">
        <ele>235</ele>
        <time>2018-05-20T11:58:05Z</time>
      </trkpt>
      <trkpt lat="48.08789" lon="-0.26429">
        <ele>235</ele>
        <time>2018-05-20T11:58:09Z</time>
      </trkpt>
      <trkpt lat="48.08792" lon="-0.2649">
        <ele>234</ele>
        <time>2018-05-20T11:58:20Z</time>
      </trkpt>
      <trkpt lat="48.08802" lon="-0.26541">
        <ele>229</ele>
        <time>2018-05-20T11:58:29Z</time>
      </trkpt>
      <trkpt lat="48.08799" lon="-0.26591">
        <ele>227</ele>
        <time>2018-05-20T11:58:41Z</time>
      </trkpt>
      <trkpt lat="48.08796" lon="-0.26638">
        <ele>227</ele>
        <time>2018-05-20T11:58:51Z</time>
      </trkpt>
      <trkpt lat="48.08793" lon="-0.26715">
        <ele>225</ele>
        <time>2018-05-20T11:59:04Z</time>
      </trkpt>
      <trkpt lat="48.08787" lon="-0.26849">
        <ele>222</ele>
        <time>2018-05-20T11:59:22Z</time>
      </trkpt>
      <trkpt lat="48.0878" lon="-0.26993">
        <ele>220</ele>
        <time>2018-05-20T11:59:39Z</time>
      </trkpt>
      <trkpt lat="48.08775" lon="-0.27117">
        <ele>219</ele>
        <time>2018-05-20T11:59:53Z</time>
      </trkpt>
      <trkpt lat="48.08769" lon="-0.27224">
        <ele>218</ele>
        <time>2018-05-20T12:00:09Z</time>
      </trkpt>
      <trkpt lat="48.08762" lon="-0.27351">
        <ele>217</ele>
        <time>2018-05-20T12:00:27Z</time>
      </trkpt>
      <trkpt lat="48.08756" lon="-0.27487">
        <ele>218</ele>
        <time>2018-05-20T12:00:48Z</time>
      </trkpt>
      <trkpt lat="48.08762" lon="-0.27596">
        <ele>214</ele>
        <time>2018-05-20T12:01:03Z</time>
      </trkpt>
      <trkpt lat="48.08771" lon="-0.27707">
        <ele>209</ele>
        <time>2018-05-20T12:01:12Z</time>
      </trkpt>
      <trkpt lat="48.08783" lon="-0.27825">
        <ele>208</ele>
        <time>2018-05-20T12:01:22Z</time>
      </trkpt>
      <trkpt lat="48.08786" lon="-0.27849">
        <ele>207</ele>
        <time>2018-05-20T12:01:28Z</time>
      </trkpt>
      <trkpt lat="48.08791" lon="-0.279">
        <ele>206</ele>
        <time>2018-05-20T12:01:41Z</time>
      </trkpt>
      <trkpt lat="48.08793" lon="-0.27914">
        <ele>206</ele>
        <time>2018-05-20T12:01:46Z</time>
      </trkpt>
      <trkpt lat="48.08793" lon="-0.27943">
        <ele>206</ele>
        <time>2018-05-20T12:01:59Z</time>
      </trkpt>
      <trkpt lat="48.08797" lon="-0.27978">
        <ele>205</ele>
        <time>2018-05-20T12:02:11Z</time>
      </trkpt>
      <trkpt lat="48.08798" lon="-0.28008">
        <ele>204</ele>
        <time>2018-05-20T12:02:22Z</time>
      </trkpt>
      <trkpt lat="48.08798" lon="-0.28008">
        <ele>204</ele>
        <time>2018-05-20T12:03:00Z</time>
      </trkpt>
      <trkpt lat="48.08799" lon="-0.28012">
        <ele>204</ele>
        <time>2018-05-20T12:03:02Z</time>
      </trkpt>
      <trkpt lat="48.08796" lon="-0.28012">
        <ele>204</ele>
        <time>2018-05-20T12:03:06Z</time>
      </trkpt>
      <trkpt lat="48.08792" lon="-0.27967">
        <ele>206</ele>
        <time>2018-05-20T12:03:19Z</time>
      </trkpt>
      <trkpt lat="48.08785" lon="-0.27921">
        <ele>207</ele>
        <time>2018-05-20T12:03:32Z</time>
      </trkpt>
      <trkpt lat="48.0878" lon="-0.27865">
        <ele>207</ele>
        <time>2018-05-20T12:03:45Z</time>
      </trkpt>
      <trkpt lat="48.08775" lon="-0.27835">
        <ele>208</ele>
        <time>2018-05-20T12:03:57Z</time>
      </trkpt>
      <trkpt lat="48.08775" lon="-0.27834">
        <ele>208</ele>
        <time>2018-05-20T12:04:01Z</time>
      </trkpt>
      <trkpt lat="48.08771" lon="-0.27802">
        <ele>208</ele>
        <time>2018-05-20T12:04:10Z</time>
      </trkpt>
      <trkpt lat="48.08771" lon="-0.27785">
        <ele>208</ele>
        <time>2018-05-20T12:04:14Z</time>
      </trkpt>
      <trkpt lat="48.08774" lon="-0.27789">
        <ele>208</ele>
        <time>2018-05-20T12:04:18Z</time>
      </trkpt>
      <trkpt lat="48.08774" lon="-0.2784">
        <ele>208</ele>
        <time>2018-05-20T12:04:29Z</time>
      </trkpt>
      <trkpt lat="48.08765" lon="-0.27845">
        <ele>209</ele>
        <time>2018-05-20T12:04:34Z</time>
      </trkpt>
      <trkpt lat="48.08762" lon="-0.27848">
        <ele>209</ele>
        <time>2018-05-20T12:04:38Z</time>
      </trkpt>
      <trkpt lat="48.08759" lon="-0.27844">
        <ele>210</ele>
        <time>2018-05-20T12:04:47Z</time>
      </trkpt>
      <trkpt lat="48.08752" lon="-0.2784">
        <ele>211</ele>
        <time>2018-05-20T12:04:58Z</time>
      </trkpt>
      <trkpt lat="48.08751" lon="-0.27841">
        <ele>211</ele>
        <time>2018-05-20T12:05:21Z</time>
      </trkpt>
      <trkpt lat="48.08742" lon="-0.27837">
        <ele>214</ele>
        <time>2018-05-20T12:05:44Z</time>
      </trkpt>
      <trkpt lat="48.08729" lon="-0.27833">
        <ele>216</ele>
        <time>2018-05-20T12:05:58Z</time>
      </trkpt>
      <trkpt lat="48.08719" lon="-0.27833">
        <ele>217</ele>
        <time>2018-05-20T12:06:12Z</time>
      </trkpt>
      <trkpt lat="48.08713" lon="-0.2783">
        <ele>218</ele>
        <time>2018-05-20T12:06:24Z</time>
      </trkpt>
      <trkpt lat="48.08706" lon="-0.27829">
        <ele>219</ele>
        <time>2018-05-20T12:06:36Z</time>
      </trkpt>
      <trkpt lat="48.08697" lon="-0.27828">
        <ele>220</ele>
        <time>2018-05-20T12:06:48Z</time>
      </trkpt>
      <trkpt lat="48.08691" lon="-0.27826">
        <ele>221</ele>
        <time>2018-05-20T12:07:00Z</time>
      </trkpt>
      <trkpt lat="48.08685" lon="-0.27826">
        <ele>222</ele>
        <time>2018-05-20T12:07:16Z</time>
      </trkpt>
      <trkpt lat="48.0868" lon="-0.27825">
        <ele>222</ele>
        <time>2018-05-20T12:07:26Z</time>
      </trkpt>
      <trkpt lat="48.0867" lon="-0.27822">
        <ele>223</ele>
        <time>2018-05-20T12:07:41Z</time>
      </trkpt>
      <trkpt lat="48.08662" lon="-0.2782">
        <ele>229</ele>
        <time>2018-05-20T12:07:54Z</time>
      </trkpt>
      <trkpt lat="48.08651" lon="-0.27823">
        <ele>231</ele>
        <time>2018-05-20T12:08:10Z</time>
      </trkpt>
      <trkpt lat="48.08645" lon="-0.27824">
        <ele>232</ele>
        <time>2018-05-20T12:08:28Z</time>
      </trkpt>
      <trkpt lat="48.08643" lon="-0.27824">
        <ele>232</ele>
        <time>2018-05-20T12:09:23Z</time>
      </trkpt>
      <trkpt lat="48.08643" lon="-0.27823">
        <ele>232</ele>
        <time>2018-05-20T12:10:43Z</time>
      </trkpt>
      <trkpt lat="48.08643" lon="-0.27826">
        <ele>232</ele>
        <time>2018-05-20T12:11:16Z</time>
      </trkpt>
      <trkpt lat="48.08643" lon="-0.27828">
        <ele>232</ele>
        <time>2018-05-20T12:11:19Z</time>
      </trkpt>
      <trkpt lat="48.08642" lon="-0.27832">
        <ele>232</ele>
        <time>2018-05-20T12:11:21Z</time>
      </trkpt>
      <trkpt lat="48.08641" lon="-0.27843">
        <ele>233</ele>
        <time>2018-05-20T12:11:25Z</time>
      </trkpt>
      <trkpt lat="48.08638" lon="-0.27869">
        <ele>234</ele>
        <time>2018-05-20T12:11:33Z</time>
      </trkpt>
      <trkpt lat="48.08628" lon="-0.27897">
        <ele>235</ele>
        <time>2018-05-20T12:11:41Z</time>
      </trkpt>
      <trkpt lat="48.08627" lon="-0.279">
        <ele>235</ele>
        <time>2018-05-20T12:11:42Z</time>
      </trkpt>
      <trkpt lat="48.08626" lon="-0.27909">
        <ele>236</ele>
        <time>2018-05-20T12:11:44Z</time>
      </trkpt>
      <trkpt lat="48.08619" lon="-0.27924">
        <ele>236</ele>
        <time>2018-05-20T12:11:49Z</time>
      </trkpt>
      <trkpt lat="48.08618" lon="-0.27938">
        <ele>236</ele>
        <time>2018-05-20T12:11:52Z</time>
      </trkpt>
      <trkpt lat="48.08614" lon="-0.27949">
        <ele>236</ele>
        <time>2018-05-20T12:11:57Z</time>
      </trkpt>
      <trkpt lat="48.08614" lon="-0.27956">
        <ele>236</ele>
        <time>2018-05-20T12:11:59Z</time>
      </trkpt>
      <trkpt lat="48.08611" lon="-0.27967">
        <ele>236</ele>
        <time>2018-05-20T12:12:04Z</time>
      </trkpt>
      <trkpt lat="48.08609" lon="-0.27979">
        <ele>237</ele>
        <time>2018-05-20T12:12:13Z</time>
      </trkpt>
      <trkpt lat="48.08607" lon="-0.27984">
        <ele>237</ele>
        <time>2018-05-20T12:12:18Z</time>
      </trkpt>
      <trkpt lat="48.08604" lon="-0.2802">
        <ele>236</ele>
        <time>2018-05-20T12:12:29Z</time>
      </trkpt>
      <trkpt lat="48.086" lon="-0.28039">
        <ele>235</ele>
        <time>2018-05-20T12:12:34Z</time>
      </trkpt>
      <trkpt lat="48.08591" lon="-0.28052">
        <ele>236</ele>
        <time>2018-05-20T12:12:38Z</time>
      </trkpt>
      <trkpt lat="48.08585" lon="-0.28061">
        <ele>237</ele>
        <time>2018-05-20T12:12:41Z</time>
      </trkpt>
      <trkpt lat="48.08584" lon="-0.2808">
        <ele>240</ele>
        <time>2018-05-20T12:12:46Z</time>
      </trkpt>
      <trkpt lat="48.08584" lon="-0.28087">
        <ele>239</ele>
        <time>2018-05-20T12:12:49Z</time>
      </trkpt>
      <trkpt lat="48.08578" lon="-0.28131">
        <ele>244</ele>
        <time>2018-05-20T12:13:01Z</time>
      </trkpt>
      <trkpt lat="48.08579" lon="-0.28177">
        <ele>239</ele>
        <time>2018-05-20T12:13:10Z</time>
      </trkpt>
      <trkpt lat="48.08581" lon="-0.28199">
        <ele>241</ele>
        <time>2018-05-20T12:13:22Z</time>
      </trkpt>
      <trkpt lat="48.08578" lon="-0.28205">
        <ele>241</ele>
        <time>2018-05-20T12:13:24Z</time>
      </trkpt>
      <trkpt lat="48.08574" lon="-0.28225">
        <ele>240</ele>
        <time>2018-05-20T12:13:30Z</time>
      </trkpt>
      <trkpt lat="48.08571" lon="-0.28245">
        <ele>238</ele>
        <time>2018-05-20T12:13:35Z</time>
      </trkpt>
      <trkpt lat="48.08578" lon="-0.28281">
        <ele>238</ele>
        <time>2018-05-20T12:13:45Z</time>
      </trkpt>
      <trkpt lat="48.08571" lon="-0.28321">
        <ele>235</ele>
        <time>2018-05-20T12:13:57Z</time>
      </trkpt>
      <trkpt lat="48.08569" lon="-0.28331">
        <ele>234</ele>
        <time>2018-05-20T12:14:00Z</time>
      </trkpt>
      <trkpt lat="48.08569" lon="-0.28367">
        <ele>235</ele>
        <time>2018-05-20T12:14:09Z</time>
      </trkpt>
      <trkpt lat="48.08566" lon="-0.28374">
        <ele>235</ele>
        <time>2018-05-20T12:14:12Z</time>
      </trkpt>
      <trkpt lat="48.0856" lon="-0.28396">
        <ele>234</ele>
        <time>2018-05-20T12:14:19Z</time>
      </trkpt>
      <trkpt lat="48.08552" lon="-0.28421">
        <ele>234</ele>
        <time>2018-05-20T12:14:25Z</time>
      </trkpt>
      <trkpt lat="48.08544" lon="-0.28447">
        <ele>236</ele>
        <time>2018-05-20T12:14:36Z</time>
      </trkpt>
      <trkpt lat="48.08539" lon="-0.28478">
        <ele>236</ele>
        <time>2018-05-20T12:14:47Z</time>
      </trkpt>
      <trkpt lat="48.08538" lon="-0.2848">
        <ele>237</ele>
        <time>2018-05-20T12:14:48Z</time>
      </trkpt>
      <trkpt lat="48.08535" lon="-0.28488">
        <ele>237</ele>
        <time>2018-05-20T12:14:53Z</time>
      </trkpt>
      <trkpt lat="48.08533" lon="-0.28507">
        <ele>238</ele>
        <time>2018-05-20T12:15:01Z</time>
      </trkpt>
      <trkpt lat="48.08529" lon="-0.28528">
        <ele>238</ele>
        <time>2018-05-20T12:15:08Z</time>
      </trkpt>
      <trkpt lat="48.08528" lon="-0.28541">
        <ele>238</ele>
        <time>2018-05-20T12:15:13Z</time>
      </trkpt>
      <trkpt lat="48.08527" lon="-0.2856">
        <ele>238</ele>
        <time>2018-05-20T12:15:20Z</time>
      </trkpt>
      <trkpt lat="48.08528" lon="-0.2858">
        <ele>238</ele>
        <time>2018-05-20T12:15:29Z</time>
      </trkpt>
      <trkpt lat="48.08523" lon="-0.28591">
        <ele>238</ele>
        <time>2018-05-20T12:15:35Z</time>
      </trkpt>
      <trkpt lat="48.0851" lon="-0.28609">
        <ele>238</ele>
        <time>2018-05-20T12:15:47Z</time>
      </trkpt>
      <trkpt lat="48.08502" lon="-0.28618">
        <ele>238</ele>
        <time>2018-05-20T12:16:07Z</time>
      </trkpt>
      <trkpt lat="48.08502" lon="-0.28618">
        <ele>238</ele>
        <time>2018-05-20T12:16:10Z</time>
      </trkpt>
      <trkpt lat="48.08502" lon="-0.28621">
        <ele>238</ele>
        <time>2018-05-20T12:16:12Z</time>
      </trkpt>
      <trkpt lat="48.08487" lon="-0.28644">
        <ele>246</ele>
        <time>2018-05-20T12:16:23Z</time>
      </trkpt>
      <trkpt lat="48.08485" lon="-0.28649">
        <ele>246</ele>
        <time>2018-05-20T12:16:25Z</time>
      </trkpt>
      <trkpt lat="48.0847" lon="-0.28684">
        <ele>245</ele>
        <time>2018-05-20T12:16:39Z</time>
      </trkpt>
      <trkpt lat="48.08466" lon="-0.28688">
        <ele>245</ele>
        <time>2018-05-20T12:16:41Z</time>
      </trkpt>
      <trkpt lat="48.08463" lon="-0.28706">
        <ele>245</ele>
        <time>2018-05-20T12:16:45Z</time>
      </trkpt>
      <trkpt lat="48.08455" lon="-0.2873">
        <ele>245</ele>
        <time>2018-05-20T12:16:51Z</time>
      </trkpt>
      <trkpt lat="48.08431" lon="-0.28772">
        <ele>244</ele>
        <time>2018-05-20T12:17:04Z</time>
      </trkpt>
      <trkpt lat="48.08399" lon="-0.28838">
        <ele>242</ele>
        <time>2018-05-20T12:17:19Z</time>
      </trkpt>
      <trkpt lat="48.08358" lon="-0.28924">
        <ele>237</ele>
        <time>2018-05-20T12:17:34Z</time>
      </trkpt>
      <trkpt lat="48.0833" lon="-0.28991">
        <ele>231</ele>
        <time>2018-05-20T12:17:43Z</time>
      </trkpt>
      <trkpt lat="48.08327" lon="-0.29009">
        <ele>229</ele>
        <time>2018-05-20T12:17:49Z</time>
      </trkpt>
      <trkpt lat="48.08326" lon="-0.29009">
        <ele>229</ele>
        <time>2018-05-20T12:18:25Z</time>
      </trkpt>
      <trkpt lat="48.08324" lon="-0.28998">
        <ele>230</ele>
        <time>2018-05-20T12:18:29Z</time>
      </trkpt>
      <trkpt lat="48.08341" lon="-0.28953">
        <ele>235</ele>
        <time>2018-05-20T12:18:42Z</time>
      </trkpt>
      <trkpt lat="48.08362" lon="-0.28906">
        <ele>242</ele>
        <time>2018-05-20T12:18:58Z</time>
      </trkpt>
      <trkpt lat="48.08377" lon="-0.28874">
        <ele>242</ele>
        <time>2018-05-20T12:19:09Z</time>
      </trkpt>
      <trkpt lat="48.08404" lon="-0.28823">
        <ele>246</ele>
        <time>2018-05-20T12:19:25Z</time>
      </trkpt>
      <trkpt lat="48.08432" lon="-0.28767">
        <ele>244</ele>
        <time>2018-05-20T12:19:40Z</time>
      </trkpt>
      <trkpt lat="48.08458" lon="-0.28724">
        <ele>245</ele>
        <time>2018-05-20T12:19:54Z</time>
      </trkpt>
      <trkpt lat="48.08474" lon="-0.28699">
        <ele>244</ele>
        <time>2018-05-20T12:20:03Z</time>
      </trkpt>
      <trkpt lat="48.08505" lon="-0.28659">
        <ele>238</ele>
        <time>2018-05-20T12:20:15Z</time>
      </trkpt>
      <trkpt lat="48.0853" lon="-0.28667">
        <ele>234</ele>
        <time>2018-05-20T12:20:22Z</time>
      </trkpt>
      <trkpt lat="48.08552" lon="-0.2868">
        <ele>231</ele>
        <time>2018-05-20T12:20:26Z</time>
      </trkpt>
      <trkpt lat="48.0857" lon="-0.28679">
        <ele>229</ele>
        <time>2018-05-20T12:20:31Z</time>
      </trkpt>
      <trkpt lat="48.08594" lon="-0.28634">
        <ele>223</ele>
        <time>2018-05-20T12:20:41Z</time>
      </trkpt>
      <trkpt lat="48.08608" lon="-0.28603">
        <ele>222</ele>
        <time>2018-05-20T12:20:49Z</time>
      </trkpt>
      <trkpt lat="48.08613" lon="-0.28572">
        <ele>222</ele>
        <time>2018-05-20T12:20:54Z</time>
      </trkpt>
      <trkpt lat="48.08625" lon="-0.2855">
        <ele>221</ele>
        <time>2018-05-20T12:20:59Z</time>
      </trkpt>
      <trkpt lat="48.08632" lon="-0.28534">
        <ele>220</ele>
        <time>2018-05-20T12:21:03Z</time>
      </trkpt>
      <trkpt lat="48.0865" lon="-0.28505">
        <ele>218</ele>
        <time>2018-05-20T12:21:12Z</time>
      </trkpt>
      <trkpt lat="48.08681" lon="-0.28489">
        <ele>213</ele>
        <time>2018-05-20T12:21:18Z</time>
      </trkpt>
      <trkpt lat="48.08712" lon="-0.2848">
        <ele>212</ele>
        <time>2018-05-20T12:21:25Z</time>
      </trkpt>
      <trkpt lat="48.08731" lon="-0.2848">
        <ele>211</ele>
        <time>2018-05-20T12:21:31Z</time>
      </trkpt>
      <trkpt lat="48.08762" lon="-0.28483">
        <ele>207</ele>
        <time>2018-05-20T12:21:39Z</time>
      </trkpt>
      <trkpt lat="48.08786" lon="-0.28492">
        <ele>205</ele>
        <time>2018-05-20T12:21:46Z</time>
      </trkpt>
      <trkpt lat="48.088" lon="-0.28525">
        <ele>203</ele>
        <time>2018-05-20T12:21:51Z</time>
      </trkpt>
      <trkpt lat="48.08806" lon="-0.2854">
        <ele>203</ele>
        <time>2018-05-20T12:21:54Z</time>
      </trkpt>
      <trkpt lat="48.08807" lon="-0.28561">
        <ele>202</ele>
        <time>2018-05-20T12:21:58Z</time>
      </trkpt>
      <trkpt lat="48.08798" lon="-0.28619">
        <ele>201</ele>
        <time>2018-05-20T12:22:08Z</time>
      </trkpt>
      <trkpt lat="48.08783" lon="-0.28702">
        <ele>201</ele>
        <time>2018-05-20T12:22:22Z</time>
      </trkpt>
      <trkpt lat="48.08783" lon="-0.28713">
        <ele>201</ele>
        <time>2018-05-20T12:22:29Z</time>
      </trkpt>
      <trkpt lat="48.08783" lon="-0.28713">
        <ele>201</ele>
        <time>2018-05-20T12:25:28Z</time>
      </trkpt>
      <trkpt lat="48.0878" lon="-0.28722">
        <ele>201</ele>
        <time>2018-05-20T12:25:33Z</time>
      </trkpt>
      <trkpt lat="48.08764" lon="-0.28782">
        <ele>202</ele>
        <time>2018-05-20T12:25:45Z</time>
      </trkpt>
      <trkpt lat="48.08757" lon="-0.28805">
        <ele>202</ele>
        <time>2018-05-20T12:25:49Z</time>
      </trkpt>
      <trkpt lat="48.08746" lon="-0.2887">
        <ele>209</ele>
        <time>2018-05-20T12:26:01Z</time>
      </trkpt>
      <trkpt lat="48.08752" lon="-0.28917">
        <ele>206</ele>
        <time>2018-05-20T12:26:13Z</time>
      </trkpt>
      <trkpt lat="48.08756" lon="-0.28964">
        <ele>205</ele>
        <time>2018-05-20T12:26:23Z</time>
      </trkpt>
      <trkpt lat="48.08757" lon="-0.29027">
        <ele>207</ele>
        <time>2018-05-20T12:26:38Z</time>
      </trkpt>
      <trkpt lat="48.08751" lon="-0.29059">
        <ele>207</ele>
        <time>2018-05-20T12:26:47Z</time>
      </trkpt>
      <trkpt lat="48.08752" lon="-0.29102">
        <ele>209</ele>
        <time>2018-05-20T12:26:58Z</time>
      </trkpt>
      <trkpt lat="48.08758" lon="-0.29151">
        <ele>210</ele>
        <time>2018-05-20T12:27:12Z</time>
      </trkpt>
      <trkpt lat="48.08755" lon="-0.29205">
        <ele>210</ele>
        <time>2018-05-20T12:27:26Z</time>
      </trkpt>
      <trkpt lat="48.08741" lon="-0.29249">
        <ele>215</ele>
        <time>2018-05-20T12:27:42Z</time>
      </trkpt>
      <trkpt lat="48.08735" lon="-0.29304">
        <ele>217</ele>
        <time>2018-05-20T12:27:59Z</time>
      </trkpt>
      <trkpt lat="48.08733" lon="-0.29365">
        <ele>217</ele>
        <time>2018-05-20T12:28:15Z</time>
      </trkpt>
      <trkpt lat="48.08733" lon="-0.29415">
        <ele>216</ele>
        <time>2018-05-20T12:28:25Z</time>
      </trkpt>
      <trkpt lat="48.08744" lon="-0.29503">
        <ele>215</ele>
        <time>2018-05-20T12:28:36Z</time>
      </trkpt>
      <trkpt lat="48.08748" lon="-0.29554">
        <ele>218</ele>
        <time>2018-05-20T12:28:42Z</time>
      </trkpt>
      <trkpt lat="48.08753" lon="-0.29611">
        <ele>212</ele>
        <time>2018-05-20T12:28:49Z</time>
      </trkpt>
      <trkpt lat="48.08763" lon="-0.29709">
        <ele>209</ele>
        <time>2018-05-20T12:29:00Z</time>
      </trkpt>
      <trkpt lat="48.08776" lon="-0.29754">
        <ele>207</ele>
        <time>2018-05-20T12:29:08Z</time>
      </trkpt>
      <trkpt lat="48.08776" lon="-0.29758">
        <ele>207</ele>
        <time>2018-05-20T12:29:10Z</time>
      </trkpt>
      <trkpt lat="48.0878" lon="-0.29763">
        <ele>206</ele>
        <time>2018-05-20T12:29:21Z</time>
      </trkpt>
      <trkpt lat="48.0878" lon="-0.29764">
        <ele>206</ele>
        <time>2018-05-20T12:29:52Z</time>
      </trkpt>
      <trkpt lat="48.08777" lon="-0.29764">
        <ele>207</ele>
        <time>2018-05-20T12:32:22Z</time>
      </trkpt>
      <trkpt lat="48.08764" lon="-0.2977">
        <ele>208</ele>
        <time>2018-05-20T12:32:32Z</time>
      </trkpt>
      <trkpt lat="48.08763" lon="-0.29771">
        <ele>208</ele>
        <time>2018-05-20T12:32:33Z</time>
      </trkpt>
      <trkpt lat="48.08761" lon="-0.29774">
        <ele>207</ele>
        <time>2018-05-20T12:32:36Z</time>
      </trkpt>
      <trkpt lat="48.08749" lon="-0.29785">
        <ele>214</ele>
        <time>2018-05-20T12:32:44Z</time>
      </trkpt>
      <trkpt lat="48.08747" lon="-0.29787">
        <ele>215</ele>
        <time>2018-05-20T12:32:46Z</time>
      </trkpt>
      <trkpt lat="48.08744" lon="-0.29789">
        <ele>215</ele>
        <time>2018-05-20T12:32:48Z</time>
      </trkpt>
      <trkpt lat="48.08732" lon="-0.29801">
        <ele>215</ele>
        <time>2018-05-20T12:32:58Z</time>
      </trkpt>
      <trkpt lat="48.08721" lon="-0.29816">
        <ele>215</ele>
        <time>2018-05-20T12:33:09Z</time>
      </trkpt>
      <trkpt lat="48.08707" lon="-0.2983">
        <ele>217</ele>
        <time>2018-05-20T12:33:20Z</time>
      </trkpt>
      <trkpt lat="48.08694" lon="-0.29843">
        <ele>217</ele>
        <time>2018-05-20T12:33:32Z</time>
      </trkpt>
      <trkpt lat="48.08683" lon="-0.29853">
        <ele>217</ele>
        <time>2018-05-20T12:33:43Z</time>
      </trkpt>
      <trkpt lat="48.08669" lon="-0.29867">
        <ele>217</ele>
        <time>2018-05-20T12:33:56Z</time>
      </trkpt>
      <trkpt lat="48.08656" lon="-0.29874">
        <ele>225</ele>
        <time>2018-05-20T12:34:08Z</time>
      </trkpt>
      <trkpt lat="48.08641" lon="-0.29885">
        <ele>226</ele>
        <time>2018-05-20T12:34:22Z</time>
      </trkpt>
      <trkpt lat="48.08629" lon="-0.29896">
        <ele>226</ele>
        <time>2018-05-20T12:34:33Z</time>
      </trkpt>
      <trkpt lat="48.08625" lon="-0.29906">
        <ele>227</ele>
        <time>2018-05-20T12:34:38Z</time>
      </trkpt>
      <trkpt lat="48.08626" lon="-0.29918">
        <ele>227</ele>
        <time>2018-05-20T12:34:43Z</time>
      </trkpt>
      <trkpt lat="48.08625" lon="-0.29926">
        <ele>227</ele>
        <time>2018-05-20T12:34:46Z</time>
      </trkpt>
      <trkpt lat="48.08612" lon="-0.29977">
        <ele>229</ele>
        <time>2018-05-20T12:34:59Z</time>
      </trkpt>
      <trkpt lat="48.0861" lon="-0.30014">
        <ele>228</ele>
        <time>2018-05-20T12:35:07Z</time>
      </trkpt>
      <trkpt lat="48.08606" lon="-0.30045">
        <ele>228</ele>
        <time>2018-05-20T12:35:14Z</time>
      </trkpt>
      <trkpt lat="48.08604" lon="-0.30079">
        <ele>229</ele>
        <time>2018-05-20T12:35:21Z</time>
      </trkpt>
      <trkpt lat="48.08596" lon="-0.30111">
        <ele>229</ele>
        <time>2018-05-20T12:35:29Z</time>
      </trkpt>
      <trkpt lat="48.08594" lon="-0.30121">
        <ele>229</ele>
        <time>2018-05-20T12:35:31Z</time>
      </trkpt>
      <trkpt lat="48.08585" lon="-0.3016">
        <ele>234</ele>
        <time>2018-05-20T12:35:40Z</time>
      </trkpt>
      <trkpt lat="48.08582" lon="-0.30169">
        <ele>236</ele>
        <time>2018-05-20T12:35:43Z</time>
      </trkpt>
      <trkpt lat="48.08581" lon="-0.30179">
        <ele>236</ele>
        <time>2018-05-20T12:35:46Z</time>
      </trkpt>
      <trkpt lat="48.08575" lon="-0.30213">
        <ele>237</ele>
        <time>2018-05-20T12:35:56Z</time>
      </trkpt>
      <trkpt lat="48.08568" lon="-0.30255">
        <ele>237</ele>
        <time>2018-05-20T12:36:07Z</time>
      </trkpt>
      <trkpt lat="48.08565" lon="-0.30274">
        <ele>237</ele>
        <time>2018-05-20T12:36:12Z</time>
      </trkpt>
      <trkpt lat="48.0856" lon="-0.3029">
        <ele>237</ele>
        <time>2018-05-20T12:36:16Z</time>
      </trkpt>
      <trkpt lat="48.08565" lon="-0.30304">
        <ele>237</ele>
        <time>2018-05-20T12:36:19Z</time>
      </trkpt>
      <trkpt lat="48.08559" lon="-0.30328">
        <ele>237</ele>
        <time>2018-05-20T12:36:27Z</time>
      </trkpt>
      <trkpt lat="48.08553" lon="-0.30354">
        <ele>236</ele>
        <time>2018-05-20T12:36:34Z</time>
      </trkpt>
      <trkpt lat="48.08549" lon="-0.30358">
        <ele>236</ele>
        <time>2018-05-20T12:36:43Z</time>
      </trkpt>
      <trkpt lat="48.08548" lon="-0.30359">
        <ele>236</ele>
        <time>2018-05-20T12:36:53Z</time>
      </trkpt>
      <trkpt lat="48.08525" lon="-0.30369">
        <ele>236</ele>
        <time>2018-05-20T12:37:03Z</time>
      </trkpt>
      <trkpt lat="48.08505" lon="-0.30378">
        <ele>236</ele>
        <time>2018-05-20T12:37:12Z</time>
      </trkpt>
      <trkpt lat="48.08494" lon="-0.30369">
        <ele>236</ele>
        <time>2018-05-20T12:37:19Z</time>
      </trkpt>
      <trkpt lat="48.08485" lon="-0.30363">
        <ele>236</ele>
        <time>2018-05-20T12:37:25Z</time>
      </trkpt>
      <trkpt lat="48.08473" lon="-0.3036">
        <ele>235</ele>
        <time>2018-05-20T12:37:36Z</time>
      </trkpt>
      <trkpt lat="48.08463" lon="-0.30362">
        <ele>235</ele>
        <time>2018-05-20T12:37:44Z</time>
      </trkpt>
      <trkpt lat="48.08457" lon="-0.30369">
        <ele>235</ele>
        <time>2018-05-20T12:37:50Z</time>
      </trkpt>
      <trkpt lat="48.08446" lon="-0.30382">
        <ele>234</ele>
        <time>2018-05-20T12:37:59Z</time>
      </trkpt>
      <trkpt lat="48.08439" lon="-0.30395">
        <ele>233</ele>
        <time>2018-05-20T12:38:05Z</time>
      </trkpt>
      <trkpt lat="48.08439" lon="-0.30404">
        <ele>233</ele>
        <time>2018-05-20T12:38:09Z</time>
      </trkpt>
      <trkpt lat="48.08441" lon="-0.30413">
        <ele>233</ele>
        <time>2018-05-20T12:38:20Z</time>
      </trkpt>
      <trkpt lat="48.08441" lon="-0.30413">
        <ele>233</ele>
        <time>2018-05-20T12:38:55Z</time>
      </trkpt>
      <trkpt lat="48.08442" lon="-0.30414">
        <ele>233</ele>
        <time>2018-05-20T12:53:15Z</time>
      </trkpt>
      <trkpt lat="48.08441" lon="-0.30421">
        <ele>232</ele>
        <time>2018-05-20T12:53:24Z</time>
      </trkpt>
      <trkpt lat="48.08441" lon="-0.30419">
        <ele>232</ele>
        <time>2018-05-20T12:53:50Z</time>
      </trkpt>
      <trkpt lat="48.0844" lon="-0.30419">
        <ele>232</ele>
        <time>2018-05-20T12:53:54Z</time>
      </trkpt>
      <trkpt lat="48.0844" lon="-0.30422">
        <ele>232</ele>
        <time>2018-05-20T12:53:56Z</time>
      </trkpt>
      <trkpt lat="48.08451" lon="-0.30445">
        <ele>232</ele>
        <time>2018-05-20T12:54:06Z</time>
      </trkpt>
      <trkpt lat="48.08473" lon="-0.30453">
        <ele>233</ele>
        <time>2018-05-20T12:54:14Z</time>
      </trkpt>
      <trkpt lat="48.08475" lon="-0.30454">
        <ele>233</ele>
        <time>2018-05-20T12:54:15Z</time>
      </trkpt>
      <trkpt lat="48.0848" lon="-0.30452">
        <ele>233</ele>
        <time>2018-05-20T12:54:18Z</time>
      </trkpt>
      <trkpt lat="48.08498" lon="-0.30469">
        <ele>233</ele>
        <time>2018-05-20T12:54:25Z</time>
      </trkpt>
      <trkpt lat="48.08508" lon="-0.30478">
        <ele>234</ele>
        <time>2018-05-20T12:54:32Z</time>
      </trkpt>
      <trkpt lat="48.08508" lon="-0.30478">
        <ele>234</ele>
        <time>2018-05-20T12:54:36Z</time>
      </trkpt>
      <trkpt lat="48.085" lon="-0.30518">
        <ele>234</ele>
        <time>2018-05-20T12:54:46Z</time>
      </trkpt>
      <trkpt lat="48.08489" lon="-0.30579">
        <ele>233</ele>
        <time>2018-05-20T12:54:58Z</time>
      </trkpt>
      <trkpt lat="48.0848" lon="-0.30615">
        <ele>233</ele>
        <time>2018-05-20T12:55:07Z</time>
      </trkpt>
      <trkpt lat="48.0847" lon="-0.30632">
        <ele>233</ele>
        <time>2018-05-20T12:55:13Z</time>
      </trkpt>
      <trkpt lat="48.08463" lon="-0.3065">
        <ele>233</ele>
        <time>2018-05-20T12:55:18Z</time>
      </trkpt>
      <trkpt lat="48.08457" lon="-0.3066">
        <ele>233</ele>
        <time>2018-05-20T12:55:21Z</time>
      </trkpt>
      <trkpt lat="48.0845" lon="-0.30679">
        <ele>233</ele>
        <time>2018-05-20T12:55:26Z</time>
      </trkpt>
      <trkpt lat="48.08447" lon="-0.30693">
        <ele>233</ele>
        <time>2018-05-20T12:55:30Z</time>
      </trkpt>
      <trkpt lat="48.0844" lon="-0.30725">
        <ele>233</ele>
        <time>2018-05-20T12:55:38Z</time>
      </trkpt>
      <trkpt lat="48.08434" lon="-0.3076">
        <ele>232</ele>
        <time>2018-05-20T12:55:44Z</time>
      </trkpt>
      <trkpt lat="48.08418" lon="-0.30799">
        <ele>233</ele>
        <time>2018-05-20T12:55:53Z</time>
      </trkpt>
      <trkpt lat="48.08415" lon="-0.30807">
        <ele>225</ele>
        <time>2018-05-20T12:55:55Z</time>
      </trkpt>
      <trkpt lat="48.08411" lon="-0.30847">
        <ele>227</ele>
        <time>2018-05-20T12:56:05Z</time>
      </trkpt>
      <trkpt lat="48.08414" lon="-0.30865">
        <ele>226</ele>
        <time>2018-05-20T12:56:13Z</time>
      </trkpt>
      <trkpt lat="48.08423" lon="-0.30861">
        <ele>234</ele>
        <time>2018-05-20T12:56:29Z</time>
      </trkpt>
      <trkpt lat="48.08436" lon="-0.30862">
        <ele>235</ele>
        <time>2018-05-20T12:56:42Z</time>
      </trkpt>
      <trkpt lat="48.08448" lon="-0.3087">
        <ele>236</ele>
        <time>2018-05-20T12:56:53Z</time>
      </trkpt>
      <trkpt lat="48.08456" lon="-0.30872">
        <ele>237</ele>
        <time>2018-05-20T12:56:55Z</time>
      </trkpt>
      <trkpt lat="48.08466" lon="-0.30884">
        <ele>237</ele>
        <time>2018-05-20T12:57:02Z</time>
      </trkpt>
      <trkpt lat="48.08467" lon="-0.30892">
        <ele>238</ele>
        <time>2018-05-20T12:57:05Z</time>
      </trkpt>
      <trkpt lat="48.0847" lon="-0.309">
        <ele>238</ele>
        <time>2018-05-20T12:57:09Z</time>
      </trkpt>
      <trkpt lat="48.08475" lon="-0.30927">
        <ele>240</ele>
        <time>2018-05-20T12:57:19Z</time>
      </trkpt>
      <trkpt lat="48.08476" lon="-0.3093">
        <ele>240</ele>
        <time>2018-05-20T12:57:20Z</time>
      </trkpt>
      <trkpt lat="48.0848" lon="-0.3094">
        <ele>240</ele>
        <time>2018-05-20T12:57:27Z</time>
      </trkpt>
      <trkpt lat="48.08482" lon="-0.30949">
        <ele>240</ele>
        <time>2018-05-20T12:57:30Z</time>
      </trkpt>
      <trkpt lat="48.08481" lon="-0.30965">
        <ele>240</ele>
        <time>2018-05-20T12:57:37Z</time>
      </trkpt>
      <trkpt lat="48.08482" lon="-0.30968">
        <ele>240</ele>
        <time>2018-05-20T12:57:39Z</time>
      </trkpt>
      <trkpt lat="48.08484" lon="-0.30992">
        <ele>242</ele>
        <time>2018-05-20T12:57:50Z</time>
      </trkpt>
      <trkpt lat="48.08482" lon="-0.31007">
        <ele>241</ele>
        <time>2018-05-20T12:58:01Z</time>
      </trkpt>
      <trkpt lat="48.08483" lon="-0.31012">
        <ele>241</ele>
        <time>2018-05-20T12:58:04Z</time>
      </trkpt>
      <trkpt lat="48.08483" lon="-0.31018">
        <ele>241</ele>
        <time>2018-05-20T12:58:06Z</time>
      </trkpt>
      <trkpt lat="48.08486" lon="-0.31038">
        <ele>240</ele>
        <time>2018-05-20T12:58:14Z</time>
      </trkpt>
      <trkpt lat="48.08488" lon="-0.31054">
        <ele>240</ele>
        <time>2018-05-20T12:58:22Z</time>
      </trkpt>
      <trkpt lat="48.08482" lon="-0.31068">
        <ele>240</ele>
        <time>2018-05-20T12:58:35Z</time>
      </trkpt>
      <trkpt lat="48.08483" lon="-0.31072">
        <ele>240</ele>
        <time>2018-05-20T12:58:39Z</time>
      </trkpt>
      <trkpt lat="48.08483" lon="-0.31075">
        <ele>241</ele>
        <time>2018-05-20T12:58:41Z</time>
      </trkpt>
      <trkpt lat="48.08485" lon="-0.31089">
        <ele>240</ele>
        <time>2018-05-20T12:58:51Z</time>
      </trkpt>
      <trkpt lat="48.08486" lon="-0.31093">
        <ele>240</ele>
        <time>2018-05-20T12:58:54Z</time>
      </trkpt>
      <trkpt lat="48.08489" lon="-0.31104">
        <ele>240</ele>
        <time>2018-05-20T12:58:57Z</time>
      </trkpt>
      <trkpt lat="48.08483" lon="-0.31137">
        <ele>239</ele>
        <time>2018-05-20T12:59:07Z</time>
      </trkpt>
      <trkpt lat="48.08483" lon="-0.31159">
        <ele>240</ele>
        <time>2018-05-20T12:59:14Z</time>
      </trkpt>
      <trkpt lat="48.08484" lon="-0.3116">
        <ele>240</ele>
        <time>2018-05-20T12:59:15Z</time>
      </trkpt>
      <trkpt lat="48.08483" lon="-0.31167">
        <ele>239</ele>
        <time>2018-05-20T12:59:17Z</time>
      </trkpt>
      <trkpt lat="48.08485" lon="-0.3121">
        <ele>237</ele>
        <time>2018-05-20T12:59:26Z</time>
      </trkpt>
      <trkpt lat="48.08485" lon="-0.31236">
        <ele>238</ele>
        <time>2018-05-20T12:59:31Z</time>
      </trkpt>
      <trkpt lat="48.08486" lon="-0.3126">
        <ele>236</ele>
        <time>2018-05-20T12:59:35Z</time>
      </trkpt>
      <trkpt lat="48.08489" lon="-0.31291">
        <ele>234</ele>
        <time>2018-05-20T12:59:41Z</time>
      </trkpt>
      <trkpt lat="48.08493" lon="-0.3132">
        <ele>234</ele>
        <time>2018-05-20T12:59:50Z</time>
      </trkpt>
      <trkpt lat="48.08495" lon="-0.31337">
        <ele>234</ele>
        <time>2018-05-20T12:59:57Z</time>
      </trkpt>
      <trkpt lat="48.08493" lon="-0.31338">
        <ele>233</ele>
        <time>2018-05-20T13:00:50Z</time>
      </trkpt>
      <trkpt lat="48.08491" lon="-0.31338">
        <ele>232</ele>
        <time>2018-05-20T13:00:59Z</time>
      </trkpt>
      <trkpt lat="48.08489" lon="-0.31336">
        <ele>232</ele>
        <time>2018-05-20T13:01:06Z</time>
      </trkpt>
      <trkpt lat="48.08486" lon="-0.3133">
        <ele>234</ele>
        <time>2018-05-20T13:01:11Z</time>
      </trkpt>
      <trkpt lat="48.08483" lon="-0.31311">
        <ele>233</ele>
        <time>2018-05-20T13:01:20Z</time>
      </trkpt>
      <trkpt lat="48.08482" lon="-0.31306">
        <ele>233</ele>
        <time>2018-05-20T13:01:23Z</time>
      </trkpt>
      <trkpt lat="48.08482" lon="-0.31296">
        <ele>233</ele>
        <time>2018-05-20T13:01:27Z</time>
      </trkpt>
      <trkpt lat="48.08488" lon="-0.31289">
        <ele>234</ele>
        <time>2018-05-20T13:01:32Z</time>
      </trkpt>
      <trkpt lat="48.08485" lon="-0.31281">
        <ele>234</ele>
        <time>2018-05-20T13:01:35Z</time>
      </trkpt>
      <trkpt lat="48.08482" lon="-0.31271">
        <ele>234</ele>
        <time>2018-05-20T13:01:38Z</time>
      </trkpt>
      <trkpt lat="48.08482" lon="-0.31246">
        <ele>238</ele>
        <time>2018-05-20T13:01:46Z</time>
      </trkpt>
      <trkpt lat="48.08483" lon="-0.31231">
        <ele>237</ele>
        <time>2018-05-20T13:01:51Z</time>
      </trkpt>
      <trkpt lat="48.08482" lon="-0.31223">
        <ele>237</ele>
        <time>2018-05-20T13:01:55Z</time>
      </trkpt>
      <trkpt lat="48.08483" lon="-0.31218">
        <ele>237</ele>
        <time>2018-05-20T13:01:58Z</time>
      </trkpt>
      <trkpt lat="48.08483" lon="-0.3119">
        <ele>238</ele>
        <time>2018-05-20T13:02:10Z</time>
      </trkpt>
      <trkpt lat="48.08477" lon="-0.31164">
        <ele>239</ele>
        <time>2018-05-20T13:02:18Z</time>
      </trkpt>
      <trkpt lat="48.08475" lon="-0.31159">
        <ele>238</ele>
        <time>2018-05-20T13:02:20Z</time>
      </trkpt>
      <trkpt lat="48.08475" lon="-0.31148">
        <ele>238</ele>
        <time>2018-05-20T13:02:24Z</time>
      </trkpt>
      <trkpt lat="48.08477" lon="-0.31124">
        <ele>238</ele>
        <time>2018-05-20T13:02:33Z</time>
      </trkpt>
      <trkpt lat="48.08478" lon="-0.31118">
        <ele>238</ele>
        <time>2018-05-20T13:02:36Z</time>
      </trkpt>
      <trkpt lat="48.08476" lon="-0.31104">
        <ele>238</ele>
        <time>2018-05-20T13:02:46Z</time>
      </trkpt>
      <trkpt lat="48.08477" lon="-0.31093">
        <ele>239</ele>
        <time>2018-05-20T13:02:55Z</time>
      </trkpt>
      <trkpt lat="48.08476" lon="-0.31074">
        <ele>240</ele>
        <time>2018-05-20T13:03:00Z</time>
      </trkpt>
      <trkpt lat="48.08474" lon="-0.31049">
        <ele>239</ele>
        <time>2018-05-20T13:03:06Z</time>
      </trkpt>
      <trkpt lat="48.08473" lon="-0.31043">
        <ele>239</ele>
        <time>2018-05-20T13:03:09Z</time>
      </trkpt>
      <trkpt lat="48.08469" lon="-0.31029">
        <ele>239</ele>
        <time>2018-05-20T13:03:13Z</time>
      </trkpt>
      <trkpt lat="48.08467" lon="-0.31022">
        <ele>239</ele>
        <time>2018-05-20T13:03:17Z</time>
      </trkpt>
      <trkpt lat="48.08469" lon="-0.31006">
        <ele>240</ele>
        <time>2018-05-20T13:03:23Z</time>
      </trkpt>
      <trkpt lat="48.08473" lon="-0.30993">
        <ele>240</ele>
        <time>2018-05-20T13:03:29Z</time>
      </trkpt>
      <trkpt lat="48.08468" lon="-0.30962">
        <ele>239</ele>
        <time>2018-05-20T13:03:38Z</time>
      </trkpt>
      <trkpt lat="48.08464" lon="-0.30918">
        <ele>239</ele>
        <time>2018-05-20T13:03:45Z</time>
      </trkpt>
      <trkpt lat="48.08461" lon="-0.30893">
        <ele>237</ele>
        <time>2018-05-20T13:03:53Z</time>
      </trkpt>
      <trkpt lat="48.08446" lon="-0.30883">
        <ele>236</ele>
        <time>2018-05-20T13:04:00Z</time>
      </trkpt>
      <trkpt lat="48.08428" lon="-0.30891">
        <ele>235</ele>
        <time>2018-05-20T13:04:07Z</time>
      </trkpt>
      <trkpt lat="48.08417" lon="-0.30876">
        <ele>235</ele>
        <time>2018-05-20T13:04:13Z</time>
      </trkpt>
      <trkpt lat="48.08405" lon="-0.30843">
        <ele>227</ele>
        <time>2018-05-20T13:04:20Z</time>
      </trkpt>
      <trkpt lat="48.08411" lon="-0.30802">
        <ele>225</ele>
        <time>2018-05-20T13:04:27Z</time>
      </trkpt>
      <trkpt lat="48.08417" lon="-0.30775">
        <ele>232</ele>
        <time>2018-05-20T13:04:34Z</time>
      </trkpt>
      <trkpt lat="48.08421" lon="-0.30765">
        <ele>231</ele>
        <time>2018-05-20T13:04:37Z</time>
      </trkpt>
      <trkpt lat="48.08425" lon="-0.30751">
        <ele>231</ele>
        <time>2018-05-20T13:04:41Z</time>
      </trkpt>
      <trkpt lat="48.08429" lon="-0.30739">
        <ele>231</ele>
        <time>2018-05-20T13:04:45Z</time>
      </trkpt>
      <trkpt lat="48.08437" lon="-0.30714">
        <ele>233</ele>
        <time>2018-05-20T13:04:52Z</time>
      </trkpt>
      <trkpt lat="48.08449" lon="-0.30684">
        <ele>233</ele>
        <time>2018-05-20T13:05:01Z</time>
      </trkpt>
      <trkpt lat="48.08451" lon="-0.30677">
        <ele>233</ele>
        <time>2018-05-20T13:05:03Z</time>
      </trkpt>
      <trkpt lat="48.08467" lon="-0.30639">
        <ele>233</ele>
        <time>2018-05-20T13:05:14Z</time>
      </trkpt>
      <trkpt lat="48.0848" lon="-0.30614">
        <ele>233</ele>
        <time>2018-05-20T13:05:24Z</time>
      </trkpt>
      <trkpt lat="48.08489" lon="-0.30573">
        <ele>233</ele>
        <time>2018-05-20T13:05:36Z</time>
      </trkpt>
      <trkpt lat="48.08492" lon="-0.30562">
        <ele>233</ele>
        <time>2018-05-20T13:05:46Z</time>
      </trkpt>
      <trkpt lat="48.08492" lon="-0.30564">
        <ele>233</ele>
        <time>2018-05-20T13:05:57Z</time>
      </trkpt>
      <trkpt lat="48.08488" lon="-0.30588">
        <ele>233</ele>
        <time>2018-05-20T13:06:09Z</time>
      </trkpt>
      <trkpt lat="48.0848" lon="-0.30619">
        <ele>233</ele>
        <time>2018-05-20T13:06:19Z</time>
      </trkpt>
      <trkpt lat="48.0847" lon="-0.30636">
        <ele>233</ele>
        <time>2018-05-20T13:06:28Z</time>
      </trkpt>
      <trkpt lat="48.08459" lon="-0.30662">
        <ele>233</ele>
        <time>2018-05-20T13:06:38Z</time>
      </trkpt>
      <trkpt lat="48.0845" lon="-0.30691">
        <ele>233</ele>
        <time>2018-05-20T13:06:50Z</time>
      </trkpt>
      <trkpt lat="48.08448" lon="-0.30697">
        <ele>233</ele>
        <time>2018-05-20T13:06:53Z</time>
      </trkpt>
      <trkpt lat="48.08447" lon="-0.30702">
        <ele>233</ele>
        <time>2018-05-20T13:06:55Z</time>
      </trkpt>
      <trkpt lat="48.08446" lon="-0.30708">
        <ele>233</ele>
        <time>2018-05-20T13:06:57Z</time>
      </trkpt>
      <trkpt lat="48.08439" lon="-0.30731">
        <ele>232</ele>
        <time>2018-05-20T13:07:04Z</time>
      </trkpt>
      <trkpt lat="48.08428" lon="-0.30766">
        <ele>232</ele>
        <time>2018-05-20T13:07:13Z</time>
      </trkpt>
      <trkpt lat="48.08416" lon="-0.30807">
        <ele>225</ele>
        <time>2018-05-20T13:07:23Z</time>
      </trkpt>
      <trkpt lat="48.08413" lon="-0.30834">
        <ele>229</ele>
        <time>2018-05-20T13:07:32Z</time>
      </trkpt>
      <trkpt lat="48.0841" lon="-0.30843">
        <ele>227</ele>
        <time>2018-05-20T13:07:35Z</time>
      </trkpt>
      <trkpt lat="48.08412" lon="-0.30863">
        <ele>226</ele>
        <time>2018-05-20T13:07:44Z</time>
      </trkpt>
      <trkpt lat="48.08413" lon="-0.30865">
        <ele>226</ele>
        <time>2018-05-20T13:07:45Z</time>
      </trkpt>
      <trkpt lat="48.0842" lon="-0.3088">
        <ele>235</ele>
        <time>2018-05-20T13:07:53Z</time>
      </trkpt>
      <trkpt lat="48.0843" lon="-0.30882">
        <ele>235</ele>
        <time>2018-05-20T13:08:04Z</time>
      </trkpt>
      <trkpt lat="48.08436" lon="-0.30879">
        <ele>236</ele>
        <time>2018-05-20T13:08:11Z</time>
      </trkpt>
      <trkpt lat="48.0844" lon="-0.30876">
        <ele>236</ele>
        <time>2018-05-20T13:08:18Z</time>
      </trkpt>
      <trkpt lat="48.08442" lon="-0.30877">
        <ele>236</ele>
        <time>2018-05-20T13:08:21Z</time>
      </trkpt>
      <trkpt lat="48.08453" lon="-0.3088">
        <ele>236</ele>
        <time>2018-05-20T13:08:31Z</time>
      </trkpt>
      <trkpt lat="48.08463" lon="-0.30879">
        <ele>237</ele>
        <time>2018-05-20T13:08:38Z</time>
      </trkpt>
      <trkpt lat="48.08467" lon="-0.30885">
        <ele>237</ele>
        <time>2018-05-20T13:08:48Z</time>
      </trkpt>
      <trkpt lat="48.08466" lon="-0.30886">
        <ele>237</ele>
        <time>2018-05-20T13:09:40Z</time>
      </trkpt>
      <trkpt lat="48.08465" lon="-0.30893">
        <ele>238</ele>
        <time>2018-05-20T13:09:57Z</time>
      </trkpt>
      <trkpt lat="48.08467" lon="-0.30906">
        <ele>238</ele>
        <time>2018-05-20T13:10:03Z</time>
      </trkpt>
      <trkpt lat="48.08467" lon="-0.30913">
        <ele>238</ele>
        <time>2018-05-20T13:10:06Z</time>
      </trkpt>
      <trkpt lat="48.08467" lon="-0.30921">
        <ele>239</ele>
        <time>2018-05-20T13:10:09Z</time>
      </trkpt>
      <trkpt lat="48.0847" lon="-0.30938">
        <ele>239</ele>
        <time>2018-05-20T13:10:18Z</time>
      </trkpt>
      <trkpt lat="48.08471" lon="-0.30947">
        <ele>239</ele>
        <time>2018-05-20T13:10:21Z</time>
      </trkpt>
      <trkpt lat="48.08469" lon="-0.30957">
        <ele>239</ele>
        <time>2018-05-20T13:10:25Z</time>
      </trkpt>
      <trkpt lat="48.0847" lon="-0.30965">
        <ele>239</ele>
        <time>2018-05-20T13:10:29Z</time>
      </trkpt>
      <trkpt lat="48.08474" lon="-0.30974">
        <ele>240</ele>
        <time>2018-05-20T13:10:33Z</time>
      </trkpt>
      <trkpt lat="48.08474" lon="-0.30981">
        <ele>240</ele>
        <time>2018-05-20T13:10:35Z</time>
      </trkpt>
      <trkpt lat="48.08473" lon="-0.30987">
        <ele>240</ele>
        <time>2018-05-20T13:10:38Z</time>
      </trkpt>
      <trkpt lat="48.0847" lon="-0.30997">
        <ele>240</ele>
        <time>2018-05-20T13:10:45Z</time>
      </trkpt>
      <trkpt lat="48.08471" lon="-0.31003">
        <ele>240</ele>
        <time>2018-05-20T13:10:48Z</time>
      </trkpt>
      <trkpt lat="48.08474" lon="-0.31008">
        <ele>240</ele>
        <time>2018-05-20T13:10:51Z</time>
      </trkpt>
      <trkpt lat="48.08476" lon="-0.31014">
        <ele>240</ele>
        <time>2018-05-20T13:10:55Z</time>
      </trkpt>
      <trkpt lat="48.08475" lon="-0.31019">
        <ele>240</ele>
        <time>2018-05-20T13:10:57Z</time>
      </trkpt>
      <trkpt lat="48.08474" lon="-0.31027">
        <ele>239</ele>
        <time>2018-05-20T13:11:00Z</time>
      </trkpt>
      <trkpt lat="48.08474" lon="-0.31037">
        <ele>239</ele>
        <time>2018-05-20T13:11:03Z</time>
      </trkpt>
      <trkpt lat="48.08475" lon="-0.31046">
        <ele>239</ele>
        <time>2018-05-20T13:11:07Z</time>
      </trkpt>
      <trkpt lat="48.08479" lon="-0.31065">
        <ele>240</ele>
        <time>2018-05-20T13:11:21Z</time>
      </trkpt>
      <trkpt lat="48.08477" lon="-0.31073">
        <ele>240</ele>
        <time>2018-05-20T13:11:31Z</time>
      </trkpt>
      <trkpt lat="48.08481" lon="-0.31084">
        <ele>240</ele>
        <time>2018-05-20T13:11:42Z</time>
      </trkpt>
      <trkpt lat="48.08481" lon="-0.31086">
        <ele>240</ele>
        <time>2018-05-20T13:12:04Z</time>
      </trkpt>
      <trkpt lat="48.08486" lon="-0.311">
        <ele>240</ele>
        <time>2018-05-20T13:12:41Z</time>
      </trkpt>
      <trkpt lat="48.08483" lon="-0.3111">
        <ele>239</ele>
        <time>2018-05-20T13:12:59Z</time>
      </trkpt>
      <trkpt lat="48.08483" lon="-0.31112">
        <ele>239</ele>
        <time>2018-05-20T13:13:04Z</time>
      </trkpt>
      <trkpt lat="48.0848" lon="-0.31137">
        <ele>238</ele>
        <time>2018-05-20T13:13:13Z</time>
      </trkpt>
      <trkpt lat="48.08481" lon="-0.31141">
        <ele>238</ele>
        <time>2018-05-20T13:13:15Z</time>
      </trkpt>
      <trkpt lat="48.08483" lon="-0.31157">
        <ele>240</ele>
        <time>2018-05-20T13:13:19Z</time>
      </trkpt>
      <trkpt lat="48.08484" lon="-0.31169">
        <ele>239</ele>
        <time>2018-05-20T13:13:23Z</time>
      </trkpt>
      <trkpt lat="48.08485" lon="-0.31189">
        <ele>238</ele>
        <time>2018-05-20T13:13:30Z</time>
      </trkpt>
      <trkpt lat="48.08486" lon="-0.312">
        <ele>237</ele>
        <time>2018-05-20T13:13:34Z</time>
      </trkpt>
      <trkpt lat="48.08485" lon="-0.3122">
        <ele>237</ele>
        <time>2018-05-20T13:13:46Z</time>
      </trkpt>
      <trkpt lat="48.08486" lon="-0.31222">
        <ele>237</ele>
        <time>2018-05-20T13:13:53Z</time>
      </trkpt>
      <trkpt lat="48.08486" lon="-0.31243">
        <ele>238</ele>
        <time>2018-05-20T13:14:02Z</time>
      </trkpt>
      <trkpt lat="48.08487" lon="-0.31274">
        <ele>235</ele>
        <time>2018-05-20T13:14:09Z</time>
      </trkpt>
      <trkpt lat="48.08486" lon="-0.31282">
        <ele>234</ele>
        <time>2018-05-20T13:14:11Z</time>
      </trkpt>
      <trkpt lat="48.0849" lon="-0.31304">
        <ele>233</ele>
        <time>2018-05-20T13:14:19Z</time>
      </trkpt>
      <trkpt lat="48.08499" lon="-0.31328">
        <ele>236</ele>
        <time>2018-05-20T13:14:29Z</time>
      </trkpt>
      <trkpt lat="48.085" lon="-0.31337">
        <ele>235</ele>
        <time>2018-05-20T13:14:38Z</time>
      </trkpt>
      <trkpt lat="48.08501" lon="-0.31345">
        <ele>236</ele>
        <time>2018-05-20T13:14:46Z</time>
      </trkpt>
      <trkpt lat="48.08505" lon="-0.31353">
        <ele>236</ele>
        <time>2018-05-20T13:14:56Z</time>
      </trkpt>
      <trkpt lat="48.08506" lon="-0.3136">
        <ele>236</ele>
        <time>2018-05-20T13:15:29Z</time>
      </trkpt>
      <trkpt lat="48.08506" lon="-0.3136">
        <ele>236</ele>
        <time>2018-05-20T13:15:50Z</time>
      </trkpt>
      <trkpt lat="48.08506" lon="-0.31361">
        <ele>236</ele>
        <time>2018-05-20T13:16:13Z</time>
      </trkpt>
      <trkpt lat="48.08505" lon="-0.31363">
        <ele>236</ele>
        <time>2018-05-20T13:16:54Z</time>
      </trkpt>
      <trkpt lat="48.08512" lon="-0.31381">
        <ele>234</ele>
        <time>2018-05-20T13:17:00Z</time>
      </trkpt>
      <trkpt lat="48.08515" lon="-0.31386">
        <ele>234</ele>
        <time>2018-05-20T13:17:02Z</time>
      </trkpt>
      <trkpt lat="48.08515" lon="-0.3139">
        <ele>234</ele>
        <time>2018-05-20T13:17:04Z</time>
      </trkpt>
      <trkpt lat="48.08518" lon="-0.31407">
        <ele>233</ele>
        <time>2018-05-20T13:17:08Z</time>
      </trkpt>
      <trkpt lat="48.08526" lon="-0.31439">
        <ele>230</ele>
        <time>2018-05-20T13:17:15Z</time>
      </trkpt>
      <trkpt lat="48.08531" lon="-0.31461">
        <ele>229</ele>
        <time>2018-05-20T13:17:21Z</time>
      </trkpt>
      <trkpt lat="48.08532" lon="-0.31464">
        <ele>229</ele>
        <time>2018-05-20T13:17:22Z</time>
      </trkpt>
      <trkpt lat="48.08536" lon="-0.31477">
        <ele>229</ele>
        <time>2018-05-20T13:17:25Z</time>
      </trkpt>
      <trkpt lat="48.08534" lon="-0.31505">
        <ele>224</ele>
        <time>2018-05-20T13:17:32Z</time>
      </trkpt>
      <trkpt lat="48.08549" lon="-0.3155">
        <ele>224</ele>
        <time>2018-05-20T13:17:40Z</time>
      </trkpt>
      <trkpt lat="48.08557" lon="-0.31585">
        <ele>221</ele>
        <time>2018-05-20T13:17:48Z</time>
      </trkpt>
      <trkpt lat="48.08567" lon="-0.31612">
        <ele>220</ele>
        <time>2018-05-20T13:17:54Z</time>
      </trkpt>
      <trkpt lat="48.08568" lon="-0.31618">
        <ele>220</ele>
        <time>2018-05-20T13:17:55Z</time>
      </trkpt>
      <trkpt lat="48.08577" lon="-0.31672">
        <ele>219</ele>
        <time>2018-05-20T13:18:01Z</time>
      </trkpt>
      <trkpt lat="48.08576" lon="-0.3168">
        <ele>217</ele>
        <time>2018-05-20T13:18:02Z</time>
      </trkpt>
      <trkpt lat="48.08579" lon="-0.31705">
        <ele>214</ele>
        <time>2018-05-20T13:18:06Z</time>
      </trkpt>
      <trkpt lat="48.08586" lon="-0.31744">
        <ele>218</ele>
        <time>2018-05-20T13:18:13Z</time>
      </trkpt>
      <trkpt lat="48.0859" lon="-0.31755">
        <ele>217</ele>
        <time>2018-05-20T13:18:15Z</time>
      </trkpt>
      <trkpt lat="48.08599" lon="-0.31808">
        <ele>215</ele>
        <time>2018-05-20T13:18:24Z</time>
      </trkpt>
      <trkpt lat="48.086" lon="-0.31827">
        <ele>213</ele>
        <time>2018-05-20T13:18:27Z</time>
      </trkpt>
      <trkpt lat="48.0861" lon="-0.3188">
        <ele>208</ele>
        <time>2018-05-20T13:18:35Z</time>
      </trkpt>
      <trkpt lat="48.08621" lon="-0.31911">
        <ele>208</ele>
        <time>2018-05-20T13:18:41Z</time>
      </trkpt>
      <trkpt lat="48.08635" lon="-0.31963">
        <ele>201</ele>
        <time>2018-05-20T13:18:48Z</time>
      </trkpt>
      <trkpt lat="48.08641" lon="-0.31979">
        <ele>200</ele>
        <time>2018-05-20T13:18:51Z</time>
      </trkpt>
      <trkpt lat="48.08648" lon="-0.32007">
        <ele>196</ele>
        <time>2018-05-20T13:18:54Z</time>
      </trkpt>
      <trkpt lat="48.08653" lon="-0.32021">
        <ele>195</ele>
        <time>2018-05-20T13:18:56Z</time>
      </trkpt>
      <trkpt lat="48.08669" lon="-0.32048">
        <ele>199</ele>
        <time>2018-05-20T13:18:59Z</time>
      </trkpt>
      <trkpt lat="48.08679" lon="-0.32061">
        <ele>198</ele>
        <time>2018-05-20T13:19:01Z</time>
      </trkpt>
      <trkpt lat="48.08697" lon="-0.32136">
        <ele>195</ele>
        <time>2018-05-20T13:19:09Z</time>
      </trkpt>
      <trkpt lat="48.08709" lon="-0.32171">
        <ele>193</ele>
        <time>2018-05-20T13:19:16Z</time>
      </trkpt>
      <trkpt lat="48.08713" lon="-0.32176">
        <ele>193</ele>
        <time>2018-05-20T13:19:18Z</time>
      </trkpt>
      <trkpt lat="48.08719" lon="-0.32199">
        <ele>193</ele>
        <time>2018-05-20T13:19:29Z</time>
      </trkpt>
      <trkpt lat="48.0872" lon="-0.322">
        <ele>193</ele>
        <time>2018-05-20T13:19:47Z</time>
      </trkpt>
      <trkpt lat="48.08721" lon="-0.32202">
        <ele>193</ele>
        <time>2018-05-20T13:20:55Z</time>
      </trkpt>
      <trkpt lat="48.08721" lon="-0.32211">
        <ele>193</ele>
        <time>2018-05-20T13:28:05Z</time>
      </trkpt>
      <trkpt lat="48.08731" lon="-0.32241">
        <ele>193</ele>
        <time>2018-05-20T13:28:14Z</time>
      </trkpt>
      <trkpt lat="48.08735" lon="-0.32262">
        <ele>193</ele>
        <time>2018-05-20T13:28:18Z</time>
      </trkpt>
      <trkpt lat="48.08725" lon="-0.32319">
        <ele>192</ele>
        <time>2018-05-20T13:28:31Z</time>
      </trkpt>
      <trkpt lat="48.0872" lon="-0.32331">
        <ele>191</ele>
        <time>2018-05-20T13:28:34Z</time>
      </trkpt>
      <trkpt lat="48.08722" lon="-0.32373">
        <ele>190</ele>
        <time>2018-05-20T13:28:44Z</time>
      </trkpt>
      <trkpt lat="48.08727" lon="-0.32405">
        <ele>189</ele>
        <time>2018-05-20T13:28:53Z</time>
      </trkpt>
      <trkpt lat="48.08728" lon="-0.32416">
        <ele>189</ele>
        <time>2018-05-20T13:28:56Z</time>
      </trkpt>
      <trkpt lat="48.08732" lon="-0.32449">
        <ele>188</ele>
        <time>2018-05-20T13:29:05Z</time>
      </trkpt>
      <trkpt lat="48.08739" lon="-0.32485">
        <ele>187</ele>
        <time>2018-05-20T13:29:13Z</time>
      </trkpt>
      <trkpt lat="48.08745" lon="-0.32516">
        <ele>186</ele>
        <time>2018-05-20T13:29:19Z</time>
      </trkpt>
      <trkpt lat="48.08743" lon="-0.32572">
        <ele>184</ele>
        <time>2018-05-20T13:29:27Z</time>
      </trkpt>
      <trkpt lat="48.08747" lon="-0.32623">
        <ele>182</ele>
        <time>2018-05-20T13:29:34Z</time>
      </trkpt>
      <trkpt lat="48.08752" lon="-0.3269">
        <ele>182</ele>
        <time>2018-05-20T13:29:43Z</time>
      </trkpt>
      <trkpt lat="48.0876" lon="-0.32788">
        <ele>181</ele>
        <time>2018-05-20T13:29:51Z</time>
      </trkpt>
      <trkpt lat="48.08763" lon="-0.32799">
        <ele>181</ele>
        <time>2018-05-20T13:30:07Z</time>
      </trkpt>
      <trkpt lat="48.08762" lon="-0.32801">
        <ele>181</ele>
        <time>2018-05-20T13:30:22Z</time>
      </trkpt>
      <trkpt lat="48.08763" lon="-0.32802">
        <ele>181</ele>
        <time>2018-05-20T13:31:01Z</time>
      </trkpt>
      <trkpt lat="48.08763" lon="-0.32802">
        <ele>181</ele>
        <time>2018-05-20T13:31:35Z</time>
      </trkpt>
      <trkpt lat="48.08763" lon="-0.32804">
        <ele>181</ele>
        <time>2018-05-20T13:32:02Z</time>
      </trkpt>
      <trkpt lat="48.08747" lon="-0.3285">
        <ele>180</ele>
        <time>2018-05-20T13:32:13Z</time>
      </trkpt>
      <trkpt lat="48.08734" lon="-0.32881">
        <ele>179</ele>
        <time>2018-05-20T13:32:22Z</time>
      </trkpt>
      <trkpt lat="48.08706" lon="-0.32926">
        <ele>178</ele>
        <time>2018-05-20T13:32:33Z</time>
      </trkpt>
      <trkpt lat="48.08698" lon="-0.32934">
        <ele>178</ele>
        <time>2018-05-20T13:32:40Z</time>
      </trkpt>
      <trkpt lat="48.08697" lon="-0.32936">
        <ele>178</ele>
        <time>2018-05-20T13:33:17Z</time>
      </trkpt>
      <trkpt lat="48.08688" lon="-0.32965">
        <ele>178</ele>
        <time>2018-05-20T13:33:27Z</time>
      </trkpt>
      <trkpt lat="48.08672" lon="-0.33009">
        <ele>178</ele>
        <time>2018-05-20T13:33:35Z</time>
      </trkpt>
      <trkpt lat="48.08657" lon="-0.33069">
        <ele>178</ele>
        <time>2018-05-20T13:33:45Z</time>
      </trkpt>
      <trkpt lat="48.08648" lon="-0.33107">
        <ele>177</ele>
        <time>2018-05-20T13:33:52Z</time>
      </trkpt>
      <trkpt lat="48.08643" lon="-0.33125">
        <ele>177</ele>
        <time>2018-05-20T13:33:55Z</time>
      </trkpt>
      <trkpt lat="48.08628" lon="-0.33202">
        <ele>174</ele>
        <time>2018-05-20T13:34:05Z</time>
      </trkpt>
      <trkpt lat="48.08615" lon="-0.33242">
        <ele>173</ele>
        <time>2018-05-20T13:34:10Z</time>
      </trkpt>
      <trkpt lat="48.08601" lon="-0.33312">
        <ele>171</ele>
        <time>2018-05-20T13:34:17Z</time>
      </trkpt>
      <trkpt lat="48.08599" lon="-0.3332">
        <ele>171</ele>
        <time>2018-05-20T13:34:18Z</time>
      </trkpt>
      <trkpt lat="48.08594" lon="-0.33338">
        <ele>170</ele>
        <time>2018-05-20T13:34:20Z</time>
      </trkpt>
      <trkpt lat="48.08586" lon="-0.33386">
        <ele>168</ele>
        <time>2018-05-20T13:34:25Z</time>
      </trkpt>
      <trkpt lat="48.08585" lon="-0.33418">
        <ele>168</ele>
        <time>2018-05-20T13:34:29Z</time>
      </trkpt>
      <trkpt lat="48.08581" lon="-0.33475">
        <ele>163</ele>
        <time>2018-05-20T13:34:36Z</time>
      </trkpt>
      <trkpt lat="48.08585" lon="-0.33481">
        <ele>162</ele>
        <time>2018-05-20T13:34:44Z</time>
      </trkpt>
      <trkpt lat="48.08597" lon="-0.33484">
        <ele>162</ele>
        <time>2018-05-20T13:36:26Z</time>
      </trkpt>
      <trkpt lat="48.08621" lon="-0.33507">
        <ele>157</ele>
        <time>2018-05-20T13:36:33Z</time>
      </trkpt>
      <trkpt lat="48.08649" lon="-0.33533">
        <ele>156</ele>
        <time>2018-05-20T13:36:43Z</time>
      </trkpt>
      <trkpt lat="48.08689" lon="-0.33589">
        <ele>148</ele>
        <time>2018-05-20T13:36:50Z</time>
      </trkpt>
      <trkpt lat="48.08706" lon="-0.33617">
        <ele>147</ele>
        <time>2018-05-20T13:36:53Z</time>
      </trkpt>
      <trkpt lat="48.08739" lon="-0.33641">
        <ele>145</ele>
        <time>2018-05-20T13:36:59Z</time>
      </trkpt>
      <trkpt lat="48.08752" lon="-0.33644">
        <ele>141</ele>
        <time>2018-05-20T13:37:01Z</time>
      </trkpt>
      <trkpt lat="48.08762" lon="-0.33644">
        <ele>141</ele>
        <time>2018-05-20T13:37:05Z</time>
      </trkpt>
      <trkpt lat="48.08786" lon="-0.33665">
        <ele>140</ele>
        <time>2018-05-20T13:37:14Z</time>
      </trkpt>
      <trkpt lat="48.08811" lon="-0.33691">
        <ele>136</ele>
        <time>2018-05-20T13:37:22Z</time>
      </trkpt>
      <trkpt lat="48.08834" lon="-0.33714">
        <ele>135</ele>
        <time>2018-05-20T13:37:31Z</time>
      </trkpt>
      <trkpt lat="48.08843" lon="-0.33723">
        <ele>135</ele>
        <time>2018-05-20T13:37:39Z</time>
      </trkpt>
      <trkpt lat="48.08845" lon="-0.33726">
        <ele>135</ele>
        <time>2018-05-20T13:37:49Z</time>
      </trkpt>
      <trkpt lat="48.08851" lon="-0.33732">
        <ele>135</ele>
        <time>2018-05-20T13:37:59Z</time>
      </trkpt>
      <trkpt lat="48.08852" lon="-0.33733">
        <ele>135</ele>
        <time>2018-05-20T13:38:05Z</time>
      </trkpt>
      <trkpt lat="48.08855" lon="-0.33735">
        <ele>135</ele>
        <time>2018-05-20T13:38:08Z</time>
      </trkpt>
      <trkpt lat="48.08866" lon="-0.33741">
        <ele>136</ele>
        <time>2018-05-20T13:38:14Z</time>
      </trkpt>
      <trkpt lat="48.08879" lon="-0.33746">
        <ele>137</ele>
        <time>2018-05-20T13:38:22Z</time>
      </trkpt>
      <trkpt lat="48.08885" lon="-0.3375">
        <ele>136</ele>
        <time>2018-05-20T13:38:28Z</time>
      </trkpt>
      <trkpt lat="48.08897" lon="-0.33757">
        <ele>137</ele>
        <time>2018-05-20T13:38:37Z</time>
      </trkpt>
      <trkpt lat="48.08916" lon="-0.3377">
        <ele>137</ele>
        <time>2018-05-20T13:38:51Z</time>
      </trkpt>
      <trkpt lat="48.08932" lon="-0.33782">
        <ele>141</ele>
        <time>2018-05-20T13:39:02Z</time>
      </trkpt>
      <trkpt lat="48.08946" lon="-0.33794">
        <ele>142</ele>
        <time>2018-05-20T13:39:11Z</time>
      </trkpt>
      <trkpt lat="48.08961" lon="-0.33803">
        <ele>142</ele>
        <time>2018-05-20T13:39:22Z</time>
      </trkpt>
      <trkpt lat="48.08966" lon="-0.33806">
        <ele>143</ele>
        <time>2018-05-20T13:39:26Z</time>
      </trkpt>
      <trkpt lat="48.08987" lon="-0.33825">
        <ele>144</ele>
        <time>2018-05-20T13:39:39Z</time>
      </trkpt>
      <trkpt lat="48.08991" lon="-0.33827">
        <ele>145</ele>
        <time>2018-05-20T13:39:50Z</time>
      </trkpt>
      <trkpt lat="48.08992" lon="-0.33828">
        <ele>145</ele>
        <time>2018-05-20T13:40:50Z</time>
      </trkpt>
      <trkpt lat="48.08996" lon="-0.33825">
        <ele>145</ele>
        <time>2018-05-20T13:41:36Z</time>
      </trkpt>
      <trkpt lat="48.08994" lon="-0.33825">
        <ele>145</ele>
        <time>2018-05-20T13:42:22Z</time>
      </trkpt>
      <trkpt lat="48.08994" lon="-0.33829">
        <ele>145</ele>
        <time>2018-05-20T13:42:49Z</time>
      </trkpt>
      <trkpt lat="48.08994" lon="-0.33831">
        <ele>145</ele>
        <time>2018-05-20T13:43:22Z</time>
      </trkpt>
      <trkpt lat="48.08994" lon="-0.33831">
        <ele>145</ele>
        <time>2018-05-20T13:44:00Z</time>
      </trkpt>
      <trkpt lat="48.08991" lon="-0.33842">
        <ele>144</ele>
        <time>2018-05-20T13:44:04Z</time>
      </trkpt>
      <trkpt lat="48.08976" lon="-0.33863">
        <ele>142</ele>
        <time>2018-05-20T13:44:08Z</time>
      </trkpt>
      <trkpt lat="48.08941" lon="-0.33905">
        <ele>139</ele>
        <time>2018-05-20T13:44:15Z</time>
      </trkpt>
      <trkpt lat="48.08936" lon="-0.33911">
        <ele>138</ele>
        <time>2018-05-20T13:44:16Z</time>
      </trkpt>
      <trkpt lat="48.08904" lon="-0.33934">
        <ele>133</ele>
        <time>2018-05-20T13:44:23Z</time>
      </trkpt>
      <trkpt lat="48.08862" lon="-0.3396">
        <ele>131</ele>
        <time>2018-05-20T13:44:33Z</time>
      </trkpt>
      <trkpt lat="48.08857" lon="-0.33963">
        <ele>131</ele>
        <time>2018-05-20T13:44:34Z</time>
      </trkpt>
      <trkpt lat="48.08825" lon="-0.33983">
        <ele>130</ele>
        <time>2018-05-20T13:44:41Z</time>
      </trkpt>
      <trkpt lat="48.08821" lon="-0.33986">
        <ele>130</ele>
        <time>2018-05-20T13:44:42Z</time>
      </trkpt>
      <trkpt lat="48.08776" lon="-0.34023">
        <ele>128</ele>
        <time>2018-05-20T13:44:51Z</time>
      </trkpt>
      <trkpt lat="48.08766" lon="-0.34041">
        <ele>127</ele>
        <time>2018-05-20T13:44:55Z</time>
      </trkpt>
      <trkpt lat="48.08761" lon="-0.3408">
        <ele>126</ele>
        <time>2018-05-20T13:45:04Z</time>
      </trkpt>
      <trkpt lat="48.08755" lon="-0.34124">
        <ele>125</ele>
        <time>2018-05-20T13:45:14Z</time>
      </trkpt>
      <trkpt lat="48.08755" lon="-0.34128">
        <ele>125</ele>
        <time>2018-05-20T13:45:15Z</time>
      </trkpt>
      <trkpt lat="48.08753" lon="-0.34154">
        <ele>124</ele>
        <time>2018-05-20T13:45:23Z</time>
      </trkpt>
      <trkpt lat="48.08756" lon="-0.34183">
        <ele>123</ele>
        <time>2018-05-20T13:45:33Z</time>
      </trkpt>
      <trkpt lat="48.08761" lon="-0.3421">
        <ele>123</ele>
        <time>2018-05-20T13:45:42Z</time>
      </trkpt>
      <trkpt lat="48.08767" lon="-0.34238">
        <ele>123</ele>
        <time>2018-05-20T13:45:56Z</time>
      </trkpt>
      <trkpt lat="48.08768" lon="-0.3425">
        <ele>123</ele>
        <time>2018-05-20T13:46:09Z</time>
      </trkpt>
      <trkpt lat="48.0877" lon="-0.34253">
        <ele>122</ele>
        <time>2018-05-20T13:46:11Z</time>
      </trkpt>
      <trkpt lat="48.0877" lon="-0.34266">
        <ele>122</ele>
        <time>2018-05-20T13:46:16Z</time>
      </trkpt>
      <trkpt lat="48.08769" lon="-0.34297">
        <ele>122</ele>
        <time>2018-05-20T13:46:24Z</time>
      </trkpt>
      <trkpt lat="48.08769" lon="-0.34319">
        <ele>121</ele>
        <time>2018-05-20T13:46:33Z</time>
      </trkpt>
      <trkpt lat="48.08768" lon="-0.34327">
        <ele>121</ele>
        <time>2018-05-20T13:46:37Z</time>
      </trkpt>
      <trkpt lat="48.08773" lon="-0.34344">
        <ele>120</ele>
        <time>2018-05-20T13:46:44Z</time>
      </trkpt>
      <trkpt lat="48.08774" lon="-0.34352">
        <ele>120</ele>
        <time>2018-05-20T13:46:46Z</time>
      </trkpt>
      <trkpt lat="48.08772" lon="-0.34368">
        <ele>120</ele>
        <time>2018-05-20T13:46:51Z</time>
      </trkpt>
      <trkpt lat="48.08771" lon="-0.34377">
        <ele>120</ele>
        <time>2018-05-20T13:46:53Z</time>
      </trkpt>
      <trkpt lat="48.08774" lon="-0.344">
        <ele>120</ele>
        <time>2018-05-20T13:47:00Z</time>
      </trkpt>
      <trkpt lat="48.08775" lon="-0.34404">
        <ele>120</ele>
        <time>2018-05-20T13:47:02Z</time>
      </trkpt>
      <trkpt lat="48.08775" lon="-0.34421">
        <ele>118</ele>
        <time>2018-05-20T13:47:08Z</time>
      </trkpt>
      <trkpt lat="48.08782" lon="-0.34473">
        <ele>118</ele>
        <time>2018-05-20T13:47:21Z</time>
      </trkpt>
      <trkpt lat="48.0879" lon="-0.34498">
        <ele>118</ele>
        <time>2018-05-20T13:47:31Z</time>
      </trkpt>
      <trkpt lat="48.08795" lon="-0.34505">
        <ele>117</ele>
        <time>2018-05-20T13:47:37Z</time>
      </trkpt>
      <trkpt lat="48.08801" lon="-0.34514">
        <ele>117</ele>
        <time>2018-05-20T13:47:42Z</time>
      </trkpt>
      <trkpt lat="48.08804" lon="-0.3452">
        <ele>117</ele>
        <time>2018-05-20T13:47:46Z</time>
      </trkpt>
      <trkpt lat="48.08812" lon="-0.34534">
        <ele>116</ele>
        <time>2018-05-20T13:47:55Z</time>
      </trkpt>
      <trkpt lat="48.08814" lon="-0.34537">
        <ele>116</ele>
        <time>2018-05-20T13:47:57Z</time>
      </trkpt>
      <trkpt lat="48.08822" lon="-0.34558">
        <ele>116</ele>
        <time>2018-05-20T13:48:10Z</time>
      </trkpt>
      <trkpt lat="48.08827" lon="-0.34572">
        <ele>116</ele>
        <time>2018-05-20T13:48:18Z</time>
      </trkpt>
      <trkpt lat="48.08831" lon="-0.3458">
        <ele>115</ele>
        <time>2018-05-20T13:48:27Z</time>
      </trkpt>
      <trkpt lat="48.0883" lon="-0.34583">
        <ele>115</ele>
        <time>2018-05-20T13:48:34Z</time>
      </trkpt>
      <trkpt lat="48.0883" lon="-0.34599">
        <ele>116</ele>
        <time>2018-05-20T13:48:41Z</time>
      </trkpt>
      <trkpt lat="48.08832" lon="-0.34609">
        <ele>116</ele>
        <time>2018-05-20T13:48:46Z</time>
      </trkpt>
      <trkpt lat="48.08835" lon="-0.34623">
        <ele>117</ele>
        <time>2018-05-20T13:48:50Z</time>
      </trkpt>
      <trkpt lat="48.08843" lon="-0.3465">
        <ele>117</ele>
        <time>2018-05-20T13:48:59Z</time>
      </trkpt>
      <trkpt lat="48.08844" lon="-0.34662">
        <ele>116</ele>
        <time>2018-05-20T13:49:02Z</time>
      </trkpt>
      <trkpt lat="48.08844" lon="-0.34667">
        <ele>116</ele>
        <time>2018-05-20T13:49:04Z</time>
      </trkpt>
      <trkpt lat="48.08854" lon="-0.34707">
        <ele>117</ele>
        <time>2018-05-20T13:49:11Z</time>
      </trkpt>
      <trkpt lat="48.08852" lon="-0.34727">
        <ele>116</ele>
        <time>2018-05-20T13:49:15Z</time>
      </trkpt>
      <trkpt lat="48.08849" lon="-0.34749">
        <ele>116</ele>
        <time>2018-05-20T13:49:20Z</time>
      </trkpt>
      <trkpt lat="48.08844" lon="-0.34766">
        <ele>116</ele>
        <time>2018-05-20T13:49:25Z</time>
      </trkpt>
      <trkpt lat="48.08842" lon="-0.34785">
        <ele>116</ele>
        <time>2018-05-20T13:49:30Z</time>
      </trkpt>
      <trkpt lat="48.08842" lon="-0.34792">
        <ele>115</ele>
        <time>2018-05-20T13:49:32Z</time>
      </trkpt>
      <trkpt lat="48.08843" lon="-0.34808">
        <ele>115</ele>
        <time>2018-05-20T13:49:35Z</time>
      </trkpt>
      <trkpt lat="48.08841" lon="-0.34844">
        <ele>114</ele>
        <time>2018-05-20T13:49:43Z</time>
      </trkpt>
      <trkpt lat="48.08845" lon="-0.34875">
        <ele>114</ele>
        <time>2018-05-20T13:49:50Z</time>
      </trkpt>
      <trkpt lat="48.08853" lon="-0.34907">
        <ele>113</ele>
        <time>2018-05-20T13:49:58Z</time>
      </trkpt>
      <trkpt lat="48.0886" lon="-0.34944">
        <ele>112</ele>
        <time>2018-05-20T13:50:07Z</time>
      </trkpt>
      <trkpt lat="48.08866" lon="-0.34969">
        <ele>112</ele>
        <time>2018-05-20T13:50:13Z</time>
      </trkpt>
      <trkpt lat="48.08874" lon="-0.34992">
        <ele>113</ele>
        <time>2018-05-20T13:50:22Z</time>
      </trkpt>
      <trkpt lat="48.08879" lon="-0.35011">
        <ele>112</ele>
        <time>2018-05-20T13:50:27Z</time>
      </trkpt>
      <trkpt lat="48.08879" lon="-0.35017">
        <ele>112</ele>
        <time>2018-05-20T13:50:29Z</time>
      </trkpt>
      <trkpt lat="48.08889" lon="-0.35047">
        <ele>112</ele>
        <time>2018-05-20T13:50:38Z</time>
      </trkpt>
      <trkpt lat="48.08895" lon="-0.35068">
        <ele>112</ele>
        <time>2018-05-20T13:50:42Z</time>
      </trkpt>
      <trkpt lat="48.08904" lon="-0.35106">
        <ele>111</ele>
        <time>2018-05-20T13:50:50Z</time>
      </trkpt>
      <trkpt lat="48.0891" lon="-0.35139">
        <ele>111</ele>
        <time>2018-05-20T13:50:57Z</time>
      </trkpt>
      <trkpt lat="48.08925" lon="-0.35182">
        <ele>112</ele>
        <time>2018-05-20T13:51:06Z</time>
      </trkpt>
      <trkpt lat="48.0893" lon="-0.35196">
        <ele>112</ele>
        <time>2018-05-20T13:51:10Z</time>
      </trkpt>
      <trkpt lat="48.08949" lon="-0.35243">
        <ele>111</ele>
        <time>2018-05-20T13:51:21Z</time>
      </trkpt>
      <trkpt lat="48.08962" lon="-0.35283">
        <ele>109</ele>
        <time>2018-05-20T13:51:30Z</time>
      </trkpt>
      <trkpt lat="48.08969" lon="-0.35315">
        <ele>108</ele>
        <time>2018-05-20T13:51:37Z</time>
      </trkpt>
      <trkpt lat="48.0897" lon="-0.35336">
        <ele>105</ele>
        <time>2018-05-20T13:51:41Z</time>
      </trkpt>
      <trkpt lat="48.08983" lon="-0.35381">
        <ele>104</ele>
        <time>2018-05-20T13:51:48Z</time>
      </trkpt>
      <trkpt lat="48.09011" lon="-0.35445">
        <ele>101</ele>
        <time>2018-05-20T13:52:00Z</time>
      </trkpt>
      <trkpt lat="48.09018" lon="-0.35456">
        <ele>101</ele>
        <time>2018-05-20T13:52:07Z</time>
      </trkpt>
      <trkpt lat="48.09017" lon="-0.35455">
        <ele>101</ele>
        <time>2018-05-20T13:52:23Z</time>
      </trkpt>
      <trkpt lat="48.09018" lon="-0.35465">
        <ele>101</ele>
        <time>2018-05-20T14:08:21Z</time>
      </trkpt>
      <trkpt lat="48.09019" lon="-0.35467">
        <ele>101</ele>
        <time>2018-05-20T14:08:24Z</time>
      </trkpt>
      <trkpt lat="48.09026" lon="-0.35461">
        <ele>101</ele>
        <time>2018-05-20T14:08:29Z</time>
      </trkpt>
      <trkpt lat="48.0906" lon="-0.3543">
        <ele>101</ele>
        <time>2018-05-20T14:08:43Z</time>
      </trkpt>
      <trkpt lat="48.09078" lon="-0.35392">
        <ele>102</ele>
        <time>2018-05-20T14:08:56Z</time>
      </trkpt>
      <trkpt lat="48.09092" lon="-0.35355">
        <ele>102</ele>
        <time>2018-05-20T14:09:08Z</time>
      </trkpt>
      <trkpt lat="48.09139" lon="-0.35332">
        <ele>105</ele>
        <time>2018-05-20T14:09:25Z</time>
      </trkpt>
      <trkpt lat="48.09171" lon="-0.35321">
        <ele>104</ele>
        <time>2018-05-20T14:09:37Z</time>
      </trkpt>
      <trkpt lat="48.09174" lon="-0.35337">
        <ele>103</ele>
        <time>2018-05-20T14:09:42Z</time>
      </trkpt>
      <trkpt lat="48.09182" lon="-0.35382">
        <ele>103</ele>
        <time>2018-05-20T14:09:53Z</time>
      </trkpt>
      <trkpt lat="48.09202" lon="-0.35386">
        <ele>103</ele>
        <time>2018-05-20T14:09:59Z</time>
      </trkpt>
      <trkpt lat="48.09223" lon="-0.35363">
        <ele>103</ele>
        <time>2018-05-20T14:10:08Z</time>
      </trkpt>
      <trkpt lat="48.09239" lon="-0.35321">
        <ele>104</ele>
        <time>2018-05-20T14:10:19Z</time>
      </trkpt>
      <trkpt lat="48.09255" lon="-0.35283">
        <ele>105</ele>
        <time>2018-05-20T14:10:30Z</time>
      </trkpt>
      <trkpt lat="48.09256" lon="-0.35279">
        <ele>105</ele>
        <time>2018-05-20T14:10:31Z</time>
      </trkpt>
      <trkpt lat="48.09254" lon="-0.35263">
        <ele>105</ele>
        <time>2018-05-20T14:10:35Z</time>
      </trkpt>
      <trkpt lat="48.09263" lon="-0.35255">
        <ele>105</ele>
        <time>2018-05-20T14:10:41Z</time>
      </trkpt>
      <trkpt lat="48.09291" lon="-0.35259">
        <ele>105</ele>
        <time>2018-05-20T14:10:52Z</time>
      </trkpt>
      <trkpt lat="48.09308" lon="-0.35282">
        <ele>105</ele>
        <time>2018-05-20T14:11:03Z</time>
      </trkpt>
      <trkpt lat="48.09322" lon="-0.35299">
        <ele>105</ele>
        <time>2018-05-20T14:11:12Z</time>
      </trkpt>
      <trkpt lat="48.09343" lon="-0.35331">
        <ele>107</ele>
        <time>2018-05-20T14:11:27Z</time>
      </trkpt>
      <trkpt lat="48.09362" lon="-0.3534">
        <ele>111</ele>
        <time>2018-05-20T14:11:39Z</time>
      </trkpt>
      <trkpt lat="48.09363" lon="-0.3534">
        <ele>111</ele>
        <time>2018-05-20T14:11:47Z</time>
      </trkpt>
      <trkpt lat="48.09372" lon="-0.3532">
        <ele>109</ele>
        <time>2018-05-20T14:11:59Z</time>
      </trkpt>
      <trkpt lat="48.09374" lon="-0.3532">
        <ele>110</ele>
        <time>2018-05-20T14:12:01Z</time>
      </trkpt>
      <trkpt lat="48.09364" lon="-0.35339">
        <ele>111</ele>
        <time>2018-05-20T14:12:12Z</time>
      </trkpt>
      <trkpt lat="48.09367" lon="-0.35366">
        <ele>112</ele>
        <time>2018-05-20T14:12:25Z</time>
      </trkpt>
      <trkpt lat="48.09379" lon="-0.35407">
        <ele>113</ele>
        <time>2018-05-20T14:12:44Z</time>
      </trkpt>
      <trkpt lat="48.09389" lon="-0.35436">
        <ele>116</ele>
        <time>2018-05-20T14:13:00Z</time>
      </trkpt>
      <trkpt lat="48.09398" lon="-0.35461">
        <ele>116</ele>
        <time>2018-05-20T14:13:16Z</time>
      </trkpt>
      <trkpt lat="48.09414" lon="-0.3547">
        <ele>117</ele>
        <time>2018-05-20T14:13:32Z</time>
      </trkpt>
      <trkpt lat="48.09431" lon="-0.35463">
        <ele>123</ele>
        <time>2018-05-20T14:13:46Z</time>
      </trkpt>
      <trkpt lat="48.09451" lon="-0.35461">
        <ele>124</ele>
        <time>2018-05-20T14:14:02Z</time>
      </trkpt>
      <trkpt lat="48.09454" lon="-0.35458">
        <ele>124</ele>
        <time>2018-05-20T14:14:05Z</time>
      </trkpt>
      <trkpt lat="48.0947" lon="-0.35455">
        <ele>125</ele>
        <time>2018-05-20T14:14:18Z</time>
      </trkpt>
      <trkpt lat="48.09471" lon="-0.35455">
        <ele>125</ele>
        <time>2018-05-20T14:14:19Z</time>
      </trkpt>
      <trkpt lat="48.0947" lon="-0.3546">
        <ele>125</ele>
        <time>2018-05-20T14:14:22Z</time>
      </trkpt>
      <trkpt lat="48.09463" lon="-0.35467">
        <ele>124</ele>
        <time>2018-05-20T14:14:33Z</time>
      </trkpt>
      <trkpt lat="48.0946" lon="-0.35471">
        <ele>124</ele>
        <time>2018-05-20T14:15:24Z</time>
      </trkpt>
      <trkpt lat="48.09451" lon="-0.35506">
        <ele>124</ele>
        <time>2018-05-20T14:15:33Z</time>
      </trkpt>
      <trkpt lat="48.09432" lon="-0.35578">
        <ele>123</ele>
        <time>2018-05-20T14:15:43Z</time>
      </trkpt>
      <trkpt lat="48.09422" lon="-0.35616">
        <ele>123</ele>
        <time>2018-05-20T14:15:47Z</time>
      </trkpt>
      <trkpt lat="48.09426" lon="-0.35652">
        <ele>122</ele>
        <time>2018-05-20T14:15:52Z</time>
      </trkpt>
      <trkpt lat="48.09429" lon="-0.35655">
        <ele>122</ele>
        <time>2018-05-20T14:15:53Z</time>
      </trkpt>
      <trkpt lat="48.09439" lon="-0.35665">
        <ele>122</ele>
        <time>2018-05-20T14:15:58Z</time>
      </trkpt>
      <trkpt lat="48.09453" lon="-0.35678">
        <ele>123</ele>
        <time>2018-05-20T14:16:08Z</time>
      </trkpt>
      <trkpt lat="48.09456" lon="-0.35681">
        <ele>123</ele>
        <time>2018-05-20T14:16:11Z</time>
      </trkpt>
      <trkpt lat="48.09454" lon="-0.35688">
        <ele>123</ele>
        <time>2018-05-20T14:16:15Z</time>
      </trkpt>
      <trkpt lat="48.09454" lon="-0.35696">
        <ele>123</ele>
        <time>2018-05-20T14:16:22Z</time>
      </trkpt>
    </trkseg>
  </trk>
</gpx>